<?xml version="1.0" encoding="UTF-8" standalone="no" ?>
<gpx xmlns="http://www.topografix.com/GPX/1/1" xmlns:xsi="http://www.w3.org/2001/XMLSchema-instance" xsi:schemaLocation="http://www.topografix.com/GPX/1/1 http://www.topografix.com/GPX/1/1/gpx.xsd" version="1.1" creator="VisuGPX - https://www.visugpx.com">
  <metadata>
    <name>2023-10-05-82-St Antonin Noble Val</name>
    <desc><![CDATA[Randonnée de 18 km pour environ 400m de dénivelé positif, belle montée au départ beaux chemins et très beaux paysages vous attendent que ce soit en bas ou en haut des falaises, ne pas oublier de visiter l'intérieur du village]]></desc>
  </metadata>
  <trk>
    <name><![CDATA[ST ANTONIN BOB 24 9 2023]]></name>
    <extensions>
      <line xmlns="http://www.topografix.com/GPX/gpx_style/0/2">
        <color>0000FF</color>
        <width>4</width>
      </line>
    </extensions>
    <trkseg>
      <trkpt lat="44.14957" lon="1.75367">
        <ele>126.6</ele>
        <time>2023-09-24T07:04:02Z</time>
      </trkpt>
      <trkpt lat="44.14961" lon="1.75349">
        <ele>126.7</ele>
        <time>2023-09-24T07:06:55Z</time>
      </trkpt>
      <trkpt lat="44.14964" lon="1.75323">
        <ele>127.1</ele>
        <time>2023-09-24T07:07:11Z</time>
      </trkpt>
      <trkpt lat="44.14965" lon="1.75302">
        <ele>127.7</ele>
        <time>2023-09-24T07:07:31Z</time>
      </trkpt>
      <trkpt lat="44.14967" lon="1.75282">
        <ele>128.6</ele>
        <time>2023-09-24T07:08:47Z</time>
      </trkpt>
      <trkpt lat="44.14968" lon="1.75268">
        <ele>129</ele>
      </trkpt>
      <trkpt lat="44.14971" lon="1.75255">
        <ele>129</ele>
        <time>2023-09-24T07:09:07Z</time>
      </trkpt>
      <trkpt lat="44.14973" lon="1.75237">
        <ele>128.6</ele>
        <time>2023-09-24T07:10:51Z</time>
      </trkpt>
      <trkpt lat="44.14975" lon="1.75218">
        <ele>128.2</ele>
        <time>2023-09-24T07:11:04Z</time>
      </trkpt>
      <trkpt lat="44.14982" lon="1.75197">
        <ele>134.72</ele>
        <time>2023-09-24T07:11:28Z</time>
      </trkpt>
      <trkpt lat="44.1499" lon="1.75185">
        <ele>134.72</ele>
        <time>2023-09-24T07:11:42Z</time>
      </trkpt>
      <trkpt lat="44.14993" lon="1.75172">
        <ele>134.72</ele>
        <time>2023-09-24T07:11:51Z</time>
      </trkpt>
      <trkpt lat="44.14995" lon="1.75159">
        <ele>134.72</ele>
        <time>2023-09-24T07:11:59Z</time>
      </trkpt>
      <trkpt lat="44.14999" lon="1.75145">
        <ele>134.72</ele>
        <time>2023-09-24T07:12:08Z</time>
      </trkpt>
      <trkpt lat="44.15" lon="1.75131">
        <ele>134.24</ele>
        <time>2023-09-24T07:12:17Z</time>
      </trkpt>
      <trkpt lat="44.15002" lon="1.75117">
        <ele>134.24</ele>
        <time>2023-09-24T07:12:26Z</time>
      </trkpt>
      <trkpt lat="44.15002" lon="1.75103">
        <ele>134.24</ele>
        <time>2023-09-24T07:12:34Z</time>
      </trkpt>
      <trkpt lat="44.15004" lon="1.75088">
        <ele>134.24</ele>
        <time>2023-09-24T07:12:43Z</time>
      </trkpt>
      <trkpt lat="44.15004" lon="1.75073">
        <ele>134.24</ele>
        <time>2023-09-24T07:12:52Z</time>
      </trkpt>
      <trkpt lat="44.15004" lon="1.75058">
        <ele>134.24</ele>
        <time>2023-09-24T07:13:01Z</time>
      </trkpt>
      <trkpt lat="44.15003" lon="1.75043">
        <ele>134.24</ele>
        <time>2023-09-24T07:13:09Z</time>
      </trkpt>
      <trkpt lat="44.15002" lon="1.75029">
        <ele>134.24</ele>
        <time>2023-09-24T07:13:18Z</time>
      </trkpt>
      <trkpt lat="44.15001" lon="1.75016">
        <ele>134.24</ele>
        <time>2023-09-24T07:13:26Z</time>
      </trkpt>
      <trkpt lat="44.14999" lon="1.75003">
        <ele>134.24</ele>
        <time>2023-09-24T07:13:34Z</time>
      </trkpt>
      <trkpt lat="44.14998" lon="1.74989">
        <ele>134.24</ele>
        <time>2023-09-24T07:13:43Z</time>
      </trkpt>
      <trkpt lat="44.14997" lon="1.74978">
        <ele>134.24</ele>
        <time>2023-09-24T07:13:51Z</time>
      </trkpt>
      <trkpt lat="44.14995" lon="1.74964">
        <ele>134.24</ele>
        <time>2023-09-24T07:14:00Z</time>
      </trkpt>
      <trkpt lat="44.14992" lon="1.74949">
        <ele>133.76</ele>
        <time>2023-09-24T07:14:10Z</time>
      </trkpt>
      <trkpt lat="44.1499" lon="1.74934">
        <ele>133.76</ele>
        <time>2023-09-24T07:14:21Z</time>
      </trkpt>
      <trkpt lat="44.14987" lon="1.74916">
        <ele>133.76</ele>
        <time>2023-09-24T07:14:32Z</time>
      </trkpt>
      <trkpt lat="44.14986" lon="1.74902">
        <ele>133.76</ele>
        <time>2023-09-24T07:14:41Z</time>
      </trkpt>
      <trkpt lat="44.14982" lon="1.74877">
        <ele>133.76</ele>
        <time>2023-09-24T07:14:59Z</time>
      </trkpt>
      <trkpt lat="44.14977" lon="1.74842">
        <ele>133.76</ele>
        <time>2023-09-24T07:15:19Z</time>
      </trkpt>
      <trkpt lat="44.14974" lon="1.74822">
        <ele>133.76</ele>
        <time>2023-09-24T07:15:30Z</time>
      </trkpt>
      <trkpt lat="44.14967" lon="1.74806">
        <ele>133.76</ele>
        <time>2023-09-24T07:15:39Z</time>
      </trkpt>
      <trkpt lat="44.14964" lon="1.74791">
        <ele>133.76</ele>
        <time>2023-09-24T07:15:48Z</time>
      </trkpt>
      <trkpt lat="44.14958" lon="1.74776">
        <ele>133.76</ele>
        <time>2023-09-24T07:15:58Z</time>
      </trkpt>
      <trkpt lat="44.14954" lon="1.74758">
        <ele>133.76</ele>
        <time>2023-09-24T07:16:07Z</time>
      </trkpt>
      <trkpt lat="44.14951" lon="1.74743">
        <ele>133.76</ele>
        <time>2023-09-24T07:16:16Z</time>
      </trkpt>
      <trkpt lat="44.14947" lon="1.7473">
        <ele>133.76</ele>
        <time>2023-09-24T07:16:25Z</time>
      </trkpt>
      <trkpt lat="44.14942" lon="1.74716">
        <ele>133.76</ele>
        <time>2023-09-24T07:16:36Z</time>
      </trkpt>
      <trkpt lat="44.14938" lon="1.747">
        <ele>133.76</ele>
        <time>2023-09-24T07:16:45Z</time>
      </trkpt>
      <trkpt lat="44.14935" lon="1.74684">
        <ele>133.76</ele>
        <time>2023-09-24T07:16:55Z</time>
      </trkpt>
      <trkpt lat="44.14931" lon="1.74669">
        <ele>133.28</ele>
        <time>2023-09-24T07:17:04Z</time>
      </trkpt>
      <trkpt lat="44.14927" lon="1.74651">
        <ele>133.28</ele>
        <time>2023-09-24T07:17:14Z</time>
      </trkpt>
      <trkpt lat="44.14923" lon="1.74635">
        <ele>133.28</ele>
        <time>2023-09-24T07:17:22Z</time>
      </trkpt>
      <trkpt lat="44.14918" lon="1.74621">
        <ele>133.28</ele>
        <time>2023-09-24T07:17:31Z</time>
      </trkpt>
      <trkpt lat="44.14913" lon="1.74606">
        <ele>133.28</ele>
        <time>2023-09-24T07:17:40Z</time>
      </trkpt>
      <trkpt lat="44.14908" lon="1.74596">
        <ele>133.28</ele>
        <time>2023-09-24T07:17:51Z</time>
      </trkpt>
      <trkpt lat="44.149" lon="1.74593">
        <ele>133.28</ele>
        <time>2023-09-24T07:18:08Z</time>
      </trkpt>
      <trkpt lat="44.14906" lon="1.74576">
        <ele>132.8</ele>
        <time>2023-09-24T07:18:18Z</time>
      </trkpt>
      <trkpt lat="44.14903" lon="1.74561">
        <ele>132.8</ele>
        <time>2023-09-24T07:18:28Z</time>
      </trkpt>
      <trkpt lat="44.14902" lon="1.74547">
        <ele>132.8</ele>
        <time>2023-09-24T07:18:37Z</time>
      </trkpt>
      <trkpt lat="44.14899" lon="1.74531">
        <ele>132.8</ele>
        <time>2023-09-24T07:18:46Z</time>
      </trkpt>
      <trkpt lat="44.14898" lon="1.74516">
        <ele>132.8</ele>
        <time>2023-09-24T07:18:55Z</time>
      </trkpt>
      <trkpt lat="44.14897" lon="1.74501">
        <ele>132.8</ele>
        <time>2023-09-24T07:19:05Z</time>
      </trkpt>
      <trkpt lat="44.14895" lon="1.74483">
        <ele>132.32</ele>
        <time>2023-09-24T07:19:16Z</time>
      </trkpt>
      <trkpt lat="44.14894" lon="1.74465">
        <ele>132.32</ele>
        <time>2023-09-24T07:19:26Z</time>
      </trkpt>
      <trkpt lat="44.14892" lon="1.74446">
        <ele>132.32</ele>
        <time>2023-09-24T07:19:38Z</time>
      </trkpt>
      <trkpt lat="44.1489" lon="1.74429">
        <ele>132.32</ele>
        <time>2023-09-24T07:19:47Z</time>
      </trkpt>
      <trkpt lat="44.14888" lon="1.74412">
        <ele>132.32</ele>
        <time>2023-09-24T07:19:56Z</time>
      </trkpt>
      <trkpt lat="44.14887" lon="1.74398">
        <ele>132.32</ele>
        <time>2023-09-24T07:20:04Z</time>
      </trkpt>
      <trkpt lat="44.14885" lon="1.74384">
        <ele>132.32</ele>
        <time>2023-09-24T07:20:13Z</time>
      </trkpt>
      <trkpt lat="44.14882" lon="1.74369">
        <ele>132.32</ele>
        <time>2023-09-24T07:20:22Z</time>
      </trkpt>
      <trkpt lat="44.1488" lon="1.74356">
        <ele>132.32</ele>
        <time>2023-09-24T07:20:31Z</time>
      </trkpt>
      <trkpt lat="44.14879" lon="1.7434">
        <ele>132.32</ele>
        <time>2023-09-24T07:20:41Z</time>
      </trkpt>
      <trkpt lat="44.14877" lon="1.74324">
        <ele>132.32</ele>
        <time>2023-09-24T07:20:51Z</time>
      </trkpt>
      <trkpt lat="44.14878" lon="1.74308">
        <ele>132.32</ele>
        <time>2023-09-24T07:21:01Z</time>
      </trkpt>
      <trkpt lat="44.14875" lon="1.7429">
        <ele>132.32</ele>
        <time>2023-09-24T07:21:11Z</time>
      </trkpt>
      <trkpt lat="44.14872" lon="1.74276">
        <ele>132.32</ele>
        <time>2023-09-24T07:21:21Z</time>
      </trkpt>
      <trkpt lat="44.14871" lon="1.74262">
        <ele>131.84</ele>
        <time>2023-09-24T07:21:30Z</time>
      </trkpt>
      <trkpt lat="44.14862" lon="1.74258">
        <ele>131.84</ele>
        <time>2023-09-24T07:21:46Z</time>
      </trkpt>
      <trkpt lat="44.14855" lon="1.74252">
        <ele>131.84</ele>
        <time>2023-09-24T07:22:06Z</time>
      </trkpt>
      <trkpt lat="44.14848" lon="1.74234">
        <ele>131.84</ele>
        <time>2023-09-24T07:22:23Z</time>
      </trkpt>
      <trkpt lat="44.14837" lon="1.74216">
        <ele>131.84</ele>
        <time>2023-09-24T07:22:44Z</time>
      </trkpt>
      <trkpt lat="44.14827" lon="1.74195">
        <ele>131.36</ele>
        <time>2023-09-24T07:23:15Z</time>
      </trkpt>
      <trkpt lat="44.14821" lon="1.74174">
        <ele>131.36</ele>
        <time>2023-09-24T07:23:38Z</time>
      </trkpt>
      <trkpt lat="44.14812" lon="1.7414">
        <ele>131.36</ele>
        <time>2023-09-24T07:24:12Z</time>
      </trkpt>
      <trkpt lat="44.14797" lon="1.74108">
        <ele>131.84</ele>
        <time>2023-09-24T07:24:54Z</time>
      </trkpt>
      <trkpt lat="44.14785" lon="1.74086">
        <ele>152.99</ele>
        <time>2023-09-24T07:25:23Z</time>
      </trkpt>
      <trkpt lat="44.14775" lon="1.74067">
        <ele>156.35</ele>
        <time>2023-09-24T07:25:46Z</time>
      </trkpt>
      <trkpt lat="44.14765" lon="1.74048">
        <ele>161.16</ele>
        <time>2023-09-24T07:26:19Z</time>
      </trkpt>
      <trkpt lat="44.14754" lon="1.74019">
        <ele>166.45</ele>
        <time>2023-09-24T07:27:03Z</time>
      </trkpt>
      <trkpt lat="44.1474" lon="1.73993">
        <ele>170.77</ele>
        <time>2023-09-24T07:27:45Z</time>
      </trkpt>
      <trkpt lat="44.14728" lon="1.73975">
        <ele>174.14</ele>
        <time>2023-09-24T07:28:12Z</time>
      </trkpt>
      <trkpt lat="44.14719" lon="1.73956">
        <ele>177.5</ele>
        <time>2023-09-24T07:28:41Z</time>
      </trkpt>
      <trkpt lat="44.14701" lon="1.73927">
        <ele>184.23</ele>
        <time>2023-09-24T07:29:38Z</time>
      </trkpt>
      <trkpt lat="44.14691" lon="1.7391">
        <ele>187.11</ele>
        <time>2023-09-24T07:30:03Z</time>
      </trkpt>
      <trkpt lat="44.14681" lon="1.73898">
        <ele>188.56</ele>
        <time>2023-09-24T07:30:23Z</time>
      </trkpt>
      <trkpt lat="44.14651" lon="1.73876">
        <ele>194.8</ele>
        <time>2023-09-24T07:31:19Z</time>
      </trkpt>
      <trkpt lat="44.1461" lon="1.73849">
        <ele>209.7</ele>
        <time>2023-09-24T07:33:08Z</time>
      </trkpt>
      <trkpt lat="44.14601" lon="1.73856">
        <ele>214.99</ele>
        <time>2023-09-24T07:33:57Z</time>
      </trkpt>
      <trkpt lat="44.14608" lon="1.73867">
        <ele>214.99</ele>
        <time>2023-09-24T07:34:08Z</time>
      </trkpt>
      <trkpt lat="44.14605" lon="1.73869">
        <ele>215.47</ele>
        <time>2023-09-24T07:36:37Z</time>
      </trkpt>
      <trkpt lat="44.14597" lon="1.73852">
        <ele>215.95</ele>
        <time>2023-09-24T07:36:56Z</time>
      </trkpt>
      <trkpt lat="44.14581" lon="1.73843">
        <ele>223.64</ele>
        <time>2023-09-24T07:37:49Z</time>
      </trkpt>
      <trkpt lat="44.14592" lon="1.73805">
        <ele>230.37</ele>
        <time>2023-09-24T07:38:42Z</time>
      </trkpt>
      <trkpt lat="44.14602" lon="1.73792">
        <ele>232.78</ele>
        <time>2023-09-24T07:39:01Z</time>
      </trkpt>
      <trkpt lat="44.1461" lon="1.73781">
        <ele>235.18</ele>
        <time>2023-09-24T07:39:22Z</time>
      </trkpt>
      <trkpt lat="44.14612" lon="1.73755">
        <ele>239.02</ele>
        <time>2023-09-24T07:40:09Z</time>
      </trkpt>
      <trkpt lat="44.14614" lon="1.73741">
        <ele>241.91</ele>
        <time>2023-09-24T07:40:29Z</time>
      </trkpt>
      <trkpt lat="44.14608" lon="1.73715">
        <ele>245.27</ele>
        <time>2023-09-24T07:40:53Z</time>
      </trkpt>
      <trkpt lat="44.14604" lon="1.73698">
        <ele>245.75</ele>
        <time>2023-09-24T07:41:11Z</time>
      </trkpt>
      <trkpt lat="44.14603" lon="1.73682">
        <ele>247.68</ele>
        <time>2023-09-24T07:41:26Z</time>
      </trkpt>
      <trkpt lat="44.14599" lon="1.73663">
        <ele>249.6</ele>
        <time>2023-09-24T07:41:48Z</time>
      </trkpt>
      <trkpt lat="44.14594" lon="1.73645">
        <ele>252</ele>
        <time>2023-09-24T07:42:07Z</time>
      </trkpt>
      <trkpt lat="44.14588" lon="1.73623">
        <ele>257.29</ele>
        <time>2023-09-24T07:42:43Z</time>
      </trkpt>
      <trkpt lat="44.14579" lon="1.73602">
        <ele>259.69</ele>
        <time>2023-09-24T07:43:06Z</time>
      </trkpt>
      <trkpt lat="44.14575" lon="1.73584">
        <ele>262.1</ele>
        <time>2023-09-24T07:43:27Z</time>
      </trkpt>
      <trkpt lat="44.14571" lon="1.73563">
        <ele>264.5</ele>
        <time>2023-09-24T07:43:49Z</time>
      </trkpt>
      <trkpt lat="44.14569" lon="1.73547">
        <ele>265.46</ele>
        <time>2023-09-24T07:44:03Z</time>
      </trkpt>
      <trkpt lat="44.14566" lon="1.73523">
        <ele>266.9</ele>
        <time>2023-09-24T07:44:22Z</time>
      </trkpt>
      <trkpt lat="44.14565" lon="1.73504">
        <ele>268.35</ele>
        <time>2023-09-24T07:44:39Z</time>
      </trkpt>
      <trkpt lat="44.14563" lon="1.73487">
        <ele>270.27</ele>
        <time>2023-09-24T07:44:55Z</time>
      </trkpt>
      <trkpt lat="44.14564" lon="1.7347">
        <ele>271.71</ele>
        <time>2023-09-24T07:45:13Z</time>
      </trkpt>
      <trkpt lat="44.1456" lon="1.73445">
        <ele>274.11</ele>
        <time>2023-09-24T07:45:37Z</time>
      </trkpt>
      <trkpt lat="44.14558" lon="1.73426">
        <ele>275.56</ele>
        <time>2023-09-24T07:45:54Z</time>
      </trkpt>
      <trkpt lat="44.14553" lon="1.73409">
        <ele>276.52</ele>
        <time>2023-09-24T07:46:11Z</time>
      </trkpt>
      <trkpt lat="44.14552" lon="1.73381">
        <ele>280.84</ele>
        <time>2023-09-24T07:46:40Z</time>
      </trkpt>
      <trkpt lat="44.14551" lon="1.73377">
        <ele>283.25</ele>
        <time>2023-09-24T07:47:08Z</time>
      </trkpt>
      <trkpt lat="44.14547" lon="1.73394">
        <ele>285.65</ele>
        <time>2023-09-24T07:47:31Z</time>
      </trkpt>
      <trkpt lat="44.14527" lon="1.73423">
        <ele>294.3</ele>
        <time>2023-09-24T07:48:32Z</time>
      </trkpt>
      <trkpt lat="44.14502" lon="1.73417">
        <ele>302.95</ele>
        <time>2023-09-24T07:49:33Z</time>
      </trkpt>
      <trkpt lat="44.14492" lon="1.73394">
        <ele>307.28</ele>
        <time>2023-09-24T07:50:06Z</time>
      </trkpt>
      <trkpt lat="44.14503" lon="1.73384">
        <ele>310.64</ele>
        <time>2023-09-24T07:54:56Z</time>
      </trkpt>
      <trkpt lat="44.14501" lon="1.73367">
        <ele>310.64</ele>
        <time>2023-09-24T07:55:12Z</time>
      </trkpt>
      <trkpt lat="44.14502" lon="1.73352">
        <ele>311.12</ele>
        <time>2023-09-24T07:55:28Z</time>
      </trkpt>
      <trkpt lat="44.14493" lon="1.73331">
        <ele>315.45</ele>
        <time>2023-09-24T07:55:58Z</time>
      </trkpt>
      <trkpt lat="44.14485" lon="1.7332">
        <ele>318.81</ele>
        <time>2023-09-24T07:56:18Z</time>
      </trkpt>
      <trkpt lat="44.14478" lon="1.73308">
        <ele>320.74</ele>
        <time>2023-09-24T07:56:36Z</time>
      </trkpt>
      <trkpt lat="44.1447" lon="1.73299">
        <ele>322.66</ele>
        <time>2023-09-24T07:56:54Z</time>
      </trkpt>
      <trkpt lat="44.14462" lon="1.73289">
        <ele>324.1</ele>
        <time>2023-09-24T07:57:08Z</time>
      </trkpt>
      <trkpt lat="44.14454" lon="1.73283">
        <ele>325.06</ele>
        <time>2023-09-24T07:57:21Z</time>
      </trkpt>
      <trkpt lat="44.14445" lon="1.73276">
        <ele>326.02</ele>
        <time>2023-09-24T07:57:37Z</time>
      </trkpt>
      <trkpt lat="44.14445" lon="1.7326">
        <ele>326.5</ele>
        <time>2023-09-24T07:57:52Z</time>
      </trkpt>
      <trkpt lat="44.14446" lon="1.73245">
        <ele>326.99</ele>
        <time>2023-09-24T07:58:04Z</time>
      </trkpt>
      <trkpt lat="44.14449" lon="1.7323">
        <ele>327.47</ele>
        <time>2023-09-24T07:58:17Z</time>
      </trkpt>
      <trkpt lat="44.14451" lon="1.73215">
        <ele>327.47</ele>
        <time>2023-09-24T07:58:28Z</time>
      </trkpt>
      <trkpt lat="44.14452" lon="1.732">
        <ele>327.47</ele>
        <time>2023-09-24T07:58:39Z</time>
      </trkpt>
      <trkpt lat="44.14453" lon="1.73185">
        <ele>327.47</ele>
        <time>2023-09-24T07:58:49Z</time>
      </trkpt>
      <trkpt lat="44.14454" lon="1.73171">
        <ele>327.95</ele>
        <time>2023-09-24T07:58:59Z</time>
      </trkpt>
      <trkpt lat="44.14457" lon="1.73156">
        <ele>327.95</ele>
        <time>2023-09-24T07:59:10Z</time>
      </trkpt>
      <trkpt lat="44.14461" lon="1.73141">
        <ele>327.95</ele>
        <time>2023-09-24T07:59:21Z</time>
      </trkpt>
      <trkpt lat="44.1446" lon="1.73126">
        <ele>327.95</ele>
        <time>2023-09-24T07:59:32Z</time>
      </trkpt>
      <trkpt lat="44.14459" lon="1.73111">
        <ele>327.95</ele>
        <time>2023-09-24T07:59:42Z</time>
      </trkpt>
      <trkpt lat="44.1446" lon="1.73097">
        <ele>327.95</ele>
        <time>2023-09-24T07:59:52Z</time>
      </trkpt>
      <trkpt lat="44.14459" lon="1.7308">
        <ele>327.95</ele>
        <time>2023-09-24T08:00:04Z</time>
      </trkpt>
      <trkpt lat="44.14455" lon="1.73066">
        <ele>327.95</ele>
        <time>2023-09-24T08:00:15Z</time>
      </trkpt>
      <trkpt lat="44.14453" lon="1.73053">
        <ele>327.95</ele>
        <time>2023-09-24T08:00:25Z</time>
      </trkpt>
      <trkpt lat="44.14452" lon="1.73039">
        <ele>327.95</ele>
        <time>2023-09-24T08:00:35Z</time>
      </trkpt>
      <trkpt lat="44.14456" lon="1.73022">
        <ele>327.95</ele>
        <time>2023-09-24T08:00:46Z</time>
      </trkpt>
      <trkpt lat="44.14459" lon="1.73006">
        <ele>327.95</ele>
        <time>2023-09-24T08:00:57Z</time>
      </trkpt>
      <trkpt lat="44.14467" lon="1.72996">
        <ele>326.99</ele>
        <time>2023-09-24T08:01:09Z</time>
      </trkpt>
      <trkpt lat="44.14479" lon="1.72989">
        <ele>325.54</ele>
        <time>2023-09-24T08:01:24Z</time>
      </trkpt>
      <trkpt lat="44.14491" lon="1.72976">
        <ele>325.06</ele>
        <time>2023-09-24T08:01:39Z</time>
      </trkpt>
      <trkpt lat="44.145" lon="1.72964">
        <ele>324.1</ele>
        <time>2023-09-24T08:01:53Z</time>
      </trkpt>
      <trkpt lat="44.14507" lon="1.72948">
        <ele>323.62</ele>
        <time>2023-09-24T08:02:08Z</time>
      </trkpt>
      <trkpt lat="44.14513" lon="1.72933">
        <ele>322.66</ele>
        <time>2023-09-24T08:02:20Z</time>
      </trkpt>
      <trkpt lat="44.14522" lon="1.72922">
        <ele>322.18</ele>
        <time>2023-09-24T08:02:30Z</time>
      </trkpt>
      <trkpt lat="44.14529" lon="1.7291">
        <ele>321.7</ele>
        <time>2023-09-24T08:02:40Z</time>
      </trkpt>
      <trkpt lat="44.14529" lon="1.72895">
        <ele>322.18</ele>
        <time>2023-09-24T08:02:51Z</time>
      </trkpt>
      <trkpt lat="44.14529" lon="1.72881">
        <ele>322.18</ele>
        <time>2023-09-24T08:03:02Z</time>
      </trkpt>
      <trkpt lat="44.14528" lon="1.72864">
        <ele>323.14</ele>
        <time>2023-09-24T08:03:12Z</time>
      </trkpt>
      <trkpt lat="44.14528" lon="1.7285">
        <ele>323.14</ele>
        <time>2023-09-24T08:03:21Z</time>
      </trkpt>
      <trkpt lat="44.14529" lon="1.72836">
        <ele>323.14</ele>
        <time>2023-09-24T08:03:31Z</time>
      </trkpt>
      <trkpt lat="44.14526" lon="1.72824">
        <ele>323.14</ele>
        <time>2023-09-24T08:03:41Z</time>
      </trkpt>
      <trkpt lat="44.14517" lon="1.72813">
        <ele>324.1</ele>
        <time>2023-09-24T08:03:54Z</time>
      </trkpt>
      <trkpt lat="44.1451" lon="1.72802">
        <ele>325.06</ele>
        <time>2023-09-24T08:04:04Z</time>
      </trkpt>
      <trkpt lat="44.14505" lon="1.7279">
        <ele>325.54</ele>
        <time>2023-09-24T08:04:14Z</time>
      </trkpt>
      <trkpt lat="44.14499" lon="1.72777">
        <ele>325.54</ele>
        <time>2023-09-24T08:04:24Z</time>
      </trkpt>
      <trkpt lat="44.14496" lon="1.72763">
        <ele>325.54</ele>
        <time>2023-09-24T08:04:35Z</time>
      </trkpt>
      <trkpt lat="44.14492" lon="1.7275">
        <ele>325.54</ele>
        <time>2023-09-24T08:04:44Z</time>
      </trkpt>
      <trkpt lat="44.14489" lon="1.72736">
        <ele>325.54</ele>
        <time>2023-09-24T08:04:54Z</time>
      </trkpt>
      <trkpt lat="44.14488" lon="1.72722">
        <ele>325.54</ele>
        <time>2023-09-24T08:05:04Z</time>
      </trkpt>
      <trkpt lat="44.14493" lon="1.72706">
        <ele>323.62</ele>
        <time>2023-09-24T08:05:17Z</time>
      </trkpt>
      <trkpt lat="44.14497" lon="1.72691">
        <ele>321.7</ele>
        <time>2023-09-24T08:05:31Z</time>
      </trkpt>
      <trkpt lat="44.14495" lon="1.72675">
        <ele>321.22</ele>
        <time>2023-09-24T08:05:44Z</time>
      </trkpt>
      <trkpt lat="44.14496" lon="1.72658">
        <ele>319.78</ele>
        <time>2023-09-24T08:05:57Z</time>
      </trkpt>
      <trkpt lat="44.1449" lon="1.72644">
        <ele>319.3</ele>
        <time>2023-09-24T08:06:08Z</time>
      </trkpt>
      <trkpt lat="44.14485" lon="1.72631">
        <ele>319.3</ele>
        <time>2023-09-24T08:06:18Z</time>
      </trkpt>
      <trkpt lat="44.1448" lon="1.72617">
        <ele>319.3</ele>
        <time>2023-09-24T08:06:29Z</time>
      </trkpt>
      <trkpt lat="44.14476" lon="1.72603">
        <ele>319.78</ele>
        <time>2023-09-24T08:06:40Z</time>
      </trkpt>
      <trkpt lat="44.1447" lon="1.72589">
        <ele>319.78</ele>
        <time>2023-09-24T08:06:51Z</time>
      </trkpt>
      <trkpt lat="44.14464" lon="1.72576">
        <ele>321.22</ele>
        <time>2023-09-24T08:07:03Z</time>
      </trkpt>
      <trkpt lat="44.14457" lon="1.72565">
        <ele>322.18</ele>
        <time>2023-09-24T08:07:14Z</time>
      </trkpt>
      <trkpt lat="44.14448" lon="1.72556">
        <ele>324.1</ele>
        <time>2023-09-24T08:07:28Z</time>
      </trkpt>
      <trkpt lat="44.14437" lon="1.72555">
        <ele>325.06</ele>
        <time>2023-09-24T08:07:42Z</time>
      </trkpt>
      <trkpt lat="44.14429" lon="1.72545">
        <ele>326.02</ele>
        <time>2023-09-24T08:07:55Z</time>
      </trkpt>
      <trkpt lat="44.14424" lon="1.72533">
        <ele>326.99</ele>
        <time>2023-09-24T08:08:07Z</time>
      </trkpt>
      <trkpt lat="44.14419" lon="1.72519">
        <ele>327.47</ele>
        <time>2023-09-24T08:08:20Z</time>
      </trkpt>
      <trkpt lat="44.14413" lon="1.72502">
        <ele>327.47</ele>
        <time>2023-09-24T08:08:31Z</time>
      </trkpt>
      <trkpt lat="44.1441" lon="1.72487">
        <ele>327.47</ele>
        <time>2023-09-24T08:08:41Z</time>
      </trkpt>
      <trkpt lat="44.14407" lon="1.72473">
        <ele>327.47</ele>
        <time>2023-09-24T08:08:51Z</time>
      </trkpt>
      <trkpt lat="44.14404" lon="1.72457">
        <ele>327.47</ele>
        <time>2023-09-24T08:09:02Z</time>
      </trkpt>
      <trkpt lat="44.14401" lon="1.72442">
        <ele>327.95</ele>
        <time>2023-09-24T08:09:14Z</time>
      </trkpt>
      <trkpt lat="44.14402" lon="1.72425">
        <ele>327.95</ele>
        <time>2023-09-24T08:09:27Z</time>
      </trkpt>
      <trkpt lat="44.144" lon="1.72408">
        <ele>327.95</ele>
        <time>2023-09-24T08:09:42Z</time>
      </trkpt>
      <trkpt lat="44.14401" lon="1.72392">
        <ele>327.95</ele>
        <time>2023-09-24T08:09:57Z</time>
      </trkpt>
      <trkpt lat="44.14406" lon="1.72375">
        <ele>326.02</ele>
        <time>2023-09-24T08:10:14Z</time>
      </trkpt>
      <trkpt lat="44.1441" lon="1.7236">
        <ele>325.06</ele>
        <time>2023-09-24T08:10:28Z</time>
      </trkpt>
      <trkpt lat="44.14414" lon="1.72347">
        <ele>324.1</ele>
        <time>2023-09-24T08:10:42Z</time>
      </trkpt>
      <trkpt lat="44.14419" lon="1.72331">
        <ele>323.14</ele>
        <time>2023-09-24T08:10:55Z</time>
      </trkpt>
      <trkpt lat="44.14422" lon="1.72321">
        <ele>322.66</ele>
        <time>2023-09-24T08:11:12Z</time>
      </trkpt>
      <trkpt lat="44.1443" lon="1.72306">
        <ele>321.7</ele>
        <time>2023-09-24T08:11:25Z</time>
      </trkpt>
      <trkpt lat="44.14435" lon="1.72291">
        <ele>320.74</ele>
        <time>2023-09-24T08:11:39Z</time>
      </trkpt>
      <trkpt lat="44.14439" lon="1.72275">
        <ele>319.3</ele>
        <time>2023-09-24T08:11:50Z</time>
      </trkpt>
      <trkpt lat="44.14444" lon="1.72258">
        <ele>317.85</ele>
        <time>2023-09-24T08:12:03Z</time>
      </trkpt>
      <trkpt lat="44.14446" lon="1.72243">
        <ele>317.37</ele>
        <time>2023-09-24T08:12:14Z</time>
      </trkpt>
      <trkpt lat="44.14447" lon="1.72229">
        <ele>316.41</ele>
        <time>2023-09-24T08:12:33Z</time>
      </trkpt>
      <trkpt lat="44.14451" lon="1.72219">
        <ele>315.93</ele>
        <time>2023-09-24T08:13:41Z</time>
      </trkpt>
      <trkpt lat="44.14456" lon="1.72207">
        <ele>314.01</ele>
        <time>2023-09-24T08:13:54Z</time>
      </trkpt>
      <trkpt lat="44.14462" lon="1.72194">
        <ele>312.57</ele>
        <time>2023-09-24T08:14:06Z</time>
      </trkpt>
      <trkpt lat="44.14467" lon="1.72183">
        <ele>311.12</ele>
        <time>2023-09-24T08:14:17Z</time>
      </trkpt>
      <trkpt lat="44.14468" lon="1.72169">
        <ele>309.68</ele>
        <time>2023-09-24T08:14:29Z</time>
      </trkpt>
      <trkpt lat="44.14461" lon="1.72164">
        <ele>308.24</ele>
        <time>2023-09-24T08:14:50Z</time>
      </trkpt>
      <trkpt lat="44.14452" lon="1.72168">
        <ele>307.28</ele>
        <time>2023-09-24T08:15:02Z</time>
      </trkpt>
      <trkpt lat="44.14442" lon="1.7217">
        <ele>305.36</ele>
        <time>2023-09-24T08:15:15Z</time>
      </trkpt>
      <trkpt lat="44.14433" lon="1.72168">
        <ele>303.91</ele>
        <time>2023-09-24T08:15:29Z</time>
      </trkpt>
      <trkpt lat="44.14438" lon="1.72156">
        <ele>301.99</ele>
        <time>2023-09-24T08:15:45Z</time>
      </trkpt>
      <trkpt lat="44.14445" lon="1.72144">
        <ele>300.07</ele>
        <time>2023-09-24T08:15:59Z</time>
      </trkpt>
      <trkpt lat="44.14452" lon="1.72133">
        <ele>298.15</ele>
        <time>2023-09-24T08:16:12Z</time>
      </trkpt>
      <trkpt lat="44.1446" lon="1.72121">
        <ele>296.22</ele>
        <time>2023-09-24T08:16:26Z</time>
      </trkpt>
      <trkpt lat="44.14469" lon="1.72111">
        <ele>295.26</ele>
        <time>2023-09-24T08:16:39Z</time>
      </trkpt>
      <trkpt lat="44.1448" lon="1.72103">
        <ele>293.34</ele>
        <time>2023-09-24T08:16:52Z</time>
      </trkpt>
      <trkpt lat="44.1449" lon="1.72096">
        <ele>291.9</ele>
        <time>2023-09-24T08:17:05Z</time>
      </trkpt>
      <trkpt lat="44.145" lon="1.72089">
        <ele>290.46</ele>
        <time>2023-09-24T08:17:18Z</time>
      </trkpt>
      <trkpt lat="44.14511" lon="1.72083">
        <ele>289.01</ele>
        <time>2023-09-24T08:17:30Z</time>
      </trkpt>
      <trkpt lat="44.14521" lon="1.72078">
        <ele>288.05</ele>
        <time>2023-09-24T08:17:40Z</time>
      </trkpt>
      <trkpt lat="44.14531" lon="1.72075">
        <ele>286.61</ele>
        <time>2023-09-24T08:17:53Z</time>
      </trkpt>
      <trkpt lat="44.14541" lon="1.72078">
        <ele>284.69</ele>
        <time>2023-09-24T08:18:07Z</time>
      </trkpt>
      <trkpt lat="44.14552" lon="1.72079">
        <ele>282.28</ele>
        <time>2023-09-24T08:18:23Z</time>
      </trkpt>
      <trkpt lat="44.14559" lon="1.72067">
        <ele>280.84</ele>
        <time>2023-09-24T08:18:37Z</time>
      </trkpt>
      <trkpt lat="44.14562" lon="1.72052">
        <ele>278.92</ele>
        <time>2023-09-24T08:18:51Z</time>
      </trkpt>
      <trkpt lat="44.14561" lon="1.72034">
        <ele>277</ele>
        <time>2023-09-24T08:19:07Z</time>
      </trkpt>
      <trkpt lat="44.14559" lon="1.72018">
        <ele>274.59</ele>
        <time>2023-09-24T08:19:24Z</time>
      </trkpt>
      <trkpt lat="44.14563" lon="1.72004">
        <ele>272.67</ele>
        <time>2023-09-24T08:19:38Z</time>
      </trkpt>
      <trkpt lat="44.14571" lon="1.71994">
        <ele>270.75</ele>
        <time>2023-09-24T08:19:53Z</time>
      </trkpt>
      <trkpt lat="44.1458" lon="1.71985">
        <ele>268.83</ele>
        <time>2023-09-24T08:20:06Z</time>
      </trkpt>
      <trkpt lat="44.14588" lon="1.71975">
        <ele>267.86</ele>
        <time>2023-09-24T08:20:20Z</time>
      </trkpt>
      <trkpt lat="44.14596" lon="1.71963">
        <ele>265.94</ele>
        <time>2023-09-24T08:20:34Z</time>
      </trkpt>
      <trkpt lat="44.14602" lon="1.71949">
        <ele>264.98</ele>
        <time>2023-09-24T08:20:47Z</time>
      </trkpt>
      <trkpt lat="44.14611" lon="1.71937">
        <ele>263.54</ele>
        <time>2023-09-24T08:21:00Z</time>
      </trkpt>
      <trkpt lat="44.1462" lon="1.71927">
        <ele>261.62</ele>
        <time>2023-09-24T08:21:14Z</time>
      </trkpt>
      <trkpt lat="44.14632" lon="1.71919">
        <ele>259.69</ele>
        <time>2023-09-24T08:21:31Z</time>
      </trkpt>
      <trkpt lat="44.14645" lon="1.71916">
        <ele>258.25</ele>
        <time>2023-09-24T08:21:48Z</time>
      </trkpt>
      <trkpt lat="44.14658" lon="1.71918">
        <ele>255.37</ele>
        <time>2023-09-24T08:22:10Z</time>
      </trkpt>
      <trkpt lat="44.14669" lon="1.71917">
        <ele>252.48</ele>
        <time>2023-09-24T08:22:29Z</time>
      </trkpt>
      <trkpt lat="44.14677" lon="1.71902">
        <ele>250.56</ele>
        <time>2023-09-24T08:22:44Z</time>
      </trkpt>
      <trkpt lat="44.14683" lon="1.71887">
        <ele>249.12</ele>
        <time>2023-09-24T08:22:59Z</time>
      </trkpt>
      <trkpt lat="44.1469" lon="1.7187">
        <ele>246.23</ele>
        <time>2023-09-24T08:23:16Z</time>
      </trkpt>
      <trkpt lat="44.14694" lon="1.71854">
        <ele>244.31</ele>
        <time>2023-09-24T08:23:30Z</time>
      </trkpt>
      <trkpt lat="44.14694" lon="1.7184">
        <ele>243.35</ele>
        <time>2023-09-24T08:23:41Z</time>
      </trkpt>
      <trkpt lat="44.14691" lon="1.71825">
        <ele>241.91</ele>
        <time>2023-09-24T08:23:54Z</time>
      </trkpt>
      <trkpt lat="44.14687" lon="1.71811">
        <ele>240.47</ele>
        <time>2023-09-24T08:24:07Z</time>
      </trkpt>
      <trkpt lat="44.14683" lon="1.71798">
        <ele>239.02</ele>
        <time>2023-09-24T08:24:20Z</time>
      </trkpt>
      <trkpt lat="44.14675" lon="1.71791">
        <ele>236.62</ele>
        <time>2023-09-24T08:24:33Z</time>
      </trkpt>
      <trkpt lat="44.14665" lon="1.71788">
        <ele>235.66</ele>
        <time>2023-09-24T08:24:46Z</time>
      </trkpt>
      <trkpt lat="44.14655" lon="1.71785">
        <ele>233.74</ele>
        <time>2023-09-24T08:24:59Z</time>
      </trkpt>
      <trkpt lat="44.14645" lon="1.71782">
        <ele>232.78</ele>
        <time>2023-09-24T08:25:13Z</time>
      </trkpt>
      <trkpt lat="44.14635" lon="1.71781">
        <ele>230.85</ele>
        <time>2023-09-24T08:25:28Z</time>
      </trkpt>
      <trkpt lat="44.14625" lon="1.71779">
        <ele>228.93</ele>
        <time>2023-09-24T08:25:43Z</time>
      </trkpt>
      <trkpt lat="44.14614" lon="1.71779">
        <ele>227.01</ele>
        <time>2023-09-24T08:25:58Z</time>
      </trkpt>
      <trkpt lat="44.14603" lon="1.71777">
        <ele>225.57</ele>
        <time>2023-09-24T08:26:12Z</time>
      </trkpt>
      <trkpt lat="44.14594" lon="1.71776">
        <ele>223.16</ele>
        <time>2023-09-24T08:26:28Z</time>
      </trkpt>
      <trkpt lat="44.14585" lon="1.71772">
        <ele>220.76</ele>
        <time>2023-09-24T08:26:45Z</time>
      </trkpt>
      <trkpt lat="44.14576" lon="1.7177">
        <ele>219.32</ele>
        <time>2023-09-24T08:26:58Z</time>
      </trkpt>
      <trkpt lat="44.14566" lon="1.71768">
        <ele>217.88</ele>
        <time>2023-09-24T08:27:11Z</time>
      </trkpt>
      <trkpt lat="44.14556" lon="1.71766">
        <ele>216.43</ele>
        <time>2023-09-24T08:27:24Z</time>
      </trkpt>
      <trkpt lat="44.14544" lon="1.71764">
        <ele>214.99</ele>
        <time>2023-09-24T08:27:37Z</time>
      </trkpt>
      <trkpt lat="44.14534" lon="1.71763">
        <ele>213.07</ele>
        <time>2023-09-24T08:27:50Z</time>
      </trkpt>
      <trkpt lat="44.14523" lon="1.71762">
        <ele>211.63</ele>
        <time>2023-09-24T08:28:04Z</time>
      </trkpt>
      <trkpt lat="44.14512" lon="1.71757">
        <ele>208.74</ele>
        <time>2023-09-24T08:28:22Z</time>
      </trkpt>
      <trkpt lat="44.14503" lon="1.71754">
        <ele>206.82</ele>
        <time>2023-09-24T08:28:39Z</time>
      </trkpt>
      <trkpt lat="44.14493" lon="1.7175">
        <ele>204.42</ele>
        <time>2023-09-24T08:28:54Z</time>
      </trkpt>
      <trkpt lat="44.14482" lon="1.71746">
        <ele>202.49</ele>
        <time>2023-09-24T08:29:14Z</time>
      </trkpt>
      <trkpt lat="44.14472" lon="1.71741">
        <ele>200.57</ele>
        <time>2023-09-24T08:29:30Z</time>
      </trkpt>
      <trkpt lat="44.14463" lon="1.71735">
        <ele>198.65</ele>
        <time>2023-09-24T08:29:44Z</time>
      </trkpt>
      <trkpt lat="44.14453" lon="1.7173">
        <ele>196.25</ele>
        <time>2023-09-24T08:30:02Z</time>
      </trkpt>
      <trkpt lat="44.14442" lon="1.71726">
        <ele>193.84</ele>
        <time>2023-09-24T08:30:20Z</time>
      </trkpt>
      <trkpt lat="44.14431" lon="1.71722">
        <ele>191.92</ele>
        <time>2023-09-24T08:30:37Z</time>
      </trkpt>
      <trkpt lat="44.14421" lon="1.71719">
        <ele>190</ele>
        <time>2023-09-24T08:30:58Z</time>
      </trkpt>
      <trkpt lat="44.14412" lon="1.71718">
        <ele>187.59</ele>
        <time>2023-09-24T08:31:11Z</time>
      </trkpt>
      <trkpt lat="44.14403" lon="1.71714">
        <ele>185.19</ele>
        <time>2023-09-24T08:31:26Z</time>
      </trkpt>
      <trkpt lat="44.14394" lon="1.71711">
        <ele>182.79</ele>
        <time>2023-09-24T08:31:42Z</time>
      </trkpt>
      <trkpt lat="44.1438" lon="1.71711">
        <ele>179.9</ele>
        <time>2023-09-24T08:32:02Z</time>
      </trkpt>
      <trkpt lat="44.14367" lon="1.71709">
        <ele>177.98</ele>
        <time>2023-09-24T08:32:32Z</time>
      </trkpt>
      <trkpt lat="44.14353" lon="1.71705">
        <ele>175.58</ele>
        <time>2023-09-24T08:32:51Z</time>
      </trkpt>
      <trkpt lat="44.14342" lon="1.71698">
        <ele>173.66</ele>
        <time>2023-09-24T08:33:09Z</time>
      </trkpt>
      <trkpt lat="44.14332" lon="1.71689">
        <ele>171.25</ele>
        <time>2023-09-24T08:33:28Z</time>
      </trkpt>
      <trkpt lat="44.14321" lon="1.71677">
        <ele>168.37</ele>
        <time>2023-09-24T08:33:50Z</time>
      </trkpt>
      <trkpt lat="44.14308" lon="1.71671">
        <ele>165.96</ele>
        <time>2023-09-24T08:34:11Z</time>
      </trkpt>
      <trkpt lat="44.14297" lon="1.71666">
        <ele>164.04</ele>
        <time>2023-09-24T08:34:29Z</time>
      </trkpt>
      <trkpt lat="44.14286" lon="1.71665">
        <ele>162.12</ele>
        <time>2023-09-24T08:34:44Z</time>
      </trkpt>
      <trkpt lat="44.14278" lon="1.71668">
        <ele>161.16</ele>
        <time>2023-09-24T08:34:56Z</time>
      </trkpt>
      <trkpt lat="44.14268" lon="1.7167">
        <ele>160.68</ele>
        <time>2023-09-24T08:35:07Z</time>
      </trkpt>
      <trkpt lat="44.1426" lon="1.71674">
        <ele>160.68</ele>
        <time>2023-09-24T08:35:31Z</time>
      </trkpt>
      <trkpt lat="44.14257" lon="1.71674">
        <ele>159.72</ele>
        <time>2023-09-24T08:43:19Z</time>
      </trkpt>
      <trkpt lat="44.14251" lon="1.71686">
        <ele>159.24</ele>
        <time>2023-09-24T08:44:04Z</time>
      </trkpt>
      <trkpt lat="44.14244" lon="1.71693">
        <ele>158.27</ele>
        <time>2023-09-24T08:44:17Z</time>
      </trkpt>
      <trkpt lat="44.14236" lon="1.71704">
        <ele>156.83</ele>
        <time>2023-09-24T08:44:29Z</time>
      </trkpt>
      <trkpt lat="44.14229" lon="1.71711">
        <ele>155.87</ele>
        <time>2023-09-24T08:44:39Z</time>
      </trkpt>
      <trkpt lat="44.14219" lon="1.71717">
        <ele>155.39</ele>
        <time>2023-09-24T08:44:50Z</time>
      </trkpt>
      <trkpt lat="44.14209" lon="1.71722">
        <ele>154.43</ele>
        <time>2023-09-24T08:45:00Z</time>
      </trkpt>
      <trkpt lat="44.14198" lon="1.71725">
        <ele>152.99</ele>
        <time>2023-09-24T08:45:09Z</time>
      </trkpt>
      <trkpt lat="44.14188" lon="1.71728">
        <ele>152.03</ele>
        <time>2023-09-24T08:45:19Z</time>
      </trkpt>
      <trkpt lat="44.14178" lon="1.71731">
        <ele>152.03</ele>
        <time>2023-09-24T08:45:28Z</time>
      </trkpt>
      <trkpt lat="44.14168" lon="1.71734">
        <ele>152.03</ele>
        <time>2023-09-24T08:45:37Z</time>
      </trkpt>
      <trkpt lat="44.14158" lon="1.71741">
        <ele>152.03</ele>
        <time>2023-09-24T08:45:47Z</time>
      </trkpt>
      <trkpt lat="44.14148" lon="1.71747">
        <ele>152.03</ele>
        <time>2023-09-24T08:45:56Z</time>
      </trkpt>
      <trkpt lat="44.14139" lon="1.71752">
        <ele>152.03</ele>
        <time>2023-09-24T08:46:05Z</time>
      </trkpt>
      <trkpt lat="44.14128" lon="1.71757">
        <ele>152.03</ele>
        <time>2023-09-24T08:46:14Z</time>
      </trkpt>
      <trkpt lat="44.14118" lon="1.71762">
        <ele>152.03</ele>
        <time>2023-09-24T08:46:23Z</time>
      </trkpt>
      <trkpt lat="44.14108" lon="1.71765">
        <ele>152.03</ele>
        <time>2023-09-24T08:46:31Z</time>
      </trkpt>
      <trkpt lat="44.14099" lon="1.7177">
        <ele>151.54</ele>
        <time>2023-09-24T08:46:39Z</time>
      </trkpt>
      <trkpt lat="44.14091" lon="1.71776">
        <ele>151.54</ele>
        <time>2023-09-24T08:46:47Z</time>
      </trkpt>
      <trkpt lat="44.14082" lon="1.7178">
        <ele>151.54</ele>
        <time>2023-09-24T08:46:55Z</time>
      </trkpt>
      <trkpt lat="44.14073" lon="1.71785">
        <ele>151.54</ele>
        <time>2023-09-24T08:47:03Z</time>
      </trkpt>
      <trkpt lat="44.14064" lon="1.71791">
        <ele>151.54</ele>
        <time>2023-09-24T08:47:11Z</time>
      </trkpt>
      <trkpt lat="44.14054" lon="1.71796">
        <ele>151.54</ele>
        <time>2023-09-24T08:47:20Z</time>
      </trkpt>
      <trkpt lat="44.14045" lon="1.718">
        <ele>151.54</ele>
        <time>2023-09-24T08:47:28Z</time>
      </trkpt>
      <trkpt lat="44.14035" lon="1.71804">
        <ele>151.54</ele>
        <time>2023-09-24T08:47:38Z</time>
      </trkpt>
      <trkpt lat="44.14025" lon="1.71809">
        <ele>151.54</ele>
        <time>2023-09-24T08:47:46Z</time>
      </trkpt>
      <trkpt lat="44.14014" lon="1.71811">
        <ele>151.54</ele>
        <time>2023-09-24T08:47:55Z</time>
      </trkpt>
      <trkpt lat="44.14003" lon="1.71811">
        <ele>151.06</ele>
        <time>2023-09-24T08:48:03Z</time>
      </trkpt>
      <trkpt lat="44.13992" lon="1.71812">
        <ele>151.06</ele>
        <time>2023-09-24T08:48:12Z</time>
      </trkpt>
      <trkpt lat="44.13983" lon="1.71816">
        <ele>151.06</ele>
        <time>2023-09-24T08:48:21Z</time>
      </trkpt>
      <trkpt lat="44.13974" lon="1.71824">
        <ele>151.06</ele>
        <time>2023-09-24T08:48:30Z</time>
      </trkpt>
      <trkpt lat="44.13965" lon="1.71833">
        <ele>151.06</ele>
        <time>2023-09-24T08:48:39Z</time>
      </trkpt>
      <trkpt lat="44.13957" lon="1.71842">
        <ele>151.06</ele>
        <time>2023-09-24T08:48:48Z</time>
      </trkpt>
      <trkpt lat="44.13948" lon="1.71849">
        <ele>151.06</ele>
        <time>2023-09-24T08:48:57Z</time>
      </trkpt>
      <trkpt lat="44.13939" lon="1.71848">
        <ele>151.06</ele>
        <time>2023-09-24T08:49:07Z</time>
      </trkpt>
      <trkpt lat="44.13928" lon="1.71847">
        <ele>151.06</ele>
        <time>2023-09-24T08:49:18Z</time>
      </trkpt>
      <trkpt lat="44.13917" lon="1.71848">
        <ele>151.06</ele>
        <time>2023-09-24T08:49:28Z</time>
      </trkpt>
      <trkpt lat="44.13907" lon="1.71849">
        <ele>151.06</ele>
        <time>2023-09-24T08:49:36Z</time>
      </trkpt>
      <trkpt lat="44.13897" lon="1.71851">
        <ele>151.06</ele>
        <time>2023-09-24T08:49:45Z</time>
      </trkpt>
      <trkpt lat="44.13885" lon="1.71852">
        <ele>151.06</ele>
        <time>2023-09-24T08:49:55Z</time>
      </trkpt>
      <trkpt lat="44.13875" lon="1.71855">
        <ele>150.58</ele>
        <time>2023-09-24T08:50:04Z</time>
      </trkpt>
      <trkpt lat="44.13865" lon="1.7186">
        <ele>150.58</ele>
        <time>2023-09-24T08:50:13Z</time>
      </trkpt>
      <trkpt lat="44.13855" lon="1.71865">
        <ele>150.58</ele>
        <time>2023-09-24T08:50:22Z</time>
      </trkpt>
      <trkpt lat="44.13844" lon="1.71867">
        <ele>150.58</ele>
        <time>2023-09-24T08:50:32Z</time>
      </trkpt>
      <trkpt lat="44.13836" lon="1.71864">
        <ele>150.1</ele>
        <time>2023-09-24T08:51:44Z</time>
      </trkpt>
      <trkpt lat="44.13825" lon="1.71863">
        <ele>150.1</ele>
        <time>2023-09-24T08:51:54Z</time>
      </trkpt>
      <trkpt lat="44.13814" lon="1.7186">
        <ele>150.1</ele>
        <time>2023-09-24T08:52:05Z</time>
      </trkpt>
      <trkpt lat="44.13803" lon="1.71857">
        <ele>150.1</ele>
        <time>2023-09-24T08:52:15Z</time>
      </trkpt>
      <trkpt lat="44.13793" lon="1.71854">
        <ele>150.1</ele>
        <time>2023-09-24T08:52:25Z</time>
      </trkpt>
      <trkpt lat="44.13782" lon="1.71851">
        <ele>150.1</ele>
        <time>2023-09-24T08:52:35Z</time>
      </trkpt>
      <trkpt lat="44.13772" lon="1.71846">
        <ele>149.62</ele>
        <time>2023-09-24T08:52:46Z</time>
      </trkpt>
      <trkpt lat="44.13762" lon="1.71841">
        <ele>149.62</ele>
        <time>2023-09-24T08:52:57Z</time>
      </trkpt>
      <trkpt lat="44.13751" lon="1.71835">
        <ele>149.62</ele>
        <time>2023-09-24T08:53:11Z</time>
      </trkpt>
      <trkpt lat="44.1374" lon="1.71826">
        <ele>149.14</ele>
        <time>2023-09-24T08:53:24Z</time>
      </trkpt>
      <trkpt lat="44.13729" lon="1.71821">
        <ele>149.14</ele>
        <time>2023-09-24T08:53:35Z</time>
      </trkpt>
      <trkpt lat="44.13717" lon="1.71814">
        <ele>148.66</ele>
        <time>2023-09-24T08:53:46Z</time>
      </trkpt>
      <trkpt lat="44.13706" lon="1.71809">
        <ele>148.66</ele>
        <time>2023-09-24T08:53:56Z</time>
      </trkpt>
      <trkpt lat="44.13695" lon="1.71803">
        <ele>148.66</ele>
        <time>2023-09-24T08:54:08Z</time>
      </trkpt>
      <trkpt lat="44.13684" lon="1.71798">
        <ele>148.18</ele>
        <time>2023-09-24T08:54:20Z</time>
      </trkpt>
      <trkpt lat="44.13668" lon="1.71794">
        <ele>148.18</ele>
        <time>2023-09-24T08:54:32Z</time>
      </trkpt>
      <trkpt lat="44.13655" lon="1.71788">
        <ele>147.7</ele>
        <time>2023-09-24T08:54:44Z</time>
      </trkpt>
      <trkpt lat="44.13644" lon="1.71784">
        <ele>147.7</ele>
        <time>2023-09-24T08:54:54Z</time>
      </trkpt>
      <trkpt lat="44.13631" lon="1.71779">
        <ele>147.22</ele>
        <time>2023-09-24T08:55:05Z</time>
      </trkpt>
      <trkpt lat="44.13619" lon="1.71777">
        <ele>147.22</ele>
        <time>2023-09-24T08:55:17Z</time>
      </trkpt>
      <trkpt lat="44.13608" lon="1.71776">
        <ele>146.74</ele>
        <time>2023-09-24T08:55:29Z</time>
      </trkpt>
      <trkpt lat="44.13596" lon="1.71775">
        <ele>146.74</ele>
        <time>2023-09-24T08:55:39Z</time>
      </trkpt>
      <trkpt lat="44.13583" lon="1.71773">
        <ele>146.74</ele>
        <time>2023-09-24T08:55:48Z</time>
      </trkpt>
      <trkpt lat="44.13571" lon="1.71773">
        <ele>146.74</ele>
        <time>2023-09-24T08:55:58Z</time>
      </trkpt>
      <trkpt lat="44.1356" lon="1.71772">
        <ele>146.26</ele>
        <time>2023-09-24T08:56:07Z</time>
      </trkpt>
      <trkpt lat="44.1355" lon="1.71771">
        <ele>146.26</ele>
        <time>2023-09-24T08:56:16Z</time>
      </trkpt>
      <trkpt lat="44.13537" lon="1.71769">
        <ele>146.26</ele>
        <time>2023-09-24T08:56:27Z</time>
      </trkpt>
      <trkpt lat="44.13526" lon="1.71768">
        <ele>145.78</ele>
        <time>2023-09-24T08:56:47Z</time>
      </trkpt>
      <trkpt lat="44.13512" lon="1.71765">
        <ele>145.78</ele>
        <time>2023-09-24T08:57:01Z</time>
      </trkpt>
      <trkpt lat="44.13497" lon="1.71756">
        <ele>145.78</ele>
        <time>2023-09-24T08:57:17Z</time>
      </trkpt>
      <trkpt lat="44.13487" lon="1.71746">
        <ele>145.78</ele>
        <time>2023-09-24T08:57:27Z</time>
      </trkpt>
      <trkpt lat="44.13475" lon="1.71732">
        <ele>145.78</ele>
        <time>2023-09-24T08:57:40Z</time>
      </trkpt>
      <trkpt lat="44.1346" lon="1.71717">
        <ele>145.3</ele>
        <time>2023-09-24T08:57:56Z</time>
      </trkpt>
      <trkpt lat="44.13447" lon="1.71705">
        <ele>145.3</ele>
        <time>2023-09-24T08:58:13Z</time>
      </trkpt>
      <trkpt lat="44.13438" lon="1.71696">
        <ele>144.82</ele>
        <time>2023-09-24T08:58:25Z</time>
      </trkpt>
      <trkpt lat="44.13428" lon="1.71685">
        <ele>144.82</ele>
        <time>2023-09-24T08:58:36Z</time>
      </trkpt>
      <trkpt lat="44.13417" lon="1.71673">
        <ele>144.34</ele>
        <time>2023-09-24T08:58:52Z</time>
      </trkpt>
      <trkpt lat="44.134" lon="1.71661">
        <ele>144.34</ele>
        <time>2023-09-24T08:59:14Z</time>
      </trkpt>
      <trkpt lat="44.1338" lon="1.71646">
        <ele>143.37</ele>
        <time>2023-09-24T08:59:42Z</time>
      </trkpt>
      <trkpt lat="44.1337" lon="1.71632">
        <ele>142.89</ele>
        <time>2023-09-24T08:59:56Z</time>
      </trkpt>
      <trkpt lat="44.13332" lon="1.71572">
        <ele>140.97</ele>
        <time>2023-09-24T09:02:01Z</time>
      </trkpt>
      <trkpt lat="44.1332" lon="1.71558">
        <ele>140.49</ele>
        <time>2023-09-24T09:02:43Z</time>
      </trkpt>
      <trkpt lat="44.13305" lon="1.71541">
        <ele>140.01</ele>
        <time>2023-09-24T09:03:12Z</time>
      </trkpt>
      <trkpt lat="44.13294" lon="1.71523">
        <ele>140.01</ele>
        <time>2023-09-24T09:03:33Z</time>
      </trkpt>
      <trkpt lat="44.13273" lon="1.71504">
        <ele>140.01</ele>
        <time>2023-09-24T09:04:07Z</time>
      </trkpt>
      <trkpt lat="44.13261" lon="1.71458">
        <ele>139.53</ele>
        <time>2023-09-24T09:05:12Z</time>
      </trkpt>
      <trkpt lat="44.13251" lon="1.71454">
        <ele>139.53</ele>
        <time>2023-09-24T09:05:29Z</time>
      </trkpt>
      <trkpt lat="44.13242" lon="1.71439">
        <ele>139.53</ele>
        <time>2023-09-24T09:05:47Z</time>
      </trkpt>
      <trkpt lat="44.13201" lon="1.71355">
        <ele>144.34</ele>
        <time>2023-09-24T09:08:48Z</time>
      </trkpt>
      <trkpt lat="44.13199" lon="1.71308">
        <ele>163.08</ele>
        <time>2023-09-24T09:14:06Z</time>
      </trkpt>
      <trkpt lat="44.13204" lon="1.71302">
        <ele>152.6</ele>
        <time>2023-09-24T09:14:43Z</time>
      </trkpt>
      <trkpt lat="44.13208" lon="1.71292">
        <ele>145.7</ele>
        <time>2023-09-24T09:16:48Z</time>
      </trkpt>
      <trkpt lat="44.13211" lon="1.71281">
        <ele>141</ele>
        <time>2023-09-24T09:17:05Z</time>
      </trkpt>
      <trkpt lat="44.13214" lon="1.71272">
        <ele>135.9</ele>
        <time>2023-09-24T09:17:15Z</time>
      </trkpt>
      <trkpt lat="44.13215" lon="1.7126">
        <ele>135</ele>
        <time>2023-09-24T09:17:24Z</time>
      </trkpt>
      <trkpt lat="44.13215" lon="1.71249">
        <ele>135.4</ele>
        <time>2023-09-24T09:17:33Z</time>
      </trkpt>
      <trkpt lat="44.13216" lon="1.71241">
        <ele>133.1</ele>
        <time>2023-09-24T09:17:42Z</time>
      </trkpt>
      <trkpt lat="44.13216" lon="1.71231">
        <ele>133.4</ele>
        <time>2023-09-24T09:17:52Z</time>
      </trkpt>
      <trkpt lat="44.13214" lon="1.71223">
        <ele>135.5</ele>
        <time>2023-09-24T09:18:01Z</time>
      </trkpt>
      <trkpt lat="44.13211" lon="1.71211">
        <ele>141.8</ele>
      </trkpt>
      <trkpt lat="44.13219" lon="1.71203">
        <ele>128.2</ele>
        <time>2023-09-24T09:50:11Z</time>
      </trkpt>
      <trkpt lat="44.13233" lon="1.71214">
        <ele>129.92</ele>
        <time>2023-09-24T09:53:55Z</time>
      </trkpt>
      <trkpt lat="44.13242" lon="1.7122">
        <ele>129.92</ele>
        <time>2023-09-24T09:54:06Z</time>
      </trkpt>
      <trkpt lat="44.1325" lon="1.71228">
        <ele>129.92</ele>
        <time>2023-09-24T09:54:20Z</time>
      </trkpt>
      <trkpt lat="44.13258" lon="1.71236">
        <ele>129.92</ele>
        <time>2023-09-24T09:54:29Z</time>
      </trkpt>
      <trkpt lat="44.13261" lon="1.71248">
        <ele>129.43</ele>
        <time>2023-09-24T09:54:47Z</time>
      </trkpt>
      <trkpt lat="44.13269" lon="1.71255">
        <ele>129.43</ele>
        <time>2023-09-24T09:55:07Z</time>
      </trkpt>
      <trkpt lat="44.13276" lon="1.71262">
        <ele>129.43</ele>
        <time>2023-09-24T09:55:15Z</time>
      </trkpt>
      <trkpt lat="44.13284" lon="1.7127">
        <ele>129.43</ele>
        <time>2023-09-24T09:55:23Z</time>
      </trkpt>
      <trkpt lat="44.1329" lon="1.71279">
        <ele>129.43</ele>
        <time>2023-09-24T09:55:55Z</time>
      </trkpt>
      <trkpt lat="44.13298" lon="1.71289">
        <ele>129.43</ele>
        <time>2023-09-24T09:56:02Z</time>
      </trkpt>
      <trkpt lat="44.13304" lon="1.71299">
        <ele>129.43</ele>
        <time>2023-09-24T09:56:09Z</time>
      </trkpt>
      <trkpt lat="44.1331" lon="1.71309">
        <ele>129.43</ele>
        <time>2023-09-24T09:56:16Z</time>
      </trkpt>
      <trkpt lat="44.13318" lon="1.71319">
        <ele>129.43</ele>
        <time>2023-09-24T09:56:23Z</time>
      </trkpt>
      <trkpt lat="44.13324" lon="1.7133">
        <ele>129.43</ele>
        <time>2023-09-24T09:56:30Z</time>
      </trkpt>
      <trkpt lat="44.13331" lon="1.7134">
        <ele>129.43</ele>
        <time>2023-09-24T09:56:37Z</time>
      </trkpt>
      <trkpt lat="44.13337" lon="1.71351">
        <ele>129.43</ele>
        <time>2023-09-24T09:56:44Z</time>
      </trkpt>
      <trkpt lat="44.13343" lon="1.71362">
        <ele>129.43</ele>
        <time>2023-09-24T09:56:52Z</time>
      </trkpt>
      <trkpt lat="44.13349" lon="1.71371">
        <ele>128.95</ele>
        <time>2023-09-24T09:57:00Z</time>
      </trkpt>
      <trkpt lat="44.13356" lon="1.71381">
        <ele>128.95</ele>
        <time>2023-09-24T09:57:08Z</time>
      </trkpt>
      <trkpt lat="44.13363" lon="1.7139">
        <ele>128.95</ele>
        <time>2023-09-24T09:57:16Z</time>
      </trkpt>
      <trkpt lat="44.13371" lon="1.714">
        <ele>128.95</ele>
        <time>2023-09-24T09:57:24Z</time>
      </trkpt>
      <trkpt lat="44.13378" lon="1.71408">
        <ele>128.95</ele>
        <time>2023-09-24T09:57:31Z</time>
      </trkpt>
      <trkpt lat="44.13385" lon="1.71417">
        <ele>128.95</ele>
        <time>2023-09-24T09:57:38Z</time>
      </trkpt>
      <trkpt lat="44.13391" lon="1.71426">
        <ele>128.95</ele>
        <time>2023-09-24T09:57:45Z</time>
      </trkpt>
      <trkpt lat="44.13398" lon="1.71436">
        <ele>128.95</ele>
        <time>2023-09-24T09:57:53Z</time>
      </trkpt>
      <trkpt lat="44.13404" lon="1.71445">
        <ele>128.95</ele>
        <time>2023-09-24T09:58:02Z</time>
      </trkpt>
      <trkpt lat="44.1341" lon="1.71456">
        <ele>128.95</ele>
        <time>2023-09-24T09:58:10Z</time>
      </trkpt>
      <trkpt lat="44.13416" lon="1.71464">
        <ele>128.95</ele>
        <time>2023-09-24T09:58:17Z</time>
      </trkpt>
      <trkpt lat="44.13423" lon="1.71472">
        <ele>128.95</ele>
        <time>2023-09-24T09:58:25Z</time>
      </trkpt>
      <trkpt lat="44.13432" lon="1.71479">
        <ele>128.95</ele>
        <time>2023-09-24T09:58:33Z</time>
      </trkpt>
      <trkpt lat="44.1344" lon="1.71486">
        <ele>128.95</ele>
        <time>2023-09-24T09:58:41Z</time>
      </trkpt>
      <trkpt lat="44.13449" lon="1.71491">
        <ele>128.95</ele>
        <time>2023-09-24T09:58:52Z</time>
      </trkpt>
      <trkpt lat="44.13458" lon="1.71487">
        <ele>128.95</ele>
        <time>2023-09-24T09:59:00Z</time>
      </trkpt>
      <trkpt lat="44.13462" lon="1.71476">
        <ele>128.95</ele>
        <time>2023-09-24T09:59:09Z</time>
      </trkpt>
      <trkpt lat="44.13463" lon="1.71463">
        <ele>128.95</ele>
        <time>2023-09-24T09:59:19Z</time>
      </trkpt>
      <trkpt lat="44.13464" lon="1.71449">
        <ele>128.95</ele>
        <time>2023-09-24T09:59:29Z</time>
      </trkpt>
      <trkpt lat="44.13465" lon="1.71434">
        <ele>128.95</ele>
        <time>2023-09-24T09:59:38Z</time>
      </trkpt>
      <trkpt lat="44.13467" lon="1.71417">
        <ele>128.95</ele>
        <time>2023-09-24T09:59:47Z</time>
      </trkpt>
      <trkpt lat="44.13469" lon="1.71404">
        <ele>128.95</ele>
        <time>2023-09-24T09:59:55Z</time>
      </trkpt>
      <trkpt lat="44.13472" lon="1.71392">
        <ele>128.95</ele>
        <time>2023-09-24T10:00:04Z</time>
      </trkpt>
      <trkpt lat="44.13478" lon="1.71381">
        <ele>128.95</ele>
        <time>2023-09-24T10:00:13Z</time>
      </trkpt>
      <trkpt lat="44.13487" lon="1.71372">
        <ele>128.95</ele>
        <time>2023-09-24T10:00:26Z</time>
      </trkpt>
      <trkpt lat="44.13496" lon="1.71366">
        <ele>128.95</ele>
        <time>2023-09-24T10:00:37Z</time>
      </trkpt>
      <trkpt lat="44.13506" lon="1.71361">
        <ele>128.95</ele>
        <time>2023-09-24T10:00:47Z</time>
      </trkpt>
      <trkpt lat="44.13515" lon="1.71355">
        <ele>128.95</ele>
        <time>2023-09-24T10:00:57Z</time>
      </trkpt>
      <trkpt lat="44.13524" lon="1.71352">
        <ele>130.4</ele>
        <time>2023-09-24T10:01:07Z</time>
      </trkpt>
      <trkpt lat="44.13533" lon="1.71347">
        <ele>130.88</ele>
        <time>2023-09-24T10:01:16Z</time>
      </trkpt>
      <trkpt lat="44.13541" lon="1.71358">
        <ele>132.8</ele>
        <time>2023-09-24T10:01:25Z</time>
      </trkpt>
      <trkpt lat="44.13551" lon="1.7136">
        <ele>133.76</ele>
        <time>2023-09-24T10:01:40Z</time>
      </trkpt>
      <trkpt lat="44.13557" lon="1.71348">
        <ele>134.24</ele>
        <time>2023-09-24T10:01:49Z</time>
      </trkpt>
      <trkpt lat="44.1356" lon="1.71334">
        <ele>134.72</ele>
        <time>2023-09-24T10:01:59Z</time>
      </trkpt>
      <trkpt lat="44.13562" lon="1.71321">
        <ele>135.2</ele>
        <time>2023-09-24T10:02:08Z</time>
      </trkpt>
      <trkpt lat="44.13564" lon="1.71309">
        <ele>135.68</ele>
        <time>2023-09-24T10:02:16Z</time>
      </trkpt>
      <trkpt lat="44.13568" lon="1.71294">
        <ele>137.13</ele>
        <time>2023-09-24T10:02:28Z</time>
      </trkpt>
      <trkpt lat="44.13571" lon="1.71277">
        <ele>138.57</ele>
        <time>2023-09-24T10:02:43Z</time>
      </trkpt>
      <trkpt lat="44.13575" lon="1.71258">
        <ele>140.01</ele>
        <time>2023-09-24T10:02:57Z</time>
      </trkpt>
      <trkpt lat="44.13573" lon="1.71241">
        <ele>141.45</ele>
        <time>2023-09-24T10:03:11Z</time>
      </trkpt>
      <trkpt lat="44.13576" lon="1.71226">
        <ele>142.41</ele>
        <time>2023-09-24T10:03:24Z</time>
      </trkpt>
      <trkpt lat="44.13579" lon="1.71209">
        <ele>143.85</ele>
        <time>2023-09-24T10:03:36Z</time>
      </trkpt>
      <trkpt lat="44.13575" lon="1.71194">
        <ele>144.34</ele>
        <time>2023-09-24T10:03:47Z</time>
      </trkpt>
      <trkpt lat="44.13576" lon="1.71178">
        <ele>144.82</ele>
        <time>2023-09-24T10:03:59Z</time>
      </trkpt>
      <trkpt lat="44.13579" lon="1.71162">
        <ele>146.26</ele>
        <time>2023-09-24T10:04:11Z</time>
      </trkpt>
      <trkpt lat="44.13584" lon="1.71146">
        <ele>146.74</ele>
        <time>2023-09-24T10:04:23Z</time>
      </trkpt>
      <trkpt lat="44.13593" lon="1.71141">
        <ele>148.66</ele>
        <time>2023-09-24T10:04:38Z</time>
      </trkpt>
      <trkpt lat="44.13601" lon="1.71158">
        <ele>150.1</ele>
        <time>2023-09-24T10:04:53Z</time>
      </trkpt>
      <trkpt lat="44.13607" lon="1.71173">
        <ele>152.03</ele>
        <time>2023-09-24T10:05:17Z</time>
      </trkpt>
      <trkpt lat="44.13615" lon="1.71185">
        <ele>153.47</ele>
        <time>2023-09-24T10:05:30Z</time>
      </trkpt>
      <trkpt lat="44.13623" lon="1.71196">
        <ele>154.91</ele>
        <time>2023-09-24T10:05:43Z</time>
      </trkpt>
      <trkpt lat="44.13633" lon="1.71208">
        <ele>156.83</ele>
        <time>2023-09-24T10:05:57Z</time>
      </trkpt>
      <trkpt lat="44.13642" lon="1.7122">
        <ele>158.75</ele>
        <time>2023-09-24T10:06:12Z</time>
      </trkpt>
      <trkpt lat="44.13651" lon="1.71227">
        <ele>160.2</ele>
        <time>2023-09-24T10:06:24Z</time>
      </trkpt>
      <trkpt lat="44.1366" lon="1.71236">
        <ele>162.12</ele>
        <time>2023-09-24T10:06:38Z</time>
      </trkpt>
      <trkpt lat="44.13672" lon="1.71245">
        <ele>163.56</ele>
        <time>2023-09-24T10:06:54Z</time>
      </trkpt>
      <trkpt lat="44.13683" lon="1.71252">
        <ele>165.48</ele>
        <time>2023-09-24T10:07:10Z</time>
      </trkpt>
      <trkpt lat="44.13695" lon="1.71257">
        <ele>166.93</ele>
        <time>2023-09-24T10:07:25Z</time>
      </trkpt>
      <trkpt lat="44.13704" lon="1.71262">
        <ele>168.37</ele>
        <time>2023-09-24T10:07:38Z</time>
      </trkpt>
      <trkpt lat="44.13715" lon="1.71263">
        <ele>169.81</ele>
        <time>2023-09-24T10:07:51Z</time>
      </trkpt>
      <trkpt lat="44.13728" lon="1.71265">
        <ele>171.73</ele>
        <time>2023-09-24T10:08:08Z</time>
      </trkpt>
      <trkpt lat="44.13738" lon="1.71271">
        <ele>173.17</ele>
        <time>2023-09-24T10:08:22Z</time>
      </trkpt>
      <trkpt lat="44.13747" lon="1.71277">
        <ele>174.62</ele>
        <time>2023-09-24T10:08:35Z</time>
      </trkpt>
      <trkpt lat="44.13757" lon="1.71284">
        <ele>176.54</ele>
        <time>2023-09-24T10:08:49Z</time>
      </trkpt>
      <trkpt lat="44.13768" lon="1.71289">
        <ele>178.46</ele>
        <time>2023-09-24T10:09:03Z</time>
      </trkpt>
      <trkpt lat="44.13778" lon="1.71293">
        <ele>179.42</ele>
        <time>2023-09-24T10:09:16Z</time>
      </trkpt>
      <trkpt lat="44.13788" lon="1.71297">
        <ele>181.35</ele>
        <time>2023-09-24T10:09:31Z</time>
      </trkpt>
      <trkpt lat="44.13798" lon="1.713">
        <ele>182.79</ele>
        <time>2023-09-24T10:09:45Z</time>
      </trkpt>
      <trkpt lat="44.13808" lon="1.71303">
        <ele>184.23</ele>
        <time>2023-09-24T10:09:59Z</time>
      </trkpt>
      <trkpt lat="44.13818" lon="1.71306">
        <ele>185.67</ele>
        <time>2023-09-24T10:10:12Z</time>
      </trkpt>
      <trkpt lat="44.13828" lon="1.7131">
        <ele>187.11</ele>
        <time>2023-09-24T10:10:26Z</time>
      </trkpt>
      <trkpt lat="44.13839" lon="1.71313">
        <ele>189.04</ele>
        <time>2023-09-24T10:10:40Z</time>
      </trkpt>
      <trkpt lat="44.13849" lon="1.71318">
        <ele>190.48</ele>
        <time>2023-09-24T10:10:53Z</time>
      </trkpt>
      <trkpt lat="44.13856" lon="1.71313">
        <ele>191.44</ele>
        <time>2023-09-24T10:11:07Z</time>
      </trkpt>
      <trkpt lat="44.13848" lon="1.71301">
        <ele>192.88</ele>
        <time>2023-09-24T10:11:20Z</time>
      </trkpt>
      <trkpt lat="44.13843" lon="1.71288">
        <ele>194.32</ele>
        <time>2023-09-24T10:11:36Z</time>
      </trkpt>
      <trkpt lat="44.13844" lon="1.7128">
        <ele>195.77</ele>
        <time>2023-09-24T10:12:42Z</time>
      </trkpt>
      <trkpt lat="44.13838" lon="1.71264">
        <ele>197.69</ele>
        <time>2023-09-24T10:14:55Z</time>
      </trkpt>
      <trkpt lat="44.13834" lon="1.7125">
        <ele>198.65</ele>
        <time>2023-09-24T10:15:08Z</time>
      </trkpt>
      <trkpt lat="44.13833" lon="1.71235">
        <ele>200.09</ele>
        <time>2023-09-24T10:15:21Z</time>
      </trkpt>
      <trkpt lat="44.13831" lon="1.71221">
        <ele>201.05</ele>
        <time>2023-09-24T10:15:32Z</time>
      </trkpt>
      <trkpt lat="44.1383" lon="1.71208">
        <ele>202.49</ele>
        <time>2023-09-24T10:15:42Z</time>
      </trkpt>
      <trkpt lat="44.13829" lon="1.71193">
        <ele>203.46</ele>
        <time>2023-09-24T10:15:54Z</time>
      </trkpt>
      <trkpt lat="44.13827" lon="1.71179">
        <ele>204.42</ele>
        <time>2023-09-24T10:16:05Z</time>
      </trkpt>
      <trkpt lat="44.13825" lon="1.71163">
        <ele>205.38</ele>
        <time>2023-09-24T10:16:17Z</time>
      </trkpt>
      <trkpt lat="44.13821" lon="1.71149">
        <ele>206.82</ele>
        <time>2023-09-24T10:16:28Z</time>
      </trkpt>
      <trkpt lat="44.13817" lon="1.71136">
        <ele>207.78</ele>
        <time>2023-09-24T10:16:39Z</time>
      </trkpt>
      <trkpt lat="44.1381" lon="1.71124">
        <ele>209.22</ele>
        <time>2023-09-24T10:16:50Z</time>
      </trkpt>
      <trkpt lat="44.13803" lon="1.71112">
        <ele>210.67</ele>
        <time>2023-09-24T10:17:02Z</time>
      </trkpt>
      <trkpt lat="44.13797" lon="1.711">
        <ele>211.63</ele>
        <time>2023-09-24T10:17:13Z</time>
      </trkpt>
      <trkpt lat="44.13793" lon="1.71087">
        <ele>212.59</ele>
        <time>2023-09-24T10:17:24Z</time>
      </trkpt>
      <trkpt lat="44.13791" lon="1.71074">
        <ele>214.03</ele>
        <time>2023-09-24T10:17:35Z</time>
      </trkpt>
      <trkpt lat="44.13796" lon="1.71065">
        <ele>215.47</ele>
        <time>2023-09-24T10:17:47Z</time>
      </trkpt>
      <trkpt lat="44.13804" lon="1.71071">
        <ele>216.91</ele>
        <time>2023-09-24T10:17:59Z</time>
      </trkpt>
      <trkpt lat="44.13812" lon="1.71081">
        <ele>217.4</ele>
        <time>2023-09-24T10:18:10Z</time>
      </trkpt>
      <trkpt lat="44.13821" lon="1.71087">
        <ele>218.84</ele>
        <time>2023-09-24T10:18:20Z</time>
      </trkpt>
      <trkpt lat="44.13831" lon="1.71092">
        <ele>219.8</ele>
        <time>2023-09-24T10:18:32Z</time>
      </trkpt>
      <trkpt lat="44.13841" lon="1.71098">
        <ele>221.24</ele>
        <time>2023-09-24T10:18:45Z</time>
      </trkpt>
      <trkpt lat="44.13853" lon="1.71105">
        <ele>222.68</ele>
        <time>2023-09-24T10:19:01Z</time>
      </trkpt>
      <trkpt lat="44.13863" lon="1.71112">
        <ele>224.12</ele>
        <time>2023-09-24T10:19:14Z</time>
      </trkpt>
      <trkpt lat="44.13871" lon="1.71122">
        <ele>225.57</ele>
        <time>2023-09-24T10:19:46Z</time>
      </trkpt>
      <trkpt lat="44.13881" lon="1.71132">
        <ele>227.01</ele>
        <time>2023-09-24T10:20:00Z</time>
      </trkpt>
      <trkpt lat="44.13889" lon="1.71142">
        <ele>227.97</ele>
        <time>2023-09-24T10:20:12Z</time>
      </trkpt>
      <trkpt lat="44.13898" lon="1.71151">
        <ele>228.93</ele>
        <time>2023-09-24T10:20:24Z</time>
      </trkpt>
      <trkpt lat="44.13907" lon="1.7116">
        <ele>230.37</ele>
        <time>2023-09-24T10:20:38Z</time>
      </trkpt>
      <trkpt lat="44.13915" lon="1.71171">
        <ele>231.33</ele>
        <time>2023-09-24T10:20:53Z</time>
      </trkpt>
      <trkpt lat="44.13923" lon="1.71174">
        <ele>232.78</ele>
        <time>2023-09-24T10:21:07Z</time>
      </trkpt>
      <trkpt lat="44.1392" lon="1.71161">
        <ele>234.22</ele>
        <time>2023-09-24T10:21:20Z</time>
      </trkpt>
      <trkpt lat="44.13916" lon="1.71147">
        <ele>235.18</ele>
        <time>2023-09-24T10:21:33Z</time>
      </trkpt>
      <trkpt lat="44.13912" lon="1.71132">
        <ele>236.62</ele>
        <time>2023-09-24T10:21:47Z</time>
      </trkpt>
      <trkpt lat="44.13907" lon="1.71118">
        <ele>237.58</ele>
        <time>2023-09-24T10:22:02Z</time>
      </trkpt>
      <trkpt lat="44.13904" lon="1.71104">
        <ele>239.02</ele>
        <time>2023-09-24T10:22:15Z</time>
      </trkpt>
      <trkpt lat="44.139" lon="1.71089">
        <ele>239.99</ele>
        <time>2023-09-24T10:22:27Z</time>
      </trkpt>
      <trkpt lat="44.13897" lon="1.71075">
        <ele>241.43</ele>
        <time>2023-09-24T10:22:42Z</time>
      </trkpt>
      <trkpt lat="44.13894" lon="1.7106">
        <ele>242.39</ele>
        <time>2023-09-24T10:22:54Z</time>
      </trkpt>
      <trkpt lat="44.13891" lon="1.71048">
        <ele>243.35</ele>
        <time>2023-09-24T10:23:05Z</time>
      </trkpt>
      <trkpt lat="44.13889" lon="1.71034">
        <ele>244.31</ele>
        <time>2023-09-24T10:23:17Z</time>
      </trkpt>
      <trkpt lat="44.13888" lon="1.71021">
        <ele>245.75</ele>
        <time>2023-09-24T10:23:29Z</time>
      </trkpt>
      <trkpt lat="44.13889" lon="1.71006">
        <ele>247.2</ele>
        <time>2023-09-24T10:23:42Z</time>
      </trkpt>
      <trkpt lat="44.13891" lon="1.70994">
        <ele>248.16</ele>
        <time>2023-09-24T10:23:54Z</time>
      </trkpt>
      <trkpt lat="44.13895" lon="1.70982">
        <ele>249.12</ele>
        <time>2023-09-24T10:24:07Z</time>
      </trkpt>
      <trkpt lat="44.139" lon="1.70971">
        <ele>250.56</ele>
        <time>2023-09-24T10:24:20Z</time>
      </trkpt>
      <trkpt lat="44.13906" lon="1.70959">
        <ele>251.52</ele>
        <time>2023-09-24T10:24:32Z</time>
      </trkpt>
      <trkpt lat="44.13914" lon="1.70951">
        <ele>252.48</ele>
        <time>2023-09-24T10:24:46Z</time>
      </trkpt>
      <trkpt lat="44.13923" lon="1.70944">
        <ele>253.44</ele>
        <time>2023-09-24T10:24:58Z</time>
      </trkpt>
      <trkpt lat="44.13932" lon="1.70937">
        <ele>254.89</ele>
        <time>2023-09-24T10:25:10Z</time>
      </trkpt>
      <trkpt lat="44.1394" lon="1.70928">
        <ele>254.89</ele>
        <time>2023-09-24T10:25:22Z</time>
      </trkpt>
      <trkpt lat="44.13949" lon="1.70919">
        <ele>255.85</ele>
        <time>2023-09-24T10:25:34Z</time>
      </trkpt>
      <trkpt lat="44.13957" lon="1.70909">
        <ele>257.29</ele>
        <time>2023-09-24T10:25:46Z</time>
      </trkpt>
      <trkpt lat="44.13966" lon="1.70899">
        <ele>258.25</ele>
        <time>2023-09-24T10:25:59Z</time>
      </trkpt>
      <trkpt lat="44.13973" lon="1.70889">
        <ele>259.21</ele>
        <time>2023-09-24T10:26:11Z</time>
      </trkpt>
      <trkpt lat="44.13982" lon="1.70878">
        <ele>260.65</ele>
        <time>2023-09-24T10:26:26Z</time>
      </trkpt>
      <trkpt lat="44.13989" lon="1.70868">
        <ele>261.14</ele>
        <time>2023-09-24T10:26:43Z</time>
      </trkpt>
      <trkpt lat="44.13996" lon="1.70857">
        <ele>262.58</ele>
        <time>2023-09-24T10:26:56Z</time>
      </trkpt>
      <trkpt lat="44.14002" lon="1.70846">
        <ele>263.54</ele>
        <time>2023-09-24T10:27:07Z</time>
      </trkpt>
      <trkpt lat="44.14008" lon="1.70833">
        <ele>264.5</ele>
        <time>2023-09-24T10:27:18Z</time>
      </trkpt>
      <trkpt lat="44.14014" lon="1.70822">
        <ele>264.5</ele>
        <time>2023-09-24T10:27:29Z</time>
      </trkpt>
      <trkpt lat="44.1402" lon="1.70811">
        <ele>265.46</ele>
        <time>2023-09-24T10:27:41Z</time>
      </trkpt>
      <trkpt lat="44.14025" lon="1.70799">
        <ele>265.94</ele>
        <time>2023-09-24T10:27:52Z</time>
      </trkpt>
      <trkpt lat="44.14031" lon="1.70787">
        <ele>266.9</ele>
        <time>2023-09-24T10:28:03Z</time>
      </trkpt>
      <trkpt lat="44.14038" lon="1.70777">
        <ele>267.38</ele>
        <time>2023-09-24T10:28:15Z</time>
      </trkpt>
      <trkpt lat="44.14046" lon="1.70765">
        <ele>268.35</ele>
        <time>2023-09-24T10:28:28Z</time>
      </trkpt>
      <trkpt lat="44.14054" lon="1.70753">
        <ele>269.31</ele>
        <time>2023-09-24T10:28:41Z</time>
      </trkpt>
      <trkpt lat="44.14062" lon="1.70738">
        <ele>269.79</ele>
        <time>2023-09-24T10:28:56Z</time>
      </trkpt>
      <trkpt lat="44.14069" lon="1.70723">
        <ele>271.23</ele>
        <time>2023-09-24T10:29:10Z</time>
      </trkpt>
      <trkpt lat="44.14074" lon="1.70708">
        <ele>272.19</ele>
        <time>2023-09-24T10:29:36Z</time>
      </trkpt>
      <trkpt lat="44.1408" lon="1.70695">
        <ele>273.63</ele>
        <time>2023-09-24T10:29:49Z</time>
      </trkpt>
      <trkpt lat="44.14084" lon="1.70681">
        <ele>274.59</ele>
        <time>2023-09-24T10:30:01Z</time>
      </trkpt>
      <trkpt lat="44.14089" lon="1.70667">
        <ele>275.56</ele>
        <time>2023-09-24T10:30:12Z</time>
      </trkpt>
      <trkpt lat="44.14097" lon="1.70658">
        <ele>276.52</ele>
        <time>2023-09-24T10:30:25Z</time>
      </trkpt>
      <trkpt lat="44.14107" lon="1.70654">
        <ele>277.48</ele>
        <time>2023-09-24T10:30:49Z</time>
      </trkpt>
      <trkpt lat="44.14116" lon="1.70648">
        <ele>277.96</ele>
        <time>2023-09-24T10:31:00Z</time>
      </trkpt>
      <trkpt lat="44.14125" lon="1.70644">
        <ele>278.44</ele>
        <time>2023-09-24T10:31:10Z</time>
      </trkpt>
      <trkpt lat="44.14135" lon="1.70638">
        <ele>278.44</ele>
        <time>2023-09-24T10:31:22Z</time>
      </trkpt>
      <trkpt lat="44.14144" lon="1.7063">
        <ele>278.44</ele>
        <time>2023-09-24T10:31:32Z</time>
      </trkpt>
      <trkpt lat="44.14153" lon="1.70619">
        <ele>278.44</ele>
        <time>2023-09-24T10:31:43Z</time>
      </trkpt>
      <trkpt lat="44.14161" lon="1.70609">
        <ele>278.92</ele>
        <time>2023-09-24T10:31:53Z</time>
      </trkpt>
      <trkpt lat="44.14169" lon="1.706">
        <ele>278.92</ele>
        <time>2023-09-24T10:32:03Z</time>
      </trkpt>
      <trkpt lat="44.14178" lon="1.7059">
        <ele>278.92</ele>
        <time>2023-09-24T10:32:13Z</time>
      </trkpt>
      <trkpt lat="44.14187" lon="1.70583">
        <ele>279.4</ele>
        <time>2023-09-24T10:32:22Z</time>
      </trkpt>
      <trkpt lat="44.14196" lon="1.70574">
        <ele>279.4</ele>
        <time>2023-09-24T10:32:32Z</time>
      </trkpt>
      <trkpt lat="44.14206" lon="1.70566">
        <ele>279.4</ele>
        <time>2023-09-24T10:32:41Z</time>
      </trkpt>
      <trkpt lat="44.14216" lon="1.70559">
        <ele>279.88</ele>
        <time>2023-09-24T10:32:50Z</time>
      </trkpt>
      <trkpt lat="44.14226" lon="1.70551">
        <ele>280.36</ele>
        <time>2023-09-24T10:32:59Z</time>
      </trkpt>
      <trkpt lat="44.14235" lon="1.70546">
        <ele>280.36</ele>
        <time>2023-09-24T10:33:08Z</time>
      </trkpt>
      <trkpt lat="44.14245" lon="1.70541">
        <ele>280.84</ele>
        <time>2023-09-24T10:33:17Z</time>
      </trkpt>
      <trkpt lat="44.14253" lon="1.70533">
        <ele>280.84</ele>
        <time>2023-09-24T10:33:26Z</time>
      </trkpt>
      <trkpt lat="44.14261" lon="1.70522">
        <ele>281.8</ele>
        <time>2023-09-24T10:33:36Z</time>
      </trkpt>
      <trkpt lat="44.1427" lon="1.70511">
        <ele>281.8</ele>
        <time>2023-09-24T10:33:47Z</time>
      </trkpt>
      <trkpt lat="44.14278" lon="1.70499">
        <ele>282.77</ele>
        <time>2023-09-24T10:33:59Z</time>
      </trkpt>
      <trkpt lat="44.14286" lon="1.70487">
        <ele>282.77</ele>
        <time>2023-09-24T10:34:09Z</time>
      </trkpt>
      <trkpt lat="44.14295" lon="1.70476">
        <ele>283.25</ele>
        <time>2023-09-24T10:34:20Z</time>
      </trkpt>
      <trkpt lat="44.14303" lon="1.70466">
        <ele>283.25</ele>
        <time>2023-09-24T10:34:30Z</time>
      </trkpt>
      <trkpt lat="44.14312" lon="1.70455">
        <ele>283.25</ele>
        <time>2023-09-24T10:34:40Z</time>
      </trkpt>
      <trkpt lat="44.14322" lon="1.70445">
        <ele>283.25</ele>
        <time>2023-09-24T10:34:50Z</time>
      </trkpt>
      <trkpt lat="44.1433" lon="1.70436">
        <ele>283.25</ele>
        <time>2023-09-24T10:34:59Z</time>
      </trkpt>
      <trkpt lat="44.1434" lon="1.70429">
        <ele>283.25</ele>
        <time>2023-09-24T10:35:08Z</time>
      </trkpt>
      <trkpt lat="44.1435" lon="1.70421">
        <ele>283.25</ele>
        <time>2023-09-24T10:35:17Z</time>
      </trkpt>
      <trkpt lat="44.14359" lon="1.70413">
        <ele>283.25</ele>
        <time>2023-09-24T10:35:26Z</time>
      </trkpt>
      <trkpt lat="44.14368" lon="1.70406">
        <ele>283.73</ele>
        <time>2023-09-24T10:35:35Z</time>
      </trkpt>
      <trkpt lat="44.14377" lon="1.70398">
        <ele>284.69</ele>
        <time>2023-09-24T10:35:45Z</time>
      </trkpt>
      <trkpt lat="44.14384" lon="1.70389">
        <ele>284.69</ele>
        <time>2023-09-24T10:35:54Z</time>
      </trkpt>
      <trkpt lat="44.14391" lon="1.70378">
        <ele>285.17</ele>
        <time>2023-09-24T10:36:02Z</time>
      </trkpt>
      <trkpt lat="44.14398" lon="1.70369">
        <ele>285.65</ele>
        <time>2023-09-24T10:36:11Z</time>
      </trkpt>
      <trkpt lat="44.14406" lon="1.70359">
        <ele>286.13</ele>
        <time>2023-09-24T10:36:20Z</time>
      </trkpt>
      <trkpt lat="44.14414" lon="1.70352">
        <ele>286.61</ele>
        <time>2023-09-24T10:36:33Z</time>
      </trkpt>
      <trkpt lat="44.14422" lon="1.70344">
        <ele>287.09</ele>
        <time>2023-09-24T10:36:42Z</time>
      </trkpt>
      <trkpt lat="44.14429" lon="1.70336">
        <ele>287.57</ele>
        <time>2023-09-24T10:36:51Z</time>
      </trkpt>
      <trkpt lat="44.1444" lon="1.70329">
        <ele>288.05</ele>
        <time>2023-09-24T10:37:03Z</time>
      </trkpt>
      <trkpt lat="44.1445" lon="1.7032">
        <ele>288.05</ele>
        <time>2023-09-24T10:37:15Z</time>
      </trkpt>
      <trkpt lat="44.14463" lon="1.70315">
        <ele>288.05</ele>
        <time>2023-09-24T10:37:27Z</time>
      </trkpt>
      <trkpt lat="44.14476" lon="1.70309">
        <ele>288.05</ele>
        <time>2023-09-24T10:37:39Z</time>
      </trkpt>
      <trkpt lat="44.14487" lon="1.70304">
        <ele>288.05</ele>
        <time>2023-09-24T10:37:49Z</time>
      </trkpt>
      <trkpt lat="44.14499" lon="1.70298">
        <ele>288.05</ele>
        <time>2023-09-24T10:37:59Z</time>
      </trkpt>
      <trkpt lat="44.1451" lon="1.70289">
        <ele>288.05</ele>
        <time>2023-09-24T10:38:07Z</time>
      </trkpt>
      <trkpt lat="44.1452" lon="1.70282">
        <ele>287.09</ele>
        <time>2023-09-24T10:38:16Z</time>
      </trkpt>
      <trkpt lat="44.1453" lon="1.70277">
        <ele>286.13</ele>
        <time>2023-09-24T10:38:28Z</time>
      </trkpt>
      <trkpt lat="44.14541" lon="1.70273">
        <ele>285.65</ele>
        <time>2023-09-24T10:38:39Z</time>
      </trkpt>
      <trkpt lat="44.14552" lon="1.7027">
        <ele>284.69</ele>
        <time>2023-09-24T10:38:47Z</time>
      </trkpt>
      <trkpt lat="44.14565" lon="1.70268">
        <ele>283.73</ele>
        <time>2023-09-24T10:38:59Z</time>
      </trkpt>
      <trkpt lat="44.14577" lon="1.70269">
        <ele>283.25</ele>
        <time>2023-09-24T10:39:07Z</time>
      </trkpt>
      <trkpt lat="44.14588" lon="1.70268">
        <ele>283.25</ele>
        <time>2023-09-24T10:39:16Z</time>
      </trkpt>
      <trkpt lat="44.14601" lon="1.70264">
        <ele>282.28</ele>
        <time>2023-09-24T10:39:26Z</time>
      </trkpt>
      <trkpt lat="44.14613" lon="1.70262">
        <ele>282.28</ele>
        <time>2023-09-24T10:39:35Z</time>
      </trkpt>
      <trkpt lat="44.14626" lon="1.7026">
        <ele>282.28</ele>
        <time>2023-09-24T10:39:45Z</time>
      </trkpt>
      <trkpt lat="44.14637" lon="1.70257">
        <ele>281.8</ele>
        <time>2023-09-24T10:39:54Z</time>
      </trkpt>
      <trkpt lat="44.14649" lon="1.70251">
        <ele>281.8</ele>
        <time>2023-09-24T10:40:03Z</time>
      </trkpt>
      <trkpt lat="44.1466" lon="1.70247">
        <ele>281.8</ele>
        <time>2023-09-24T10:40:11Z</time>
      </trkpt>
      <trkpt lat="44.14671" lon="1.70245">
        <ele>281.8</ele>
        <time>2023-09-24T10:40:20Z</time>
      </trkpt>
      <trkpt lat="44.14682" lon="1.70242">
        <ele>281.8</ele>
        <time>2023-09-24T10:40:29Z</time>
      </trkpt>
      <trkpt lat="44.14692" lon="1.70239">
        <ele>281.8</ele>
        <time>2023-09-24T10:40:38Z</time>
      </trkpt>
      <trkpt lat="44.14703" lon="1.70235">
        <ele>281.8</ele>
        <time>2023-09-24T10:40:47Z</time>
      </trkpt>
      <trkpt lat="44.14712" lon="1.70227">
        <ele>281.8</ele>
        <time>2023-09-24T10:40:57Z</time>
      </trkpt>
      <trkpt lat="44.14721" lon="1.7022">
        <ele>281.8</ele>
        <time>2023-09-24T10:41:05Z</time>
      </trkpt>
      <trkpt lat="44.14731" lon="1.70213">
        <ele>282.28</ele>
        <time>2023-09-24T10:41:15Z</time>
      </trkpt>
      <trkpt lat="44.1474" lon="1.70207">
        <ele>282.28</ele>
        <time>2023-09-24T10:41:24Z</time>
      </trkpt>
      <trkpt lat="44.14749" lon="1.70199">
        <ele>282.28</ele>
        <time>2023-09-24T10:41:33Z</time>
      </trkpt>
      <trkpt lat="44.14757" lon="1.70193">
        <ele>282.28</ele>
        <time>2023-09-24T10:41:46Z</time>
      </trkpt>
      <trkpt lat="44.14766" lon="1.70191">
        <ele>282.28</ele>
        <time>2023-09-24T10:41:54Z</time>
      </trkpt>
      <trkpt lat="44.14777" lon="1.70191">
        <ele>282.28</ele>
        <time>2023-09-24T10:42:03Z</time>
      </trkpt>
      <trkpt lat="44.14787" lon="1.70191">
        <ele>282.28</ele>
        <time>2023-09-24T10:42:11Z</time>
      </trkpt>
      <trkpt lat="44.14797" lon="1.70192">
        <ele>282.28</ele>
        <time>2023-09-24T10:42:20Z</time>
      </trkpt>
      <trkpt lat="44.14808" lon="1.70191">
        <ele>282.28</ele>
        <time>2023-09-24T10:42:28Z</time>
      </trkpt>
      <trkpt lat="44.14819" lon="1.70192">
        <ele>281.8</ele>
        <time>2023-09-24T10:42:37Z</time>
      </trkpt>
      <trkpt lat="44.14829" lon="1.70192">
        <ele>281.8</ele>
        <time>2023-09-24T10:42:45Z</time>
      </trkpt>
      <trkpt lat="44.14839" lon="1.70194">
        <ele>281.32</ele>
        <time>2023-09-24T10:42:53Z</time>
      </trkpt>
      <trkpt lat="44.1485" lon="1.70193">
        <ele>281.32</ele>
        <time>2023-09-24T10:43:02Z</time>
      </trkpt>
      <trkpt lat="44.14861" lon="1.70198">
        <ele>281.32</ele>
        <time>2023-09-24T10:43:24Z</time>
      </trkpt>
      <trkpt lat="44.14868" lon="1.70194">
        <ele>281.8</ele>
        <time>2023-09-24T10:43:34Z</time>
      </trkpt>
      <trkpt lat="44.14877" lon="1.70193">
        <ele>282.77</ele>
        <time>2023-09-24T10:43:43Z</time>
      </trkpt>
      <trkpt lat="44.14887" lon="1.70184">
        <ele>283.73</ele>
        <time>2023-09-24T10:44:47Z</time>
      </trkpt>
      <trkpt lat="44.14892" lon="1.70169">
        <ele>283.73</ele>
        <time>2023-09-24T10:44:59Z</time>
      </trkpt>
      <trkpt lat="44.14898" lon="1.70155">
        <ele>283.73</ele>
        <time>2023-09-24T10:45:09Z</time>
      </trkpt>
      <trkpt lat="44.14906" lon="1.70144">
        <ele>284.21</ele>
        <time>2023-09-24T10:45:18Z</time>
      </trkpt>
      <trkpt lat="44.14915" lon="1.70135">
        <ele>284.69</ele>
        <time>2023-09-24T10:45:29Z</time>
      </trkpt>
      <trkpt lat="44.14925" lon="1.70126">
        <ele>285.65</ele>
        <time>2023-09-24T10:45:39Z</time>
      </trkpt>
      <trkpt lat="44.14935" lon="1.70117">
        <ele>286.13</ele>
        <time>2023-09-24T10:45:50Z</time>
      </trkpt>
      <trkpt lat="44.14944" lon="1.7011">
        <ele>286.61</ele>
        <time>2023-09-24T10:45:59Z</time>
      </trkpt>
      <trkpt lat="44.14953" lon="1.70102">
        <ele>287.09</ele>
        <time>2023-09-24T10:46:08Z</time>
      </trkpt>
      <trkpt lat="44.14964" lon="1.70092">
        <ele>287.57</ele>
        <time>2023-09-24T10:46:19Z</time>
      </trkpt>
      <trkpt lat="44.14973" lon="1.70083">
        <ele>288.05</ele>
        <time>2023-09-24T10:46:29Z</time>
      </trkpt>
      <trkpt lat="44.14983" lon="1.70073">
        <ele>288.05</ele>
        <time>2023-09-24T10:46:39Z</time>
      </trkpt>
      <trkpt lat="44.14993" lon="1.70063">
        <ele>288.05</ele>
        <time>2023-09-24T10:46:52Z</time>
      </trkpt>
      <trkpt lat="44.15004" lon="1.70054">
        <ele>288.05</ele>
        <time>2023-09-24T10:47:02Z</time>
      </trkpt>
      <trkpt lat="44.15014" lon="1.70045">
        <ele>288.05</ele>
        <time>2023-09-24T10:47:12Z</time>
      </trkpt>
      <trkpt lat="44.15024" lon="1.70037">
        <ele>288.05</ele>
        <time>2023-09-24T10:47:21Z</time>
      </trkpt>
      <trkpt lat="44.15033" lon="1.70029">
        <ele>288.53</ele>
        <time>2023-09-24T10:47:30Z</time>
      </trkpt>
      <trkpt lat="44.15041" lon="1.70021">
        <ele>288.53</ele>
        <time>2023-09-24T10:47:38Z</time>
      </trkpt>
      <trkpt lat="44.1505" lon="1.70014">
        <ele>288.53</ele>
        <time>2023-09-24T10:47:46Z</time>
      </trkpt>
      <trkpt lat="44.1506" lon="1.70006">
        <ele>288.53</ele>
        <time>2023-09-24T10:47:55Z</time>
      </trkpt>
      <trkpt lat="44.15069" lon="1.7">
        <ele>288.53</ele>
        <time>2023-09-24T10:48:04Z</time>
      </trkpt>
      <trkpt lat="44.1508" lon="1.69998">
        <ele>288.53</ele>
        <time>2023-09-24T10:48:13Z</time>
      </trkpt>
      <trkpt lat="44.15091" lon="1.69995">
        <ele>289.01</ele>
        <time>2023-09-24T10:48:25Z</time>
      </trkpt>
      <trkpt lat="44.15092" lon="1.69998">
        <ele>298.15</ele>
        <time>2023-09-24T11:27:13Z</time>
      </trkpt>
      <trkpt lat="44.15089" lon="1.69998">
        <ele>299.11</ele>
        <time>2023-09-24T11:30:38Z</time>
      </trkpt>
      <trkpt lat="44.15079" lon="1.70003">
        <ele>299.11</ele>
        <time>2023-09-24T11:30:49Z</time>
      </trkpt>
      <trkpt lat="44.15077" lon="1.69993">
        <ele>299.11</ele>
        <time>2023-09-24T11:31:01Z</time>
      </trkpt>
      <trkpt lat="44.15087" lon="1.69984">
        <ele>299.11</ele>
        <time>2023-09-24T11:31:14Z</time>
      </trkpt>
      <trkpt lat="44.15097" lon="1.69975">
        <ele>299.59</ele>
        <time>2023-09-24T11:31:26Z</time>
      </trkpt>
      <trkpt lat="44.15108" lon="1.69966">
        <ele>300.07</ele>
        <time>2023-09-24T11:31:37Z</time>
      </trkpt>
      <trkpt lat="44.15118" lon="1.69959">
        <ele>300.55</ele>
        <time>2023-09-24T11:31:48Z</time>
      </trkpt>
      <trkpt lat="44.15127" lon="1.69951">
        <ele>301.03</ele>
        <time>2023-09-24T11:31:58Z</time>
      </trkpt>
      <trkpt lat="44.15137" lon="1.69945">
        <ele>301.51</ele>
        <time>2023-09-24T11:32:09Z</time>
      </trkpt>
      <trkpt lat="44.15146" lon="1.69938">
        <ele>301.51</ele>
        <time>2023-09-24T11:32:19Z</time>
      </trkpt>
      <trkpt lat="44.15157" lon="1.69931">
        <ele>301.51</ele>
        <time>2023-09-24T11:32:30Z</time>
      </trkpt>
      <trkpt lat="44.15167" lon="1.69926">
        <ele>301.99</ele>
        <time>2023-09-24T11:32:39Z</time>
      </trkpt>
      <trkpt lat="44.15177" lon="1.69922">
        <ele>302.95</ele>
        <time>2023-09-24T11:32:49Z</time>
      </trkpt>
      <trkpt lat="44.15187" lon="1.69919">
        <ele>302.95</ele>
        <time>2023-09-24T11:32:59Z</time>
      </trkpt>
      <trkpt lat="44.152" lon="1.69909">
        <ele>303.91</ele>
        <time>2023-09-24T11:33:16Z</time>
      </trkpt>
      <trkpt lat="44.15212" lon="1.6991">
        <ele>303.91</ele>
        <time>2023-09-24T11:33:29Z</time>
      </trkpt>
      <trkpt lat="44.15223" lon="1.69907">
        <ele>303.91</ele>
        <time>2023-09-24T11:33:44Z</time>
      </trkpt>
      <trkpt lat="44.15236" lon="1.69902">
        <ele>303.91</ele>
        <time>2023-09-24T11:33:54Z</time>
      </trkpt>
      <trkpt lat="44.15246" lon="1.699">
        <ele>303.91</ele>
        <time>2023-09-24T11:34:03Z</time>
      </trkpt>
      <trkpt lat="44.15257" lon="1.699">
        <ele>303.91</ele>
        <time>2023-09-24T11:34:13Z</time>
      </trkpt>
      <trkpt lat="44.15268" lon="1.69899">
        <ele>303.91</ele>
        <time>2023-09-24T11:34:23Z</time>
      </trkpt>
      <trkpt lat="44.15279" lon="1.69894">
        <ele>303.91</ele>
        <time>2023-09-24T11:34:33Z</time>
      </trkpt>
      <trkpt lat="44.15289" lon="1.69889">
        <ele>303.91</ele>
        <time>2023-09-24T11:34:45Z</time>
      </trkpt>
      <trkpt lat="44.15298" lon="1.69887">
        <ele>303.91</ele>
        <time>2023-09-24T11:34:57Z</time>
      </trkpt>
      <trkpt lat="44.15309" lon="1.69883">
        <ele>303.91</ele>
        <time>2023-09-24T11:35:07Z</time>
      </trkpt>
      <trkpt lat="44.15322" lon="1.69882">
        <ele>302.47</ele>
        <time>2023-09-24T11:35:20Z</time>
      </trkpt>
      <trkpt lat="44.15332" lon="1.69882">
        <ele>302.95</ele>
        <time>2023-09-24T11:35:30Z</time>
      </trkpt>
      <trkpt lat="44.15342" lon="1.69884">
        <ele>302.47</ele>
        <time>2023-09-24T11:35:39Z</time>
      </trkpt>
      <trkpt lat="44.15352" lon="1.69887">
        <ele>302.47</ele>
        <time>2023-09-24T11:35:48Z</time>
      </trkpt>
      <trkpt lat="44.15361" lon="1.69892">
        <ele>302.47</ele>
        <time>2023-09-24T11:35:57Z</time>
      </trkpt>
      <trkpt lat="44.15371" lon="1.69897">
        <ele>301.99</ele>
        <time>2023-09-24T11:36:06Z</time>
      </trkpt>
      <trkpt lat="44.15381" lon="1.69903">
        <ele>301.99</ele>
        <time>2023-09-24T11:36:15Z</time>
      </trkpt>
      <trkpt lat="44.1539" lon="1.6991">
        <ele>301.99</ele>
        <time>2023-09-24T11:36:25Z</time>
      </trkpt>
      <trkpt lat="44.154" lon="1.69917">
        <ele>301.99</ele>
        <time>2023-09-24T11:36:35Z</time>
      </trkpt>
      <trkpt lat="44.15409" lon="1.69924">
        <ele>301.51</ele>
        <time>2023-09-24T11:36:44Z</time>
      </trkpt>
      <trkpt lat="44.15418" lon="1.69932">
        <ele>301.03</ele>
        <time>2023-09-24T11:36:53Z</time>
      </trkpt>
      <trkpt lat="44.15427" lon="1.69939">
        <ele>300.55</ele>
        <time>2023-09-24T11:37:02Z</time>
      </trkpt>
      <trkpt lat="44.15436" lon="1.69945">
        <ele>300.55</ele>
        <time>2023-09-24T11:37:11Z</time>
      </trkpt>
      <trkpt lat="44.15445" lon="1.69953">
        <ele>300.55</ele>
        <time>2023-09-24T11:37:21Z</time>
      </trkpt>
      <trkpt lat="44.15454" lon="1.69962">
        <ele>300.55</ele>
        <time>2023-09-24T11:37:32Z</time>
      </trkpt>
      <trkpt lat="44.15464" lon="1.6997">
        <ele>300.55</ele>
        <time>2023-09-24T11:37:44Z</time>
      </trkpt>
      <trkpt lat="44.15475" lon="1.69979">
        <ele>300.55</ele>
        <time>2023-09-24T11:37:55Z</time>
      </trkpt>
      <trkpt lat="44.15486" lon="1.69986">
        <ele>300.55</ele>
        <time>2023-09-24T11:38:05Z</time>
      </trkpt>
      <trkpt lat="44.15497" lon="1.69994">
        <ele>300.55</ele>
        <time>2023-09-24T11:38:16Z</time>
      </trkpt>
      <trkpt lat="44.15506" lon="1.70003">
        <ele>300.07</ele>
        <time>2023-09-24T11:38:26Z</time>
      </trkpt>
      <trkpt lat="44.15516" lon="1.70009">
        <ele>299.59</ele>
        <time>2023-09-24T11:38:35Z</time>
      </trkpt>
      <trkpt lat="44.15526" lon="1.70016">
        <ele>299.59</ele>
        <time>2023-09-24T11:38:45Z</time>
      </trkpt>
      <trkpt lat="44.15532" lon="1.70018">
        <ele>299.59</ele>
        <time>2023-09-24T11:39:32Z</time>
      </trkpt>
      <trkpt lat="44.15545" lon="1.70022">
        <ele>299.11</ele>
        <time>2023-09-24T11:39:46Z</time>
      </trkpt>
      <trkpt lat="44.15555" lon="1.70028">
        <ele>300.55</ele>
        <time>2023-09-24T11:39:56Z</time>
      </trkpt>
      <trkpt lat="44.15563" lon="1.70038">
        <ele>301.03</ele>
        <time>2023-09-24T11:40:06Z</time>
      </trkpt>
      <trkpt lat="44.15571" lon="1.70048">
        <ele>301.51</ele>
        <time>2023-09-24T11:40:17Z</time>
      </trkpt>
      <trkpt lat="44.1558" lon="1.70058">
        <ele>301.51</ele>
        <time>2023-09-24T11:40:28Z</time>
      </trkpt>
      <trkpt lat="44.15588" lon="1.70068">
        <ele>301.51</ele>
        <time>2023-09-24T11:40:38Z</time>
      </trkpt>
      <trkpt lat="44.15597" lon="1.70078">
        <ele>301.99</ele>
        <time>2023-09-24T11:40:48Z</time>
      </trkpt>
      <trkpt lat="44.15606" lon="1.70087">
        <ele>302.47</ele>
        <time>2023-09-24T11:40:57Z</time>
      </trkpt>
      <trkpt lat="44.15614" lon="1.70095">
        <ele>302.47</ele>
        <time>2023-09-24T11:41:06Z</time>
      </trkpt>
      <trkpt lat="44.15624" lon="1.70103">
        <ele>302.47</ele>
        <time>2023-09-24T11:41:16Z</time>
      </trkpt>
      <trkpt lat="44.15633" lon="1.7011">
        <ele>302.47</ele>
        <time>2023-09-24T11:41:25Z</time>
      </trkpt>
      <trkpt lat="44.15641" lon="1.70119">
        <ele>302.47</ele>
        <time>2023-09-24T11:41:34Z</time>
      </trkpt>
      <trkpt lat="44.15649" lon="1.70123">
        <ele>301.03</ele>
        <time>2023-09-24T11:41:43Z</time>
      </trkpt>
      <trkpt lat="44.15659" lon="1.70123">
        <ele>301.03</ele>
        <time>2023-09-24T11:41:53Z</time>
      </trkpt>
      <trkpt lat="44.15668" lon="1.70115">
        <ele>301.03</ele>
        <time>2023-09-24T11:42:03Z</time>
      </trkpt>
      <trkpt lat="44.15677" lon="1.70106">
        <ele>301.03</ele>
        <time>2023-09-24T11:42:13Z</time>
      </trkpt>
      <trkpt lat="44.15686" lon="1.70098">
        <ele>301.03</ele>
        <time>2023-09-24T11:42:23Z</time>
      </trkpt>
      <trkpt lat="44.15695" lon="1.70088">
        <ele>301.03</ele>
        <time>2023-09-24T11:42:31Z</time>
      </trkpt>
      <trkpt lat="44.15704" lon="1.7008">
        <ele>301.03</ele>
        <time>2023-09-24T11:42:40Z</time>
      </trkpt>
      <trkpt lat="44.15712" lon="1.70073">
        <ele>301.03</ele>
        <time>2023-09-24T11:42:49Z</time>
      </trkpt>
      <trkpt lat="44.15721" lon="1.70066">
        <ele>301.03</ele>
        <time>2023-09-24T11:42:58Z</time>
      </trkpt>
      <trkpt lat="44.15731" lon="1.70058">
        <ele>301.03</ele>
        <time>2023-09-24T11:43:07Z</time>
      </trkpt>
      <trkpt lat="44.1574" lon="1.70052">
        <ele>301.03</ele>
        <time>2023-09-24T11:43:16Z</time>
      </trkpt>
      <trkpt lat="44.15751" lon="1.70049">
        <ele>301.03</ele>
        <time>2023-09-24T11:43:25Z</time>
      </trkpt>
      <trkpt lat="44.15761" lon="1.70048">
        <ele>301.03</ele>
        <time>2023-09-24T11:43:34Z</time>
      </trkpt>
      <trkpt lat="44.15771" lon="1.70044">
        <ele>300.55</ele>
        <time>2023-09-24T11:43:44Z</time>
      </trkpt>
      <trkpt lat="44.15781" lon="1.7004">
        <ele>300.55</ele>
        <time>2023-09-24T11:43:54Z</time>
      </trkpt>
      <trkpt lat="44.15792" lon="1.70036">
        <ele>300.55</ele>
        <time>2023-09-24T11:44:03Z</time>
      </trkpt>
      <trkpt lat="44.15803" lon="1.70035">
        <ele>300.55</ele>
        <time>2023-09-24T11:44:12Z</time>
      </trkpt>
      <trkpt lat="44.15813" lon="1.70035">
        <ele>300.55</ele>
        <time>2023-09-24T11:44:21Z</time>
      </trkpt>
      <trkpt lat="44.15824" lon="1.70033">
        <ele>300.55</ele>
        <time>2023-09-24T11:44:31Z</time>
      </trkpt>
      <trkpt lat="44.15834" lon="1.7003">
        <ele>300.55</ele>
        <time>2023-09-24T11:44:40Z</time>
      </trkpt>
      <trkpt lat="44.15845" lon="1.70028">
        <ele>300.55</ele>
        <time>2023-09-24T11:44:50Z</time>
      </trkpt>
      <trkpt lat="44.15855" lon="1.70028">
        <ele>300.55</ele>
        <time>2023-09-24T11:44:59Z</time>
      </trkpt>
      <trkpt lat="44.15865" lon="1.7003">
        <ele>300.55</ele>
        <time>2023-09-24T11:45:08Z</time>
      </trkpt>
      <trkpt lat="44.15874" lon="1.70031">
        <ele>300.55</ele>
        <time>2023-09-24T11:45:16Z</time>
      </trkpt>
      <trkpt lat="44.15883" lon="1.70035">
        <ele>300.55</ele>
        <time>2023-09-24T11:45:25Z</time>
      </trkpt>
      <trkpt lat="44.15891" lon="1.70037">
        <ele>300.55</ele>
        <time>2023-09-24T11:45:31Z</time>
      </trkpt>
      <trkpt lat="44.159" lon="1.70045">
        <ele>300.55</ele>
        <time>2023-09-24T11:45:43Z</time>
      </trkpt>
      <trkpt lat="44.159" lon="1.7006">
        <ele>300.55</ele>
        <time>2023-09-24T11:45:53Z</time>
      </trkpt>
      <trkpt lat="44.15901" lon="1.70072">
        <ele>300.55</ele>
        <time>2023-09-24T11:45:58Z</time>
      </trkpt>
      <trkpt lat="44.159" lon="1.70087">
        <ele>300.55</ele>
        <time>2023-09-24T11:46:09Z</time>
      </trkpt>
      <trkpt lat="44.159" lon="1.70098">
        <ele>300.07</ele>
        <time>2023-09-24T11:46:14Z</time>
      </trkpt>
      <trkpt lat="44.15899" lon="1.70111">
        <ele>300.07</ele>
        <time>2023-09-24T11:46:22Z</time>
      </trkpt>
      <trkpt lat="44.15898" lon="1.70124">
        <ele>300.07</ele>
        <time>2023-09-24T11:46:30Z</time>
      </trkpt>
      <trkpt lat="44.15896" lon="1.70138">
        <ele>300.07</ele>
        <time>2023-09-24T11:46:39Z</time>
      </trkpt>
      <trkpt lat="44.15896" lon="1.70153">
        <ele>300.07</ele>
        <time>2023-09-24T11:46:48Z</time>
      </trkpt>
      <trkpt lat="44.15895" lon="1.70168">
        <ele>300.07</ele>
        <time>2023-09-24T11:46:57Z</time>
      </trkpt>
      <trkpt lat="44.15895" lon="1.70181">
        <ele>300.07</ele>
        <time>2023-09-24T11:47:05Z</time>
      </trkpt>
      <trkpt lat="44.15894" lon="1.70193">
        <ele>300.07</ele>
        <time>2023-09-24T11:47:13Z</time>
      </trkpt>
      <trkpt lat="44.15893" lon="1.70208">
        <ele>300.07</ele>
        <time>2023-09-24T11:47:22Z</time>
      </trkpt>
      <trkpt lat="44.15892" lon="1.70222">
        <ele>300.07</ele>
        <time>2023-09-24T11:47:31Z</time>
      </trkpt>
      <trkpt lat="44.15891" lon="1.70238">
        <ele>301.03</ele>
        <time>2023-09-24T11:47:41Z</time>
      </trkpt>
      <trkpt lat="44.15891" lon="1.70253">
        <ele>301.03</ele>
        <time>2023-09-24T11:47:50Z</time>
      </trkpt>
      <trkpt lat="44.15893" lon="1.70267">
        <ele>301.03</ele>
        <time>2023-09-24T11:47:58Z</time>
      </trkpt>
      <trkpt lat="44.15896" lon="1.70279">
        <ele>301.51</ele>
        <time>2023-09-24T11:48:06Z</time>
      </trkpt>
      <trkpt lat="44.15902" lon="1.70291">
        <ele>301.51</ele>
        <time>2023-09-24T11:48:14Z</time>
      </trkpt>
      <trkpt lat="44.15907" lon="1.70302">
        <ele>301.51</ele>
        <time>2023-09-24T11:48:22Z</time>
      </trkpt>
      <trkpt lat="44.15912" lon="1.70314">
        <ele>301.51</ele>
        <time>2023-09-24T11:48:30Z</time>
      </trkpt>
      <trkpt lat="44.15917" lon="1.70326">
        <ele>301.51</ele>
        <time>2023-09-24T11:48:39Z</time>
      </trkpt>
      <trkpt lat="44.15924" lon="1.70337">
        <ele>301.51</ele>
        <time>2023-09-24T11:48:47Z</time>
      </trkpt>
      <trkpt lat="44.15928" lon="1.7035">
        <ele>301.51</ele>
        <time>2023-09-24T11:48:55Z</time>
      </trkpt>
      <trkpt lat="44.15933" lon="1.70362">
        <ele>301.51</ele>
        <time>2023-09-24T11:49:03Z</time>
      </trkpt>
      <trkpt lat="44.15938" lon="1.70375">
        <ele>301.51</ele>
        <time>2023-09-24T11:49:13Z</time>
      </trkpt>
      <trkpt lat="44.15944" lon="1.70387">
        <ele>301.51</ele>
        <time>2023-09-24T11:49:23Z</time>
      </trkpt>
      <trkpt lat="44.1595" lon="1.704">
        <ele>301.99</ele>
        <time>2023-09-24T11:49:32Z</time>
      </trkpt>
      <trkpt lat="44.15956" lon="1.70413">
        <ele>301.99</ele>
        <time>2023-09-24T11:49:41Z</time>
      </trkpt>
      <trkpt lat="44.1596" lon="1.70426">
        <ele>301.99</ele>
        <time>2023-09-24T11:49:49Z</time>
      </trkpt>
      <trkpt lat="44.15965" lon="1.70437">
        <ele>301.99</ele>
        <time>2023-09-24T11:49:57Z</time>
      </trkpt>
      <trkpt lat="44.15969" lon="1.70449">
        <ele>301.99</ele>
        <time>2023-09-24T11:50:05Z</time>
      </trkpt>
      <trkpt lat="44.15974" lon="1.70461">
        <ele>301.99</ele>
        <time>2023-09-24T11:50:13Z</time>
      </trkpt>
      <trkpt lat="44.15977" lon="1.70473">
        <ele>301.99</ele>
        <time>2023-09-24T11:50:21Z</time>
      </trkpt>
      <trkpt lat="44.15983" lon="1.70484">
        <ele>300.55</ele>
        <time>2023-09-24T11:50:29Z</time>
      </trkpt>
      <trkpt lat="44.15988" lon="1.70496">
        <ele>300.55</ele>
        <time>2023-09-24T11:50:37Z</time>
      </trkpt>
      <trkpt lat="44.15992" lon="1.70507">
        <ele>300.07</ele>
        <time>2023-09-24T11:50:45Z</time>
      </trkpt>
      <trkpt lat="44.15996" lon="1.7052">
        <ele>300.07</ele>
        <time>2023-09-24T11:50:53Z</time>
      </trkpt>
      <trkpt lat="44.16" lon="1.70532">
        <ele>299.59</ele>
        <time>2023-09-24T11:51:02Z</time>
      </trkpt>
      <trkpt lat="44.16005" lon="1.70544">
        <ele>299.11</ele>
        <time>2023-09-24T11:51:10Z</time>
      </trkpt>
      <trkpt lat="44.1601" lon="1.70556">
        <ele>299.11</ele>
        <time>2023-09-24T11:51:18Z</time>
      </trkpt>
      <trkpt lat="44.16015" lon="1.70566">
        <ele>298.63</ele>
        <time>2023-09-24T11:51:26Z</time>
      </trkpt>
      <trkpt lat="44.16021" lon="1.70575">
        <ele>298.63</ele>
        <time>2023-09-24T11:51:34Z</time>
      </trkpt>
      <trkpt lat="44.16026" lon="1.70587">
        <ele>297.67</ele>
        <time>2023-09-24T11:51:43Z</time>
      </trkpt>
      <trkpt lat="44.1603" lon="1.70601">
        <ele>297.67</ele>
        <time>2023-09-24T11:51:52Z</time>
      </trkpt>
      <trkpt lat="44.16035" lon="1.70613">
        <ele>297.67</ele>
        <time>2023-09-24T11:52:00Z</time>
      </trkpt>
      <trkpt lat="44.16039" lon="1.70625">
        <ele>297.67</ele>
        <time>2023-09-24T11:52:09Z</time>
      </trkpt>
      <trkpt lat="44.16043" lon="1.70638">
        <ele>297.67</ele>
        <time>2023-09-24T11:52:18Z</time>
      </trkpt>
      <trkpt lat="44.16047" lon="1.70652">
        <ele>297.18</ele>
        <time>2023-09-24T11:52:27Z</time>
      </trkpt>
      <trkpt lat="44.16045" lon="1.70667">
        <ele>297.18</ele>
        <time>2023-09-24T11:52:36Z</time>
      </trkpt>
      <trkpt lat="44.16043" lon="1.70682">
        <ele>297.18</ele>
        <time>2023-09-24T11:52:45Z</time>
      </trkpt>
      <trkpt lat="44.16038" lon="1.70696">
        <ele>297.18</ele>
        <time>2023-09-24T11:52:55Z</time>
      </trkpt>
      <trkpt lat="44.16032" lon="1.7071">
        <ele>296.7</ele>
        <time>2023-09-24T11:53:04Z</time>
      </trkpt>
      <trkpt lat="44.16026" lon="1.70722">
        <ele>296.7</ele>
        <time>2023-09-24T11:53:13Z</time>
      </trkpt>
      <trkpt lat="44.16021" lon="1.70734">
        <ele>296.7</ele>
        <time>2023-09-24T11:53:22Z</time>
      </trkpt>
      <trkpt lat="44.16017" lon="1.70747">
        <ele>296.7</ele>
        <time>2023-09-24T11:53:30Z</time>
      </trkpt>
      <trkpt lat="44.16013" lon="1.70761">
        <ele>296.7</ele>
        <time>2023-09-24T11:53:39Z</time>
      </trkpt>
      <trkpt lat="44.16008" lon="1.70774">
        <ele>296.7</ele>
        <time>2023-09-24T11:53:48Z</time>
      </trkpt>
      <trkpt lat="44.16005" lon="1.70789">
        <ele>296.22</ele>
        <time>2023-09-24T11:53:57Z</time>
      </trkpt>
      <trkpt lat="44.16001" lon="1.70803">
        <ele>296.22</ele>
        <time>2023-09-24T11:54:07Z</time>
      </trkpt>
      <trkpt lat="44.15998" lon="1.70817">
        <ele>296.22</ele>
        <time>2023-09-24T11:54:16Z</time>
      </trkpt>
      <trkpt lat="44.15995" lon="1.70833">
        <ele>296.22</ele>
        <time>2023-09-24T11:54:26Z</time>
      </trkpt>
      <trkpt lat="44.15992" lon="1.70848">
        <ele>296.22</ele>
        <time>2023-09-24T11:54:36Z</time>
      </trkpt>
      <trkpt lat="44.15989" lon="1.70863">
        <ele>296.22</ele>
        <time>2023-09-24T11:54:45Z</time>
      </trkpt>
      <trkpt lat="44.15986" lon="1.70878">
        <ele>296.22</ele>
        <time>2023-09-24T11:54:54Z</time>
      </trkpt>
      <trkpt lat="44.15983" lon="1.70892">
        <ele>295.74</ele>
        <time>2023-09-24T11:55:03Z</time>
      </trkpt>
      <trkpt lat="44.15981" lon="1.70907">
        <ele>297.18</ele>
        <time>2023-09-24T11:55:13Z</time>
      </trkpt>
      <trkpt lat="44.15978" lon="1.70923">
        <ele>297.18</ele>
        <time>2023-09-24T11:55:23Z</time>
      </trkpt>
      <trkpt lat="44.15975" lon="1.70939">
        <ele>297.18</ele>
        <time>2023-09-24T11:55:33Z</time>
      </trkpt>
      <trkpt lat="44.15972" lon="1.70955">
        <ele>296.7</ele>
        <time>2023-09-24T11:55:43Z</time>
      </trkpt>
      <trkpt lat="44.1597" lon="1.7097">
        <ele>296.7</ele>
        <time>2023-09-24T11:55:52Z</time>
      </trkpt>
      <trkpt lat="44.15968" lon="1.70985">
        <ele>296.7</ele>
        <time>2023-09-24T11:56:02Z</time>
      </trkpt>
      <trkpt lat="44.15966" lon="1.71002">
        <ele>296.7</ele>
        <time>2023-09-24T11:56:13Z</time>
      </trkpt>
      <trkpt lat="44.15963" lon="1.71017">
        <ele>296.7</ele>
        <time>2023-09-24T11:56:22Z</time>
      </trkpt>
      <trkpt lat="44.15959" lon="1.71034">
        <ele>296.7</ele>
        <time>2023-09-24T11:56:32Z</time>
      </trkpt>
      <trkpt lat="44.15956" lon="1.71049">
        <ele>296.7</ele>
        <time>2023-09-24T11:56:41Z</time>
      </trkpt>
      <trkpt lat="44.15954" lon="1.71067">
        <ele>296.7</ele>
        <time>2023-09-24T11:56:52Z</time>
      </trkpt>
      <trkpt lat="44.15953" lon="1.71084">
        <ele>296.22</ele>
        <time>2023-09-24T11:57:01Z</time>
      </trkpt>
      <trkpt lat="44.15951" lon="1.711">
        <ele>296.22</ele>
        <time>2023-09-24T11:57:11Z</time>
      </trkpt>
      <trkpt lat="44.15949" lon="1.71115">
        <ele>296.22</ele>
        <time>2023-09-24T11:57:21Z</time>
      </trkpt>
      <trkpt lat="44.15948" lon="1.7113">
        <ele>296.22</ele>
        <time>2023-09-24T11:57:30Z</time>
      </trkpt>
      <trkpt lat="44.15945" lon="1.71147">
        <ele>296.22</ele>
        <time>2023-09-24T11:57:40Z</time>
      </trkpt>
      <trkpt lat="44.15943" lon="1.71162">
        <ele>296.22</ele>
        <time>2023-09-24T11:57:49Z</time>
      </trkpt>
      <trkpt lat="44.1594" lon="1.71175">
        <ele>296.22</ele>
        <time>2023-09-24T11:57:57Z</time>
      </trkpt>
      <trkpt lat="44.15938" lon="1.7119">
        <ele>296.22</ele>
        <time>2023-09-24T11:58:06Z</time>
      </trkpt>
      <trkpt lat="44.15934" lon="1.71204">
        <ele>296.22</ele>
        <time>2023-09-24T11:58:15Z</time>
      </trkpt>
      <trkpt lat="44.15929" lon="1.71219">
        <ele>296.22</ele>
        <time>2023-09-24T11:58:24Z</time>
      </trkpt>
      <trkpt lat="44.15925" lon="1.71232">
        <ele>296.22</ele>
        <time>2023-09-24T11:58:34Z</time>
      </trkpt>
      <trkpt lat="44.15921" lon="1.71249">
        <ele>296.22</ele>
        <time>2023-09-24T11:58:46Z</time>
      </trkpt>
      <trkpt lat="44.15913" lon="1.7127">
        <ele>296.22</ele>
        <time>2023-09-24T11:58:58Z</time>
      </trkpt>
      <trkpt lat="44.15908" lon="1.71285">
        <ele>296.7</ele>
        <time>2023-09-24T11:59:09Z</time>
      </trkpt>
      <trkpt lat="44.15904" lon="1.71301">
        <ele>297.18</ele>
        <time>2023-09-24T11:59:21Z</time>
      </trkpt>
      <trkpt lat="44.159" lon="1.71317">
        <ele>297.67</ele>
        <time>2023-09-24T11:59:32Z</time>
      </trkpt>
      <trkpt lat="44.15892" lon="1.71334">
        <ele>298.15</ele>
        <time>2023-09-24T11:59:45Z</time>
      </trkpt>
      <trkpt lat="44.15888" lon="1.7135">
        <ele>298.15</ele>
        <time>2023-09-24T11:59:56Z</time>
      </trkpt>
      <trkpt lat="44.15882" lon="1.71366">
        <ele>299.59</ele>
        <time>2023-09-24T12:00:05Z</time>
      </trkpt>
      <trkpt lat="44.15875" lon="1.71384">
        <ele>299.59</ele>
        <time>2023-09-24T12:00:16Z</time>
      </trkpt>
      <trkpt lat="44.1587" lon="1.71402">
        <ele>299.59</ele>
        <time>2023-09-24T12:00:27Z</time>
      </trkpt>
      <trkpt lat="44.15865" lon="1.71418">
        <ele>299.59</ele>
        <time>2023-09-24T12:00:37Z</time>
      </trkpt>
      <trkpt lat="44.15859" lon="1.71433">
        <ele>300.07</ele>
        <time>2023-09-24T12:00:48Z</time>
      </trkpt>
      <trkpt lat="44.15854" lon="1.71446">
        <ele>300.55</ele>
        <time>2023-09-24T12:01:00Z</time>
      </trkpt>
      <trkpt lat="44.1585" lon="1.71463">
        <ele>300.55</ele>
        <time>2023-09-24T12:01:11Z</time>
      </trkpt>
      <trkpt lat="44.15848" lon="1.71481">
        <ele>301.03</ele>
        <time>2023-09-24T12:01:22Z</time>
      </trkpt>
      <trkpt lat="44.15847" lon="1.71495">
        <ele>301.03</ele>
        <time>2023-09-24T12:01:32Z</time>
      </trkpt>
      <trkpt lat="44.15845" lon="1.71511">
        <ele>301.03</ele>
        <time>2023-09-24T12:01:42Z</time>
      </trkpt>
      <trkpt lat="44.15841" lon="1.71527">
        <ele>301.03</ele>
        <time>2023-09-24T12:01:53Z</time>
      </trkpt>
      <trkpt lat="44.15836" lon="1.71543">
        <ele>301.03</ele>
        <time>2023-09-24T12:02:04Z</time>
      </trkpt>
      <trkpt lat="44.15829" lon="1.7156">
        <ele>301.03</ele>
        <time>2023-09-24T12:02:15Z</time>
      </trkpt>
      <trkpt lat="44.15818" lon="1.71571">
        <ele>301.03</ele>
        <time>2023-09-24T12:02:28Z</time>
      </trkpt>
      <trkpt lat="44.15807" lon="1.71584">
        <ele>301.03</ele>
        <time>2023-09-24T12:02:39Z</time>
      </trkpt>
      <trkpt lat="44.15795" lon="1.71597">
        <ele>301.03</ele>
        <time>2023-09-24T12:02:53Z</time>
      </trkpt>
      <trkpt lat="44.15783" lon="1.71608">
        <ele>301.03</ele>
        <time>2023-09-24T12:03:05Z</time>
      </trkpt>
      <trkpt lat="44.15772" lon="1.71618">
        <ele>301.03</ele>
        <time>2023-09-24T12:03:17Z</time>
      </trkpt>
      <trkpt lat="44.1576" lon="1.71633">
        <ele>300.55</ele>
        <time>2023-09-24T12:03:29Z</time>
      </trkpt>
      <trkpt lat="44.15748" lon="1.71642">
        <ele>300.55</ele>
        <time>2023-09-24T12:03:40Z</time>
      </trkpt>
      <trkpt lat="44.15737" lon="1.7165">
        <ele>300.55</ele>
        <time>2023-09-24T12:03:50Z</time>
      </trkpt>
      <trkpt lat="44.15732" lon="1.71661">
        <ele>300.55</ele>
        <time>2023-09-24T12:03:59Z</time>
      </trkpt>
      <trkpt lat="44.15728" lon="1.71674">
        <ele>300.55</ele>
        <time>2023-09-24T12:04:08Z</time>
      </trkpt>
      <trkpt lat="44.15725" lon="1.71686">
        <ele>300.55</ele>
        <time>2023-09-24T12:04:16Z</time>
      </trkpt>
      <trkpt lat="44.15718" lon="1.71693">
        <ele>300.55</ele>
        <time>2023-09-24T12:04:34Z</time>
      </trkpt>
      <trkpt lat="44.15712" lon="1.71705">
        <ele>300.55</ele>
        <time>2023-09-24T12:04:42Z</time>
      </trkpt>
      <trkpt lat="44.15707" lon="1.71717">
        <ele>300.55</ele>
        <time>2023-09-24T12:04:50Z</time>
      </trkpt>
      <trkpt lat="44.15703" lon="1.71729">
        <ele>300.55</ele>
        <time>2023-09-24T12:04:59Z</time>
      </trkpt>
      <trkpt lat="44.157" lon="1.71744">
        <ele>299.59</ele>
        <time>2023-09-24T12:05:08Z</time>
      </trkpt>
      <trkpt lat="44.15694" lon="1.71751">
        <ele>299.11</ele>
        <time>2023-09-24T12:05:25Z</time>
      </trkpt>
      <trkpt lat="44.15691" lon="1.71753">
        <ele>298.63</ele>
        <time>2023-09-24T12:06:10Z</time>
      </trkpt>
      <trkpt lat="44.15683" lon="1.71758">
        <ele>298.63</ele>
        <time>2023-09-24T12:08:18Z</time>
      </trkpt>
      <trkpt lat="44.15672" lon="1.71759">
        <ele>298.63</ele>
        <time>2023-09-24T12:08:56Z</time>
      </trkpt>
      <trkpt lat="44.15667" lon="1.71763">
        <ele>298.63</ele>
        <time>2023-09-24T12:09:12Z</time>
      </trkpt>
      <trkpt lat="44.15666" lon="1.71765">
        <ele>298.63</ele>
        <time>2023-09-24T12:09:24Z</time>
      </trkpt>
      <trkpt lat="44.15663" lon="1.71759">
        <ele>299.59</ele>
        <time>2023-09-24T12:10:15Z</time>
      </trkpt>
      <trkpt lat="44.15653" lon="1.71752">
        <ele>299.59</ele>
        <time>2023-09-24T12:10:26Z</time>
      </trkpt>
      <trkpt lat="44.15644" lon="1.71743">
        <ele>299.59</ele>
        <time>2023-09-24T12:10:38Z</time>
      </trkpt>
      <trkpt lat="44.15635" lon="1.71734">
        <ele>299.59</ele>
        <time>2023-09-24T12:10:49Z</time>
      </trkpt>
      <trkpt lat="44.15626" lon="1.71726">
        <ele>298.15</ele>
        <time>2023-09-24T12:10:59Z</time>
      </trkpt>
      <trkpt lat="44.15617" lon="1.71717">
        <ele>297.18</ele>
        <time>2023-09-24T12:11:10Z</time>
      </trkpt>
      <trkpt lat="44.15608" lon="1.71711">
        <ele>296.7</ele>
        <time>2023-09-24T12:11:19Z</time>
      </trkpt>
      <trkpt lat="44.156" lon="1.71701">
        <ele>296.22</ele>
        <time>2023-09-24T12:11:29Z</time>
      </trkpt>
      <trkpt lat="44.15592" lon="1.71692">
        <ele>296.22</ele>
        <time>2023-09-24T12:11:41Z</time>
      </trkpt>
      <trkpt lat="44.15586" lon="1.71682">
        <ele>296.22</ele>
        <time>2023-09-24T12:11:50Z</time>
      </trkpt>
      <trkpt lat="44.15577" lon="1.71674">
        <ele>295.74</ele>
        <time>2023-09-24T12:12:01Z</time>
      </trkpt>
      <trkpt lat="44.15569" lon="1.71672">
        <ele>295.26</ele>
        <time>2023-09-24T12:12:12Z</time>
      </trkpt>
      <trkpt lat="44.15559" lon="1.71674">
        <ele>293.82</ele>
        <time>2023-09-24T12:12:20Z</time>
      </trkpt>
      <trkpt lat="44.1555" lon="1.71671">
        <ele>293.82</ele>
        <time>2023-09-24T12:12:30Z</time>
      </trkpt>
      <trkpt lat="44.1554" lon="1.71667">
        <ele>293.82</ele>
        <time>2023-09-24T12:12:56Z</time>
      </trkpt>
      <trkpt lat="44.15532" lon="1.71664">
        <ele>294.78</ele>
        <time>2023-09-24T12:13:05Z</time>
      </trkpt>
      <trkpt lat="44.15524" lon="1.71656">
        <ele>295.26</ele>
        <time>2023-09-24T12:13:14Z</time>
      </trkpt>
      <trkpt lat="44.15515" lon="1.71649">
        <ele>295.74</ele>
        <time>2023-09-24T12:13:23Z</time>
      </trkpt>
      <trkpt lat="44.15506" lon="1.71653">
        <ele>295.74</ele>
        <time>2023-09-24T12:13:32Z</time>
      </trkpt>
      <trkpt lat="44.155" lon="1.71662">
        <ele>295.74</ele>
        <time>2023-09-24T12:14:03Z</time>
      </trkpt>
      <trkpt lat="44.15496" lon="1.71651">
        <ele>295.74</ele>
        <time>2023-09-24T12:14:43Z</time>
      </trkpt>
      <trkpt lat="44.15489" lon="1.71642">
        <ele>295.74</ele>
        <time>2023-09-24T12:14:57Z</time>
      </trkpt>
      <trkpt lat="44.15481" lon="1.71629">
        <ele>295.26</ele>
        <time>2023-09-24T12:15:13Z</time>
      </trkpt>
      <trkpt lat="44.15471" lon="1.71626">
        <ele>295.26</ele>
        <time>2023-09-24T12:15:24Z</time>
      </trkpt>
      <trkpt lat="44.15462" lon="1.71621">
        <ele>295.26</ele>
        <time>2023-09-24T12:15:34Z</time>
      </trkpt>
      <trkpt lat="44.15453" lon="1.71617">
        <ele>295.26</ele>
        <time>2023-09-24T12:15:43Z</time>
      </trkpt>
      <trkpt lat="44.15444" lon="1.7161">
        <ele>295.26</ele>
        <time>2023-09-24T12:15:53Z</time>
      </trkpt>
      <trkpt lat="44.15434" lon="1.71605">
        <ele>295.74</ele>
        <time>2023-09-24T12:16:04Z</time>
      </trkpt>
      <trkpt lat="44.15426" lon="1.716">
        <ele>296.7</ele>
        <time>2023-09-24T12:16:15Z</time>
      </trkpt>
      <trkpt lat="44.15415" lon="1.71597">
        <ele>296.7</ele>
        <time>2023-09-24T12:16:25Z</time>
      </trkpt>
      <trkpt lat="44.15407" lon="1.71591">
        <ele>297.18</ele>
        <time>2023-09-24T12:16:44Z</time>
      </trkpt>
      <trkpt lat="44.15396" lon="1.71584">
        <ele>297.18</ele>
        <time>2023-09-24T12:16:54Z</time>
      </trkpt>
      <trkpt lat="44.15385" lon="1.71577">
        <ele>297.67</ele>
        <time>2023-09-24T12:17:05Z</time>
      </trkpt>
      <trkpt lat="44.15376" lon="1.71573">
        <ele>298.15</ele>
        <time>2023-09-24T12:17:14Z</time>
      </trkpt>
      <trkpt lat="44.15367" lon="1.71567">
        <ele>298.63</ele>
        <time>2023-09-24T12:17:23Z</time>
      </trkpt>
      <trkpt lat="44.15358" lon="1.71562">
        <ele>298.63</ele>
        <time>2023-09-24T12:17:32Z</time>
      </trkpt>
      <trkpt lat="44.15349" lon="1.71558">
        <ele>298.63</ele>
        <time>2023-09-24T12:17:41Z</time>
      </trkpt>
      <trkpt lat="44.1534" lon="1.71553">
        <ele>299.11</ele>
        <time>2023-09-24T12:17:52Z</time>
      </trkpt>
      <trkpt lat="44.15331" lon="1.71548">
        <ele>299.11</ele>
        <time>2023-09-24T12:18:00Z</time>
      </trkpt>
      <trkpt lat="44.15322" lon="1.71545">
        <ele>299.59</ele>
        <time>2023-09-24T12:18:08Z</time>
      </trkpt>
      <trkpt lat="44.15313" lon="1.71541">
        <ele>300.07</ele>
        <time>2023-09-24T12:18:17Z</time>
      </trkpt>
      <trkpt lat="44.15304" lon="1.71537">
        <ele>300.55</ele>
        <time>2023-09-24T12:18:26Z</time>
      </trkpt>
      <trkpt lat="44.15295" lon="1.71534">
        <ele>302.47</ele>
        <time>2023-09-24T12:18:37Z</time>
      </trkpt>
      <trkpt lat="44.15286" lon="1.71528">
        <ele>302.95</ele>
        <time>2023-09-24T12:18:47Z</time>
      </trkpt>
      <trkpt lat="44.15277" lon="1.71524">
        <ele>303.43</ele>
        <time>2023-09-24T12:18:56Z</time>
      </trkpt>
      <trkpt lat="44.15268" lon="1.71519">
        <ele>303.43</ele>
        <time>2023-09-24T12:19:04Z</time>
      </trkpt>
      <trkpt lat="44.15259" lon="1.7152">
        <ele>301.99</ele>
        <time>2023-09-24T12:19:13Z</time>
      </trkpt>
      <trkpt lat="44.1525" lon="1.71518">
        <ele>301.99</ele>
        <time>2023-09-24T12:19:21Z</time>
      </trkpt>
      <trkpt lat="44.15244" lon="1.71514">
        <ele>301.99</ele>
        <time>2023-09-24T12:19:39Z</time>
      </trkpt>
      <trkpt lat="44.15234" lon="1.71511">
        <ele>301.99</ele>
        <time>2023-09-24T12:19:49Z</time>
      </trkpt>
      <trkpt lat="44.15223" lon="1.7151">
        <ele>301.99</ele>
        <time>2023-09-24T12:19:59Z</time>
      </trkpt>
      <trkpt lat="44.15212" lon="1.71509">
        <ele>301.99</ele>
        <time>2023-09-24T12:20:08Z</time>
      </trkpt>
      <trkpt lat="44.15204" lon="1.71502">
        <ele>301.51</ele>
        <time>2023-09-24T12:20:19Z</time>
      </trkpt>
      <trkpt lat="44.15203" lon="1.71504">
        <ele>301.03</ele>
        <time>2023-09-24T12:30:47Z</time>
      </trkpt>
      <trkpt lat="44.15214" lon="1.71508">
        <ele>302.47</ele>
        <time>2023-09-24T12:31:01Z</time>
      </trkpt>
      <trkpt lat="44.15224" lon="1.7151">
        <ele>302.47</ele>
        <time>2023-09-24T12:31:11Z</time>
      </trkpt>
      <trkpt lat="44.15235" lon="1.71511">
        <ele>302.47</ele>
        <time>2023-09-24T12:31:22Z</time>
      </trkpt>
      <trkpt lat="44.15246" lon="1.71515">
        <ele>302.47</ele>
        <time>2023-09-24T12:31:33Z</time>
      </trkpt>
      <trkpt lat="44.1525" lon="1.71527">
        <ele>302.47</ele>
        <time>2023-09-24T12:31:43Z</time>
      </trkpt>
      <trkpt lat="44.15254" lon="1.71528">
        <ele>302.95</ele>
        <time>2023-09-24T12:33:05Z</time>
      </trkpt>
      <trkpt lat="44.15261" lon="1.71519">
        <ele>302.95</ele>
        <time>2023-09-24T12:33:16Z</time>
      </trkpt>
      <trkpt lat="44.15269" lon="1.71518">
        <ele>302.95</ele>
        <time>2023-09-24T12:33:27Z</time>
      </trkpt>
      <trkpt lat="44.15278" lon="1.71523">
        <ele>302.95</ele>
        <time>2023-09-24T12:33:38Z</time>
      </trkpt>
      <trkpt lat="44.15288" lon="1.71528">
        <ele>302.95</ele>
        <time>2023-09-24T12:33:48Z</time>
      </trkpt>
      <trkpt lat="44.15296" lon="1.71532">
        <ele>302.47</ele>
        <time>2023-09-24T12:33:59Z</time>
      </trkpt>
      <trkpt lat="44.15305" lon="1.71535">
        <ele>301.03</ele>
        <time>2023-09-24T12:34:10Z</time>
      </trkpt>
      <trkpt lat="44.15316" lon="1.71539">
        <ele>299.59</ele>
        <time>2023-09-24T12:34:19Z</time>
      </trkpt>
      <trkpt lat="44.15325" lon="1.71543">
        <ele>299.59</ele>
        <time>2023-09-24T12:34:29Z</time>
      </trkpt>
      <trkpt lat="44.15334" lon="1.71549">
        <ele>298.63</ele>
        <time>2023-09-24T12:34:39Z</time>
      </trkpt>
      <trkpt lat="44.15344" lon="1.71553">
        <ele>298.63</ele>
        <time>2023-09-24T12:34:58Z</time>
      </trkpt>
      <trkpt lat="44.15354" lon="1.71558">
        <ele>298.15</ele>
        <time>2023-09-24T12:35:07Z</time>
      </trkpt>
      <trkpt lat="44.15362" lon="1.71566">
        <ele>297.67</ele>
        <time>2023-09-24T12:35:21Z</time>
      </trkpt>
      <trkpt lat="44.1537" lon="1.71565">
        <ele>297.67</ele>
        <time>2023-09-24T12:37:22Z</time>
      </trkpt>
      <trkpt lat="44.15378" lon="1.71572">
        <ele>297.18</ele>
        <time>2023-09-24T12:37:33Z</time>
      </trkpt>
      <trkpt lat="44.15388" lon="1.71577">
        <ele>297.18</ele>
        <time>2023-09-24T12:37:44Z</time>
      </trkpt>
      <trkpt lat="44.15397" lon="1.71584">
        <ele>296.22</ele>
        <time>2023-09-24T12:37:57Z</time>
      </trkpt>
      <trkpt lat="44.154" lon="1.71587">
        <ele>295.74</ele>
        <time>2023-09-24T12:38:17Z</time>
      </trkpt>
      <trkpt lat="44.15407" lon="1.71588">
        <ele>295.74</ele>
        <time>2023-09-24T12:38:37Z</time>
      </trkpt>
      <trkpt lat="44.15415" lon="1.71596">
        <ele>295.74</ele>
        <time>2023-09-24T12:38:46Z</time>
      </trkpt>
      <trkpt lat="44.15424" lon="1.71599">
        <ele>295.26</ele>
        <time>2023-09-24T12:38:55Z</time>
      </trkpt>
      <trkpt lat="44.15433" lon="1.71604">
        <ele>294.78</ele>
        <time>2023-09-24T12:39:06Z</time>
      </trkpt>
      <trkpt lat="44.15442" lon="1.71608">
        <ele>293.82</ele>
        <time>2023-09-24T12:39:16Z</time>
      </trkpt>
      <trkpt lat="44.15453" lon="1.71613">
        <ele>293.82</ele>
        <time>2023-09-24T12:39:27Z</time>
      </trkpt>
      <trkpt lat="44.15461" lon="1.71617">
        <ele>293.82</ele>
        <time>2023-09-24T12:39:35Z</time>
      </trkpt>
      <trkpt lat="44.1547" lon="1.71624">
        <ele>293.82</ele>
        <time>2023-09-24T12:39:44Z</time>
      </trkpt>
      <trkpt lat="44.15479" lon="1.71627">
        <ele>293.82</ele>
        <time>2023-09-24T12:39:54Z</time>
      </trkpt>
      <trkpt lat="44.15487" lon="1.71631">
        <ele>293.82</ele>
        <time>2023-09-24T12:40:04Z</time>
      </trkpt>
      <trkpt lat="44.15498" lon="1.71633">
        <ele>294.78</ele>
        <time>2023-09-24T12:40:14Z</time>
      </trkpt>
      <trkpt lat="44.15508" lon="1.71642">
        <ele>295.26</ele>
        <time>2023-09-24T12:40:24Z</time>
      </trkpt>
      <trkpt lat="44.15517" lon="1.71645">
        <ele>295.26</ele>
        <time>2023-09-24T12:40:39Z</time>
      </trkpt>
      <trkpt lat="44.15526" lon="1.71648">
        <ele>295.26</ele>
        <time>2023-09-24T12:40:48Z</time>
      </trkpt>
      <trkpt lat="44.15535" lon="1.71649">
        <ele>295.26</ele>
        <time>2023-09-24T12:40:55Z</time>
      </trkpt>
      <trkpt lat="44.15544" lon="1.7165">
        <ele>295.26</ele>
        <time>2023-09-24T12:41:04Z</time>
      </trkpt>
      <trkpt lat="44.15553" lon="1.71652">
        <ele>295.26</ele>
        <time>2023-09-24T12:41:14Z</time>
      </trkpt>
      <trkpt lat="44.15563" lon="1.71657">
        <ele>295.26</ele>
        <time>2023-09-24T12:41:22Z</time>
      </trkpt>
      <trkpt lat="44.1557" lon="1.71666">
        <ele>295.26</ele>
        <time>2023-09-24T12:41:37Z</time>
      </trkpt>
      <trkpt lat="44.15578" lon="1.71673">
        <ele>295.26</ele>
        <time>2023-09-24T12:41:42Z</time>
      </trkpt>
      <trkpt lat="44.15585" lon="1.71679">
        <ele>295.26</ele>
        <time>2023-09-24T12:41:50Z</time>
      </trkpt>
      <trkpt lat="44.15591" lon="1.71687">
        <ele>295.26</ele>
        <time>2023-09-24T12:41:56Z</time>
      </trkpt>
      <trkpt lat="44.15598" lon="1.71696">
        <ele>295.26</ele>
        <time>2023-09-24T12:42:07Z</time>
      </trkpt>
      <trkpt lat="44.15607" lon="1.71705">
        <ele>296.22</ele>
        <time>2023-09-24T12:42:17Z</time>
      </trkpt>
      <trkpt lat="44.15617" lon="1.71712">
        <ele>296.7</ele>
        <time>2023-09-24T12:42:27Z</time>
      </trkpt>
      <trkpt lat="44.15624" lon="1.71721">
        <ele>297.18</ele>
        <time>2023-09-24T12:42:37Z</time>
      </trkpt>
      <trkpt lat="44.15632" lon="1.7173">
        <ele>297.67</ele>
        <time>2023-09-24T12:42:46Z</time>
      </trkpt>
      <trkpt lat="44.15638" lon="1.71741">
        <ele>298.15</ele>
        <time>2023-09-24T12:42:58Z</time>
      </trkpt>
      <trkpt lat="44.1564" lon="1.71754">
        <ele>297.18</ele>
        <time>2023-09-24T12:43:09Z</time>
      </trkpt>
      <trkpt lat="44.15643" lon="1.71764">
        <ele>296.7</ele>
        <time>2023-09-24T12:43:23Z</time>
      </trkpt>
      <trkpt lat="44.1564" lon="1.71773">
        <ele>295.26</ele>
        <time>2023-09-24T12:43:56Z</time>
      </trkpt>
      <trkpt lat="44.15645" lon="1.71772">
        <ele>296.22</ele>
        <time>2023-09-24T12:44:52Z</time>
      </trkpt>
      <trkpt lat="44.15651" lon="1.71782">
        <ele>296.22</ele>
        <time>2023-09-24T12:45:02Z</time>
      </trkpt>
      <trkpt lat="44.15658" lon="1.71793">
        <ele>294.78</ele>
        <time>2023-09-24T12:45:40Z</time>
      </trkpt>
      <trkpt lat="44.15654" lon="1.71804">
        <ele>292.38</ele>
        <time>2023-09-24T12:46:00Z</time>
      </trkpt>
      <trkpt lat="44.15656" lon="1.71814">
        <ele>290.94</ele>
        <time>2023-09-24T12:46:13Z</time>
      </trkpt>
      <trkpt lat="44.1566" lon="1.71824">
        <ele>290.94</ele>
        <time>2023-09-24T12:46:33Z</time>
      </trkpt>
      <trkpt lat="44.15667" lon="1.71832">
        <ele>290.94</ele>
        <time>2023-09-24T12:46:43Z</time>
      </trkpt>
      <trkpt lat="44.15674" lon="1.71843">
        <ele>291.9</ele>
        <time>2023-09-24T12:46:55Z</time>
      </trkpt>
      <trkpt lat="44.15676" lon="1.71858">
        <ele>290.46</ele>
        <time>2023-09-24T12:47:05Z</time>
      </trkpt>
      <trkpt lat="44.1568" lon="1.71873">
        <ele>288.53</ele>
        <time>2023-09-24T12:47:15Z</time>
      </trkpt>
      <trkpt lat="44.15685" lon="1.71886">
        <ele>288.05</ele>
        <time>2023-09-24T12:47:26Z</time>
      </trkpt>
      <trkpt lat="44.15689" lon="1.71903">
        <ele>286.13</ele>
        <time>2023-09-24T12:47:37Z</time>
      </trkpt>
      <trkpt lat="44.15692" lon="1.71922">
        <ele>284.69</ele>
        <time>2023-09-24T12:47:50Z</time>
      </trkpt>
      <trkpt lat="44.15693" lon="1.7194">
        <ele>283.73</ele>
        <time>2023-09-24T12:48:02Z</time>
      </trkpt>
      <trkpt lat="44.15694" lon="1.71956">
        <ele>282.28</ele>
        <time>2023-09-24T12:48:14Z</time>
      </trkpt>
      <trkpt lat="44.15694" lon="1.7197">
        <ele>280.84</ele>
        <time>2023-09-24T12:48:26Z</time>
      </trkpt>
      <trkpt lat="44.15691" lon="1.71983">
        <ele>279.4</ele>
        <time>2023-09-24T12:48:37Z</time>
      </trkpt>
      <trkpt lat="44.15684" lon="1.71974">
        <ele>277.48</ele>
        <time>2023-09-24T12:48:47Z</time>
      </trkpt>
      <trkpt lat="44.15679" lon="1.71961">
        <ele>276.52</ele>
        <time>2023-09-24T12:48:58Z</time>
      </trkpt>
      <trkpt lat="44.15672" lon="1.71949">
        <ele>275.07</ele>
        <time>2023-09-24T12:49:09Z</time>
      </trkpt>
      <trkpt lat="44.15664" lon="1.71939">
        <ele>273.63</ele>
        <time>2023-09-24T12:49:21Z</time>
      </trkpt>
      <trkpt lat="44.15656" lon="1.71928">
        <ele>271.23</ele>
        <time>2023-09-24T12:49:32Z</time>
      </trkpt>
      <trkpt lat="44.15649" lon="1.71917">
        <ele>270.75</ele>
        <time>2023-09-24T12:49:43Z</time>
      </trkpt>
      <trkpt lat="44.15643" lon="1.71904">
        <ele>269.79</ele>
        <time>2023-09-24T12:49:55Z</time>
      </trkpt>
      <trkpt lat="44.15636" lon="1.71891">
        <ele>268.35</ele>
        <time>2023-09-24T12:50:06Z</time>
      </trkpt>
      <trkpt lat="44.15628" lon="1.71878">
        <ele>267.38</ele>
        <time>2023-09-24T12:50:17Z</time>
      </trkpt>
      <trkpt lat="44.15619" lon="1.71864">
        <ele>266.42</ele>
        <time>2023-09-24T12:50:29Z</time>
      </trkpt>
      <trkpt lat="44.15611" lon="1.71854">
        <ele>265.46</ele>
        <time>2023-09-24T12:50:39Z</time>
      </trkpt>
      <trkpt lat="44.15603" lon="1.71844">
        <ele>264.5</ele>
        <time>2023-09-24T12:50:49Z</time>
      </trkpt>
      <trkpt lat="44.15603" lon="1.71854">
        <ele>263.54</ele>
        <time>2023-09-24T12:51:02Z</time>
      </trkpt>
      <trkpt lat="44.15609" lon="1.71865">
        <ele>263.06</ele>
        <time>2023-09-24T12:51:11Z</time>
      </trkpt>
      <trkpt lat="44.15614" lon="1.71879">
        <ele>262.1</ele>
        <time>2023-09-24T12:51:22Z</time>
      </trkpt>
      <trkpt lat="44.15618" lon="1.71893">
        <ele>261.14</ele>
        <time>2023-09-24T12:51:32Z</time>
      </trkpt>
      <trkpt lat="44.15622" lon="1.71906">
        <ele>261.14</ele>
        <time>2023-09-24T12:51:42Z</time>
      </trkpt>
      <trkpt lat="44.15627" lon="1.7192">
        <ele>260.65</ele>
        <time>2023-09-24T12:51:52Z</time>
      </trkpt>
      <trkpt lat="44.15631" lon="1.71934">
        <ele>260.17</ele>
        <time>2023-09-24T12:52:03Z</time>
      </trkpt>
      <trkpt lat="44.15635" lon="1.71948">
        <ele>260.17</ele>
        <time>2023-09-24T12:52:13Z</time>
      </trkpt>
      <trkpt lat="44.15629" lon="1.71949">
        <ele>258.73</ele>
        <time>2023-09-24T12:52:24Z</time>
      </trkpt>
      <trkpt lat="44.15622" lon="1.7194">
        <ele>257.29</ele>
        <time>2023-09-24T12:52:34Z</time>
      </trkpt>
      <trkpt lat="44.15615" lon="1.7193">
        <ele>255.85</ele>
        <time>2023-09-24T12:52:44Z</time>
      </trkpt>
      <trkpt lat="44.15607" lon="1.7192">
        <ele>253.93</ele>
        <time>2023-09-24T12:52:55Z</time>
      </trkpt>
      <trkpt lat="44.156" lon="1.71911">
        <ele>252.96</ele>
        <time>2023-09-24T12:53:04Z</time>
      </trkpt>
      <trkpt lat="44.15592" lon="1.719">
        <ele>251.04</ele>
        <time>2023-09-24T12:53:14Z</time>
      </trkpt>
      <trkpt lat="44.15584" lon="1.71889">
        <ele>250.08</ele>
        <time>2023-09-24T12:53:25Z</time>
      </trkpt>
      <trkpt lat="44.15576" lon="1.71879">
        <ele>249.12</ele>
        <time>2023-09-24T12:53:35Z</time>
      </trkpt>
      <trkpt lat="44.15568" lon="1.71868">
        <ele>247.68</ele>
        <time>2023-09-24T12:53:47Z</time>
      </trkpt>
      <trkpt lat="44.15559" lon="1.71858">
        <ele>246.72</ele>
        <time>2023-09-24T12:53:58Z</time>
      </trkpt>
      <trkpt lat="44.1555" lon="1.71848">
        <ele>245.75</ele>
        <time>2023-09-24T12:54:09Z</time>
      </trkpt>
      <trkpt lat="44.15542" lon="1.71844">
        <ele>244.31</ele>
        <time>2023-09-24T12:54:22Z</time>
      </trkpt>
      <trkpt lat="44.1555" lon="1.71858">
        <ele>242.87</ele>
        <time>2023-09-24T12:54:35Z</time>
      </trkpt>
      <trkpt lat="44.15556" lon="1.71873">
        <ele>241.91</ele>
        <time>2023-09-24T12:54:45Z</time>
      </trkpt>
      <trkpt lat="44.15564" lon="1.71888">
        <ele>239.99</ele>
        <time>2023-09-24T12:54:57Z</time>
      </trkpt>
      <trkpt lat="44.15568" lon="1.71902">
        <ele>239.02</ele>
        <time>2023-09-24T12:55:08Z</time>
      </trkpt>
      <trkpt lat="44.1556" lon="1.719">
        <ele>237.58</ele>
        <time>2023-09-24T12:55:20Z</time>
      </trkpt>
      <trkpt lat="44.15551" lon="1.7189">
        <ele>235.18</ele>
        <time>2023-09-24T12:55:35Z</time>
      </trkpt>
      <trkpt lat="44.15538" lon="1.71883">
        <ele>233.26</ele>
        <time>2023-09-24T12:55:50Z</time>
      </trkpt>
      <trkpt lat="44.15527" lon="1.71872">
        <ele>230.37</ele>
        <time>2023-09-24T12:56:10Z</time>
      </trkpt>
      <trkpt lat="44.15515" lon="1.71862">
        <ele>228.45</ele>
        <time>2023-09-24T12:56:28Z</time>
      </trkpt>
      <trkpt lat="44.15504" lon="1.71858">
        <ele>226.53</ele>
        <time>2023-09-24T12:56:41Z</time>
      </trkpt>
      <trkpt lat="44.15494" lon="1.7185">
        <ele>225.57</ele>
        <time>2023-09-24T12:56:56Z</time>
      </trkpt>
      <trkpt lat="44.15483" lon="1.71845">
        <ele>225.09</ele>
        <time>2023-09-24T12:57:09Z</time>
      </trkpt>
      <trkpt lat="44.15473" lon="1.71835">
        <ele>223.16</ele>
        <time>2023-09-24T12:57:23Z</time>
      </trkpt>
      <trkpt lat="44.15463" lon="1.71826">
        <ele>222.2</ele>
        <time>2023-09-24T12:57:36Z</time>
      </trkpt>
      <trkpt lat="44.15455" lon="1.71817">
        <ele>221.24</ele>
        <time>2023-09-24T12:57:47Z</time>
      </trkpt>
      <trkpt lat="44.15447" lon="1.71807">
        <ele>220.76</ele>
        <time>2023-09-24T12:57:57Z</time>
      </trkpt>
      <trkpt lat="44.15438" lon="1.71794">
        <ele>219.8</ele>
        <time>2023-09-24T12:58:08Z</time>
      </trkpt>
      <trkpt lat="44.1543" lon="1.71782">
        <ele>218.84</ele>
        <time>2023-09-24T12:58:18Z</time>
      </trkpt>
      <trkpt lat="44.1542" lon="1.71774">
        <ele>218.36</ele>
        <time>2023-09-24T12:58:28Z</time>
      </trkpt>
      <trkpt lat="44.1541" lon="1.71768">
        <ele>216.43</ele>
        <time>2023-09-24T12:58:39Z</time>
      </trkpt>
      <trkpt lat="44.15401" lon="1.71762">
        <ele>215.47</ele>
        <time>2023-09-24T12:58:49Z</time>
      </trkpt>
      <trkpt lat="44.15391" lon="1.71759">
        <ele>214.03</ele>
        <time>2023-09-24T12:59:01Z</time>
      </trkpt>
      <trkpt lat="44.1538" lon="1.71753">
        <ele>211.63</ele>
        <time>2023-09-24T12:59:15Z</time>
      </trkpt>
      <trkpt lat="44.15372" lon="1.71751">
        <ele>209.7</ele>
        <time>2023-09-24T12:59:32Z</time>
      </trkpt>
      <trkpt lat="44.1538" lon="1.71764">
        <ele>207.78</ele>
        <time>2023-09-24T12:59:45Z</time>
      </trkpt>
      <trkpt lat="44.15391" lon="1.71773">
        <ele>206.34</ele>
        <time>2023-09-24T12:59:59Z</time>
      </trkpt>
      <trkpt lat="44.15403" lon="1.71781">
        <ele>206.34</ele>
        <time>2023-09-24T13:00:11Z</time>
      </trkpt>
      <trkpt lat="44.15412" lon="1.71793">
        <ele>206.34</ele>
        <time>2023-09-24T13:00:23Z</time>
      </trkpt>
      <trkpt lat="44.15422" lon="1.71807">
        <ele>205.86</ele>
        <time>2023-09-24T13:00:37Z</time>
      </trkpt>
      <trkpt lat="44.15434" lon="1.71826">
        <ele>207.3</ele>
        <time>2023-09-24T13:00:58Z</time>
      </trkpt>
      <trkpt lat="44.15446" lon="1.71845">
        <ele>207.3</ele>
        <time>2023-09-24T13:03:57Z</time>
      </trkpt>
      <trkpt lat="44.15456" lon="1.71863">
        <ele>207.78</ele>
        <time>2023-09-24T13:04:13Z</time>
      </trkpt>
      <trkpt lat="44.15465" lon="1.71879">
        <ele>207.78</ele>
        <time>2023-09-24T13:04:28Z</time>
      </trkpt>
      <trkpt lat="44.15477" lon="1.71884">
        <ele>207.3</ele>
        <time>2023-09-24T13:04:42Z</time>
      </trkpt>
      <trkpt lat="44.15487" lon="1.71897">
        <ele>207.3</ele>
        <time>2023-09-24T13:04:55Z</time>
      </trkpt>
      <trkpt lat="44.15497" lon="1.7191">
        <ele>205.86</ele>
        <time>2023-09-24T13:05:08Z</time>
      </trkpt>
      <trkpt lat="44.15506" lon="1.71925">
        <ele>204.9</ele>
        <time>2023-09-24T13:05:25Z</time>
      </trkpt>
      <trkpt lat="44.15513" lon="1.71942">
        <ele>203.94</ele>
        <time>2023-09-24T13:05:44Z</time>
      </trkpt>
      <trkpt lat="44.15522" lon="1.71955">
        <ele>205.38</ele>
        <time>2023-09-24T13:05:55Z</time>
      </trkpt>
      <trkpt lat="44.15529" lon="1.71967">
        <ele>205.38</ele>
        <time>2023-09-24T13:06:06Z</time>
      </trkpt>
      <trkpt lat="44.15535" lon="1.71984">
        <ele>206.82</ele>
        <time>2023-09-24T13:06:19Z</time>
      </trkpt>
      <trkpt lat="44.15541" lon="1.71997">
        <ele>207.3</ele>
        <time>2023-09-24T13:06:31Z</time>
      </trkpt>
      <trkpt lat="44.15545" lon="1.72013">
        <ele>208.26</ele>
        <time>2023-09-24T13:06:43Z</time>
      </trkpt>
      <trkpt lat="44.15545" lon="1.72031">
        <ele>204.9</ele>
        <time>2023-09-24T13:06:58Z</time>
      </trkpt>
      <trkpt lat="44.15544" lon="1.72049">
        <ele>202.49</ele>
        <time>2023-09-24T13:07:09Z</time>
      </trkpt>
      <trkpt lat="44.15545" lon="1.72062">
        <ele>202.01</ele>
        <time>2023-09-24T13:07:19Z</time>
      </trkpt>
      <trkpt lat="44.15547" lon="1.72077">
        <ele>200.57</ele>
        <time>2023-09-24T13:07:30Z</time>
      </trkpt>
      <trkpt lat="44.15549" lon="1.72093">
        <ele>199.61</ele>
        <time>2023-09-24T13:07:40Z</time>
      </trkpt>
      <trkpt lat="44.1555" lon="1.72108">
        <ele>199.13</ele>
        <time>2023-09-24T13:07:50Z</time>
      </trkpt>
      <trkpt lat="44.15552" lon="1.72122">
        <ele>198.65</ele>
        <time>2023-09-24T13:07:59Z</time>
      </trkpt>
      <trkpt lat="44.15554" lon="1.72139">
        <ele>198.17</ele>
        <time>2023-09-24T13:08:10Z</time>
      </trkpt>
      <trkpt lat="44.15555" lon="1.72157">
        <ele>197.21</ele>
        <time>2023-09-24T13:08:20Z</time>
      </trkpt>
      <trkpt lat="44.15556" lon="1.72171">
        <ele>196.73</ele>
        <time>2023-09-24T13:08:30Z</time>
      </trkpt>
      <trkpt lat="44.15556" lon="1.72185">
        <ele>195.77</ele>
        <time>2023-09-24T13:08:40Z</time>
      </trkpt>
      <trkpt lat="44.15555" lon="1.72199">
        <ele>195.28</ele>
        <time>2023-09-24T13:08:49Z</time>
      </trkpt>
      <trkpt lat="44.15556" lon="1.72215">
        <ele>194.8</ele>
        <time>2023-09-24T13:08:59Z</time>
      </trkpt>
      <trkpt lat="44.15556" lon="1.72229">
        <ele>194.32</ele>
        <time>2023-09-24T13:09:09Z</time>
      </trkpt>
      <trkpt lat="44.15552" lon="1.72243">
        <ele>192.4</ele>
        <time>2023-09-24T13:09:20Z</time>
      </trkpt>
      <trkpt lat="44.15549" lon="1.72257">
        <ele>189.52</ele>
        <time>2023-09-24T13:09:33Z</time>
      </trkpt>
      <trkpt lat="44.15545" lon="1.72276">
        <ele>187.11</ele>
        <time>2023-09-24T13:09:51Z</time>
      </trkpt>
      <trkpt lat="44.1554" lon="1.72293">
        <ele>184.71</ele>
        <time>2023-09-24T13:10:03Z</time>
      </trkpt>
      <trkpt lat="44.15535" lon="1.72309">
        <ele>182.31</ele>
        <time>2023-09-24T13:10:15Z</time>
      </trkpt>
      <trkpt lat="44.15531" lon="1.72326">
        <ele>180.87</ele>
        <time>2023-09-24T13:10:27Z</time>
      </trkpt>
      <trkpt lat="44.15523" lon="1.72343">
        <ele>178.46</ele>
        <time>2023-09-24T13:10:41Z</time>
      </trkpt>
      <trkpt lat="44.15514" lon="1.72357">
        <ele>177.98</ele>
        <time>2023-09-24T13:10:51Z</time>
      </trkpt>
      <trkpt lat="44.15503" lon="1.72373">
        <ele>177.98</ele>
        <time>2023-09-24T13:11:03Z</time>
      </trkpt>
      <trkpt lat="44.15495" lon="1.72388">
        <ele>177.02</ele>
        <time>2023-09-24T13:11:16Z</time>
      </trkpt>
      <trkpt lat="44.15493" lon="1.72405">
        <ele>176.54</ele>
        <time>2023-09-24T13:11:27Z</time>
      </trkpt>
      <trkpt lat="44.15493" lon="1.72421">
        <ele>176.06</ele>
        <time>2023-09-24T13:11:37Z</time>
      </trkpt>
      <trkpt lat="44.15493" lon="1.72436">
        <ele>176.06</ele>
        <time>2023-09-24T13:11:47Z</time>
      </trkpt>
      <trkpt lat="44.15492" lon="1.72451">
        <ele>176.06</ele>
        <time>2023-09-24T13:11:56Z</time>
      </trkpt>
      <trkpt lat="44.15493" lon="1.72467">
        <ele>177.5</ele>
        <time>2023-09-24T13:12:06Z</time>
      </trkpt>
      <trkpt lat="44.15493" lon="1.72485">
        <ele>177.98</ele>
        <time>2023-09-24T13:12:18Z</time>
      </trkpt>
      <trkpt lat="44.1549" lon="1.72503">
        <ele>178.46</ele>
        <time>2023-09-24T13:12:29Z</time>
      </trkpt>
      <trkpt lat="44.15488" lon="1.7252">
        <ele>178.46</ele>
        <time>2023-09-24T13:12:39Z</time>
      </trkpt>
      <trkpt lat="44.15487" lon="1.72536">
        <ele>178.94</ele>
        <time>2023-09-24T13:12:50Z</time>
      </trkpt>
      <trkpt lat="44.15485" lon="1.72554">
        <ele>179.42</ele>
        <time>2023-09-24T13:13:01Z</time>
      </trkpt>
      <trkpt lat="44.15483" lon="1.7257">
        <ele>179.42</ele>
        <time>2023-09-24T13:13:11Z</time>
      </trkpt>
      <trkpt lat="44.15482" lon="1.72585">
        <ele>179.9</ele>
        <time>2023-09-24T13:13:21Z</time>
      </trkpt>
      <trkpt lat="44.1548" lon="1.72602">
        <ele>179.9</ele>
        <time>2023-09-24T13:13:31Z</time>
      </trkpt>
      <trkpt lat="44.15478" lon="1.72619">
        <ele>179.9</ele>
        <time>2023-09-24T13:13:41Z</time>
      </trkpt>
      <trkpt lat="44.15473" lon="1.72636">
        <ele>180.38</ele>
        <time>2023-09-24T13:13:52Z</time>
      </trkpt>
      <trkpt lat="44.15467" lon="1.7265">
        <ele>178.94</ele>
        <time>2023-09-24T13:14:02Z</time>
      </trkpt>
      <trkpt lat="44.15459" lon="1.72666">
        <ele>177.5</ele>
        <time>2023-09-24T13:14:13Z</time>
      </trkpt>
      <trkpt lat="44.15453" lon="1.72682">
        <ele>177.02</ele>
        <time>2023-09-24T13:14:24Z</time>
      </trkpt>
      <trkpt lat="44.15446" lon="1.72693">
        <ele>175.58</ele>
        <time>2023-09-24T13:14:34Z</time>
      </trkpt>
      <trkpt lat="44.15437" lon="1.72706">
        <ele>174.62</ele>
        <time>2023-09-24T13:14:44Z</time>
      </trkpt>
      <trkpt lat="44.15429" lon="1.7272">
        <ele>174.14</ele>
        <time>2023-09-24T13:14:54Z</time>
      </trkpt>
      <trkpt lat="44.15422" lon="1.72732">
        <ele>173.66</ele>
        <time>2023-09-24T13:15:04Z</time>
      </trkpt>
      <trkpt lat="44.15413" lon="1.72744">
        <ele>172.69</ele>
        <time>2023-09-24T13:15:14Z</time>
      </trkpt>
      <trkpt lat="44.15405" lon="1.72758">
        <ele>172.21</ele>
        <time>2023-09-24T13:15:25Z</time>
      </trkpt>
      <trkpt lat="44.15398" lon="1.72771">
        <ele>171.73</ele>
        <time>2023-09-24T13:15:34Z</time>
      </trkpt>
      <trkpt lat="44.1539" lon="1.72783">
        <ele>171.25</ele>
        <time>2023-09-24T13:15:44Z</time>
      </trkpt>
      <trkpt lat="44.15385" lon="1.72797">
        <ele>171.25</ele>
        <time>2023-09-24T13:15:54Z</time>
      </trkpt>
      <trkpt lat="44.15378" lon="1.72811">
        <ele>171.25</ele>
        <time>2023-09-24T13:16:05Z</time>
      </trkpt>
      <trkpt lat="44.1537" lon="1.72828">
        <ele>172.69</ele>
        <time>2023-09-24T13:16:16Z</time>
      </trkpt>
      <trkpt lat="44.15363" lon="1.72842">
        <ele>172.69</ele>
        <time>2023-09-24T13:16:27Z</time>
      </trkpt>
      <trkpt lat="44.15355" lon="1.72855">
        <ele>172.69</ele>
        <time>2023-09-24T13:16:38Z</time>
      </trkpt>
      <trkpt lat="44.15348" lon="1.7287">
        <ele>172.69</ele>
        <time>2023-09-24T13:16:50Z</time>
      </trkpt>
      <trkpt lat="44.15341" lon="1.72883">
        <ele>172.69</ele>
        <time>2023-09-24T13:16:59Z</time>
      </trkpt>
      <trkpt lat="44.15332" lon="1.72895">
        <ele>172.69</ele>
        <time>2023-09-24T13:17:09Z</time>
      </trkpt>
      <trkpt lat="44.15323" lon="1.72909">
        <ele>172.69</ele>
        <time>2023-09-24T13:17:20Z</time>
      </trkpt>
      <trkpt lat="44.15314" lon="1.72921">
        <ele>173.17</ele>
        <time>2023-09-24T13:17:30Z</time>
      </trkpt>
      <trkpt lat="44.15304" lon="1.72933">
        <ele>172.69</ele>
        <time>2023-09-24T13:17:40Z</time>
      </trkpt>
      <trkpt lat="44.15294" lon="1.72944">
        <ele>172.21</ele>
        <time>2023-09-24T13:18:29Z</time>
      </trkpt>
      <trkpt lat="44.15284" lon="1.72959">
        <ele>172.21</ele>
        <time>2023-09-24T13:18:40Z</time>
      </trkpt>
      <trkpt lat="44.15273" lon="1.72974">
        <ele>172.69</ele>
        <time>2023-09-24T13:18:51Z</time>
      </trkpt>
      <trkpt lat="44.15265" lon="1.72986">
        <ele>172.69</ele>
        <time>2023-09-24T13:19:01Z</time>
      </trkpt>
      <trkpt lat="44.15256" lon="1.72997">
        <ele>172.69</ele>
        <time>2023-09-24T13:19:11Z</time>
      </trkpt>
      <trkpt lat="44.15248" lon="1.73008">
        <ele>173.17</ele>
        <time>2023-09-24T13:19:20Z</time>
      </trkpt>
      <trkpt lat="44.15237" lon="1.73018">
        <ele>173.66</ele>
        <time>2023-09-24T13:19:31Z</time>
      </trkpt>
      <trkpt lat="44.15227" lon="1.73027">
        <ele>173.66</ele>
        <time>2023-09-24T13:19:41Z</time>
      </trkpt>
      <trkpt lat="44.15219" lon="1.73037">
        <ele>173.66</ele>
        <time>2023-09-24T13:19:51Z</time>
      </trkpt>
      <trkpt lat="44.15209" lon="1.73049">
        <ele>174.14</ele>
        <time>2023-09-24T13:20:03Z</time>
      </trkpt>
      <trkpt lat="44.15198" lon="1.73059">
        <ele>174.14</ele>
        <time>2023-09-24T13:20:13Z</time>
      </trkpt>
      <trkpt lat="44.1519" lon="1.73067">
        <ele>174.62</ele>
        <time>2023-09-24T13:20:23Z</time>
      </trkpt>
      <trkpt lat="44.1518" lon="1.73079">
        <ele>175.58</ele>
        <time>2023-09-24T13:20:34Z</time>
      </trkpt>
      <trkpt lat="44.15169" lon="1.73091">
        <ele>176.06</ele>
        <time>2023-09-24T13:20:57Z</time>
      </trkpt>
      <trkpt lat="44.1516" lon="1.73103">
        <ele>177.02</ele>
        <time>2023-09-24T13:21:11Z</time>
      </trkpt>
      <trkpt lat="44.15152" lon="1.73113">
        <ele>177.5</ele>
        <time>2023-09-24T13:21:21Z</time>
      </trkpt>
      <trkpt lat="44.15142" lon="1.73123">
        <ele>177.98</ele>
        <time>2023-09-24T13:21:31Z</time>
      </trkpt>
      <trkpt lat="44.15134" lon="1.73133">
        <ele>178.46</ele>
        <time>2023-09-24T13:21:39Z</time>
      </trkpt>
      <trkpt lat="44.15126" lon="1.73145">
        <ele>178.46</ele>
        <time>2023-09-24T13:21:49Z</time>
      </trkpt>
      <trkpt lat="44.15117" lon="1.73155">
        <ele>179.42</ele>
        <time>2023-09-24T13:22:00Z</time>
      </trkpt>
      <trkpt lat="44.1511" lon="1.73165">
        <ele>180.87</ele>
        <time>2023-09-24T13:22:27Z</time>
      </trkpt>
      <trkpt lat="44.15102" lon="1.7317">
        <ele>180.87</ele>
        <time>2023-09-24T13:22:47Z</time>
      </trkpt>
      <trkpt lat="44.15094" lon="1.73177">
        <ele>179.9</ele>
        <time>2023-09-24T13:22:56Z</time>
      </trkpt>
      <trkpt lat="44.15085" lon="1.73184">
        <ele>178.94</ele>
        <time>2023-09-24T13:23:04Z</time>
      </trkpt>
      <trkpt lat="44.15076" lon="1.73192">
        <ele>177.98</ele>
        <time>2023-09-24T13:23:14Z</time>
      </trkpt>
      <trkpt lat="44.15067" lon="1.73201">
        <ele>177.02</ele>
        <time>2023-09-24T13:23:26Z</time>
      </trkpt>
      <trkpt lat="44.15057" lon="1.73209">
        <ele>176.06</ele>
        <time>2023-09-24T13:23:35Z</time>
      </trkpt>
      <trkpt lat="44.15046" lon="1.73217">
        <ele>175.58</ele>
        <time>2023-09-24T13:23:45Z</time>
      </trkpt>
      <trkpt lat="44.15038" lon="1.73226">
        <ele>174.62</ele>
        <time>2023-09-24T13:23:54Z</time>
      </trkpt>
      <trkpt lat="44.15029" lon="1.73235">
        <ele>174.14</ele>
        <time>2023-09-24T13:24:02Z</time>
      </trkpt>
      <trkpt lat="44.15022" lon="1.73243">
        <ele>173.66</ele>
        <time>2023-09-24T13:24:09Z</time>
      </trkpt>
      <trkpt lat="44.15014" lon="1.73253">
        <ele>172.69</ele>
        <time>2023-09-24T13:24:18Z</time>
      </trkpt>
      <trkpt lat="44.15006" lon="1.73262">
        <ele>171.73</ele>
        <time>2023-09-24T13:24:27Z</time>
      </trkpt>
      <trkpt lat="44.14999" lon="1.73272">
        <ele>170.77</ele>
        <time>2023-09-24T13:24:36Z</time>
      </trkpt>
      <trkpt lat="44.14991" lon="1.73282">
        <ele>169.81</ele>
        <time>2023-09-24T13:24:45Z</time>
      </trkpt>
      <trkpt lat="44.14985" lon="1.73293">
        <ele>169.33</ele>
        <time>2023-09-24T13:24:55Z</time>
      </trkpt>
      <trkpt lat="44.14977" lon="1.73302">
        <ele>168.37</ele>
        <time>2023-09-24T13:25:03Z</time>
      </trkpt>
      <trkpt lat="44.14971" lon="1.73314">
        <ele>166.93</ele>
        <time>2023-09-24T13:25:12Z</time>
      </trkpt>
      <trkpt lat="44.14966" lon="1.73326">
        <ele>166.93</ele>
        <time>2023-09-24T13:25:22Z</time>
      </trkpt>
      <trkpt lat="44.1496" lon="1.73338">
        <ele>165.96</ele>
        <time>2023-09-24T13:25:31Z</time>
      </trkpt>
      <trkpt lat="44.14955" lon="1.73351">
        <ele>164.52</ele>
        <time>2023-09-24T13:25:40Z</time>
      </trkpt>
      <trkpt lat="44.14949" lon="1.73363">
        <ele>164.04</ele>
        <time>2023-09-24T13:25:49Z</time>
      </trkpt>
      <trkpt lat="44.14944" lon="1.73376">
        <ele>162.6</ele>
        <time>2023-09-24T13:25:58Z</time>
      </trkpt>
      <trkpt lat="44.1494" lon="1.73389">
        <ele>161.64</ele>
        <time>2023-09-24T13:26:07Z</time>
      </trkpt>
      <trkpt lat="44.14936" lon="1.73403">
        <ele>160.68</ele>
        <time>2023-09-24T13:26:16Z</time>
      </trkpt>
      <trkpt lat="44.14933" lon="1.73417">
        <ele>160.2</ele>
        <time>2023-09-24T13:26:25Z</time>
      </trkpt>
      <trkpt lat="44.14931" lon="1.73429">
        <ele>159.24</ele>
        <time>2023-09-24T13:26:33Z</time>
      </trkpt>
      <trkpt lat="44.14929" lon="1.73443">
        <ele>158.27</ele>
        <time>2023-09-24T13:26:41Z</time>
      </trkpt>
      <trkpt lat="44.14926" lon="1.73455">
        <ele>157.31</ele>
        <time>2023-09-24T13:26:49Z</time>
      </trkpt>
      <trkpt lat="44.14923" lon="1.73468">
        <ele>156.35</ele>
        <time>2023-09-24T13:26:57Z</time>
      </trkpt>
      <trkpt lat="44.14922" lon="1.73482">
        <ele>154.91</ele>
        <time>2023-09-24T13:27:05Z</time>
      </trkpt>
      <trkpt lat="44.14919" lon="1.73496">
        <ele>154.43</ele>
        <time>2023-09-24T13:27:14Z</time>
      </trkpt>
      <trkpt lat="44.14919" lon="1.73511">
        <ele>153.47</ele>
        <time>2023-09-24T13:27:23Z</time>
      </trkpt>
      <trkpt lat="44.14917" lon="1.73527">
        <ele>152.03</ele>
        <time>2023-09-24T13:27:32Z</time>
      </trkpt>
      <trkpt lat="44.14917" lon="1.73542">
        <ele>151.54</ele>
        <time>2023-09-24T13:27:43Z</time>
      </trkpt>
      <trkpt lat="44.14922" lon="1.73554">
        <ele>150.58</ele>
        <time>2023-09-24T13:27:52Z</time>
      </trkpt>
      <trkpt lat="44.14927" lon="1.73567">
        <ele>149.62</ele>
        <time>2023-09-24T13:28:03Z</time>
      </trkpt>
      <trkpt lat="44.14931" lon="1.73582">
        <ele>148.18</ele>
        <time>2023-09-24T13:28:13Z</time>
      </trkpt>
      <trkpt lat="44.14936" lon="1.73594">
        <ele>147.22</ele>
        <time>2023-09-24T13:28:22Z</time>
      </trkpt>
      <trkpt lat="44.14939" lon="1.73608">
        <ele>145.78</ele>
        <time>2023-09-24T13:28:32Z</time>
      </trkpt>
      <trkpt lat="44.14943" lon="1.73623">
        <ele>144.82</ele>
        <time>2023-09-24T13:28:41Z</time>
      </trkpt>
      <trkpt lat="44.14947" lon="1.73636">
        <ele>143.85</ele>
        <time>2023-09-24T13:28:52Z</time>
      </trkpt>
      <trkpt lat="44.14952" lon="1.73649">
        <ele>142.89</ele>
        <time>2023-09-24T13:29:01Z</time>
      </trkpt>
      <trkpt lat="44.14954" lon="1.73661">
        <ele>141.45</ele>
        <time>2023-09-24T13:29:11Z</time>
      </trkpt>
      <trkpt lat="44.14958" lon="1.73676">
        <ele>140.97</ele>
        <time>2023-09-24T13:29:21Z</time>
      </trkpt>
      <trkpt lat="44.14962" lon="1.73689">
        <ele>140.01</ele>
        <time>2023-09-24T13:29:29Z</time>
      </trkpt>
      <trkpt lat="44.14966" lon="1.73702">
        <ele>139.05</ele>
        <time>2023-09-24T13:29:39Z</time>
      </trkpt>
      <trkpt lat="44.14971" lon="1.73718">
        <ele>138.57</ele>
        <time>2023-09-24T13:29:49Z</time>
      </trkpt>
      <trkpt lat="44.14975" lon="1.73732">
        <ele>138.09</ele>
        <time>2023-09-24T13:29:58Z</time>
      </trkpt>
      <trkpt lat="44.14977" lon="1.73747">
        <ele>137.61</ele>
        <time>2023-09-24T13:30:08Z</time>
      </trkpt>
      <trkpt lat="44.14981" lon="1.73761">
        <ele>137.13</ele>
        <time>2023-09-24T13:30:18Z</time>
      </trkpt>
      <trkpt lat="44.14983" lon="1.73776">
        <ele>136.64</ele>
        <time>2023-09-24T13:30:28Z</time>
      </trkpt>
      <trkpt lat="44.14985" lon="1.73791">
        <ele>136.16</ele>
        <time>2023-09-24T13:30:38Z</time>
      </trkpt>
      <trkpt lat="44.14989" lon="1.73806">
        <ele>136.16</ele>
        <time>2023-09-24T13:30:50Z</time>
      </trkpt>
      <trkpt lat="44.14992" lon="1.7382">
        <ele>136.16</ele>
        <time>2023-09-24T13:31:00Z</time>
      </trkpt>
      <trkpt lat="44.14994" lon="1.73836">
        <ele>135.68</ele>
        <time>2023-09-24T13:31:11Z</time>
      </trkpt>
      <trkpt lat="44.14998" lon="1.73853">
        <ele>135.68</ele>
        <time>2023-09-24T13:31:22Z</time>
      </trkpt>
      <trkpt lat="44.15001" lon="1.73869">
        <ele>135.68</ele>
        <time>2023-09-24T13:31:34Z</time>
      </trkpt>
      <trkpt lat="44.15005" lon="1.73887">
        <ele>135.68</ele>
        <time>2023-09-24T13:31:45Z</time>
      </trkpt>
      <trkpt lat="44.15013" lon="1.73915">
        <ele>135.68</ele>
        <time>2023-09-24T13:32:06Z</time>
      </trkpt>
      <trkpt lat="44.15016" lon="1.73941">
        <ele>135.2</ele>
        <time>2023-09-24T13:32:19Z</time>
      </trkpt>
      <trkpt lat="44.1502" lon="1.73958">
        <ele>135.2</ele>
        <time>2023-09-24T13:32:31Z</time>
      </trkpt>
      <trkpt lat="44.15023" lon="1.73974">
        <ele>135.2</ele>
        <time>2023-09-24T13:32:41Z</time>
      </trkpt>
      <trkpt lat="44.15027" lon="1.73994">
        <ele>135.2</ele>
        <time>2023-09-24T13:32:51Z</time>
      </trkpt>
      <trkpt lat="44.15032" lon="1.74012">
        <ele>135.2</ele>
        <time>2023-09-24T13:33:02Z</time>
      </trkpt>
      <trkpt lat="44.15035" lon="1.7403">
        <ele>135.2</ele>
        <time>2023-09-24T13:33:13Z</time>
      </trkpt>
      <trkpt lat="44.15037" lon="1.74046">
        <ele>135.2</ele>
        <time>2023-09-24T13:33:24Z</time>
      </trkpt>
      <trkpt lat="44.15041" lon="1.74062">
        <ele>135.2</ele>
        <time>2023-09-24T13:33:36Z</time>
      </trkpt>
      <trkpt lat="44.15046" lon="1.74077">
        <ele>134.72</ele>
        <time>2023-09-24T13:33:49Z</time>
      </trkpt>
      <trkpt lat="44.15048" lon="1.74091">
        <ele>134.72</ele>
        <time>2023-09-24T13:33:55Z</time>
      </trkpt>
      <trkpt lat="44.15051" lon="1.74103">
        <ele>134.24</ele>
        <time>2023-09-24T13:34:02Z</time>
      </trkpt>
      <trkpt lat="44.15055" lon="1.74118">
        <ele>134.24</ele>
        <time>2023-09-24T13:34:12Z</time>
      </trkpt>
      <trkpt lat="44.15057" lon="1.74133">
        <ele>134.24</ele>
        <time>2023-09-24T13:34:21Z</time>
      </trkpt>
      <trkpt lat="44.1506" lon="1.7415">
        <ele>134.24</ele>
        <time>2023-09-24T13:34:32Z</time>
      </trkpt>
      <trkpt lat="44.15064" lon="1.74164">
        <ele>134.24</ele>
        <time>2023-09-24T13:34:42Z</time>
      </trkpt>
      <trkpt lat="44.15066" lon="1.74178">
        <ele>135.2</ele>
        <time>2023-09-24T13:34:52Z</time>
      </trkpt>
      <trkpt lat="44.1507" lon="1.74193">
        <ele>135.2</ele>
        <time>2023-09-24T13:35:01Z</time>
      </trkpt>
      <trkpt lat="44.15077" lon="1.74207">
        <ele>135.2</ele>
        <time>2023-09-24T13:35:10Z</time>
      </trkpt>
      <trkpt lat="44.15082" lon="1.74221">
        <ele>135.68</ele>
        <time>2023-09-24T13:35:21Z</time>
      </trkpt>
      <trkpt lat="44.15084" lon="1.74237">
        <ele>135.68</ele>
        <time>2023-09-24T13:35:31Z</time>
      </trkpt>
      <trkpt lat="44.15088" lon="1.74252">
        <ele>135.2</ele>
        <time>2023-09-24T13:35:41Z</time>
      </trkpt>
      <trkpt lat="44.15091" lon="1.74266">
        <ele>135.2</ele>
        <time>2023-09-24T13:35:51Z</time>
      </trkpt>
      <trkpt lat="44.15095" lon="1.74281">
        <ele>135.68</ele>
        <time>2023-09-24T13:36:01Z</time>
      </trkpt>
      <trkpt lat="44.15101" lon="1.74297">
        <ele>135.2</ele>
        <time>2023-09-24T13:36:13Z</time>
      </trkpt>
      <trkpt lat="44.15104" lon="1.74311">
        <ele>135.68</ele>
        <time>2023-09-24T13:36:22Z</time>
      </trkpt>
      <trkpt lat="44.15108" lon="1.74325">
        <ele>135.68</ele>
        <time>2023-09-24T13:36:31Z</time>
      </trkpt>
      <trkpt lat="44.15112" lon="1.74341">
        <ele>135.68</ele>
        <time>2023-09-24T13:36:42Z</time>
      </trkpt>
      <trkpt lat="44.15115" lon="1.74356">
        <ele>135.68</ele>
        <time>2023-09-24T13:36:51Z</time>
      </trkpt>
      <trkpt lat="44.15119" lon="1.74372">
        <ele>135.68</ele>
        <time>2023-09-24T13:37:02Z</time>
      </trkpt>
      <trkpt lat="44.15124" lon="1.74388">
        <ele>135.2</ele>
        <time>2023-09-24T13:37:12Z</time>
      </trkpt>
      <trkpt lat="44.15127" lon="1.74404">
        <ele>135.2</ele>
        <time>2023-09-24T13:37:22Z</time>
      </trkpt>
      <trkpt lat="44.15131" lon="1.74418">
        <ele>135.2</ele>
        <time>2023-09-24T13:37:32Z</time>
      </trkpt>
      <trkpt lat="44.15135" lon="1.74434">
        <ele>134.72</ele>
        <time>2023-09-24T13:37:44Z</time>
      </trkpt>
      <trkpt lat="44.15139" lon="1.74451">
        <ele>134.72</ele>
        <time>2023-09-24T13:37:55Z</time>
      </trkpt>
      <trkpt lat="44.15143" lon="1.74471">
        <ele>134.72</ele>
        <time>2023-09-24T13:38:08Z</time>
      </trkpt>
      <trkpt lat="44.15147" lon="1.74491">
        <ele>134.24</ele>
        <time>2023-09-24T13:38:22Z</time>
      </trkpt>
      <trkpt lat="44.15151" lon="1.74506">
        <ele>134.24</ele>
        <time>2023-09-24T13:38:33Z</time>
      </trkpt>
      <trkpt lat="44.15156" lon="1.74524">
        <ele>134.72</ele>
        <time>2023-09-24T13:38:46Z</time>
      </trkpt>
      <trkpt lat="44.15158" lon="1.74541">
        <ele>134.24</ele>
        <time>2023-09-24T13:38:57Z</time>
      </trkpt>
      <trkpt lat="44.15161" lon="1.74559">
        <ele>134.24</ele>
        <time>2023-09-24T13:39:08Z</time>
      </trkpt>
      <trkpt lat="44.15163" lon="1.74576">
        <ele>134.24</ele>
        <time>2023-09-24T13:39:19Z</time>
      </trkpt>
      <trkpt lat="44.1517" lon="1.74596">
        <ele>134.72</ele>
        <time>2023-09-24T13:39:30Z</time>
      </trkpt>
      <trkpt lat="44.15175" lon="1.74612">
        <ele>134.72</ele>
        <time>2023-09-24T13:39:40Z</time>
      </trkpt>
      <trkpt lat="44.1518" lon="1.7463">
        <ele>134.24</ele>
        <time>2023-09-24T13:39:54Z</time>
      </trkpt>
      <trkpt lat="44.15186" lon="1.74647">
        <ele>134.24</ele>
        <time>2023-09-24T13:40:07Z</time>
      </trkpt>
      <trkpt lat="44.15189" lon="1.74661">
        <ele>134.24</ele>
        <time>2023-09-24T13:40:17Z</time>
      </trkpt>
      <trkpt lat="44.15193" lon="1.74677">
        <ele>134.24</ele>
        <time>2023-09-24T13:40:28Z</time>
      </trkpt>
      <trkpt lat="44.15199" lon="1.74695">
        <ele>134.24</ele>
        <time>2023-09-24T13:40:38Z</time>
      </trkpt>
      <trkpt lat="44.15203" lon="1.74708">
        <ele>134.24</ele>
        <time>2023-09-24T13:40:49Z</time>
      </trkpt>
      <trkpt lat="44.15207" lon="1.74721">
        <ele>134.24</ele>
        <time>2023-09-24T13:41:00Z</time>
      </trkpt>
      <trkpt lat="44.15211" lon="1.74736">
        <ele>133.28</ele>
        <time>2023-09-24T13:41:09Z</time>
      </trkpt>
      <trkpt lat="44.15216" lon="1.74748">
        <ele>133.28</ele>
        <time>2023-09-24T13:41:18Z</time>
      </trkpt>
      <trkpt lat="44.1522" lon="1.74763">
        <ele>132.8</ele>
        <time>2023-09-24T13:41:28Z</time>
      </trkpt>
      <trkpt lat="44.15225" lon="1.7478">
        <ele>132.8</ele>
        <time>2023-09-24T13:41:38Z</time>
      </trkpt>
      <trkpt lat="44.15229" lon="1.74795">
        <ele>132.8</ele>
        <time>2023-09-24T13:41:48Z</time>
      </trkpt>
      <trkpt lat="44.15232" lon="1.74809">
        <ele>131.84</ele>
        <time>2023-09-24T13:41:57Z</time>
      </trkpt>
      <trkpt lat="44.15237" lon="1.74825">
        <ele>131.84</ele>
        <time>2023-09-24T13:42:06Z</time>
      </trkpt>
      <trkpt lat="44.15242" lon="1.7484">
        <ele>130.88</ele>
        <time>2023-09-24T13:42:14Z</time>
      </trkpt>
      <trkpt lat="44.15244" lon="1.74853">
        <ele>130.88</ele>
        <time>2023-09-24T13:42:25Z</time>
      </trkpt>
      <trkpt lat="44.1525" lon="1.74866">
        <ele>130.4</ele>
        <time>2023-09-24T13:42:33Z</time>
      </trkpt>
      <trkpt lat="44.15253" lon="1.74878">
        <ele>130.4</ele>
        <time>2023-09-24T13:42:38Z</time>
      </trkpt>
      <trkpt lat="44.15255" lon="1.74889">
        <ele>130.4</ele>
        <time>2023-09-24T13:42:43Z</time>
      </trkpt>
      <trkpt lat="44.15261" lon="1.74904">
        <ele>129.92</ele>
        <time>2023-09-24T13:43:01Z</time>
      </trkpt>
      <trkpt lat="44.15266" lon="1.7492">
        <ele>129.43</ele>
        <time>2023-09-24T13:43:09Z</time>
      </trkpt>
      <trkpt lat="44.15273" lon="1.74941">
        <ele>129.43</ele>
        <time>2023-09-24T13:43:24Z</time>
      </trkpt>
      <trkpt lat="44.15277" lon="1.74957">
        <ele>128.95</ele>
        <time>2023-09-24T13:43:32Z</time>
      </trkpt>
      <trkpt lat="44.15281" lon="1.74972">
        <ele>128.95</ele>
        <time>2023-09-24T13:43:40Z</time>
      </trkpt>
      <trkpt lat="44.15284" lon="1.74988">
        <ele>128.47</ele>
        <time>2023-09-24T13:43:48Z</time>
      </trkpt>
      <trkpt lat="44.15285" lon="1.75002">
        <ele>127.99</ele>
        <time>2023-09-24T13:43:56Z</time>
      </trkpt>
      <trkpt lat="44.15284" lon="1.75015">
        <ele>127.99</ele>
        <time>2023-09-24T13:44:04Z</time>
      </trkpt>
      <trkpt lat="44.15283" lon="1.75029">
        <ele>127.51</ele>
        <time>2023-09-24T13:44:13Z</time>
      </trkpt>
      <trkpt lat="44.15281" lon="1.75045">
        <ele>127.03</ele>
        <time>2023-09-24T13:44:23Z</time>
      </trkpt>
      <trkpt lat="44.15279" lon="1.7506">
        <ele>127.03</ele>
        <time>2023-09-24T13:44:32Z</time>
      </trkpt>
      <trkpt lat="44.15277" lon="1.75078">
        <ele>126.55</ele>
        <time>2023-09-24T13:44:43Z</time>
      </trkpt>
      <trkpt lat="44.15277" lon="1.75092">
        <ele>126.55</ele>
        <time>2023-09-24T13:44:52Z</time>
      </trkpt>
      <trkpt lat="44.15274" lon="1.75107">
        <ele>126.07</ele>
        <time>2023-09-24T13:45:01Z</time>
      </trkpt>
      <trkpt lat="44.15269" lon="1.75121">
        <ele>125.59</ele>
        <time>2023-09-24T13:45:10Z</time>
      </trkpt>
      <trkpt lat="44.15268" lon="1.75138">
        <ele>125.59</ele>
        <time>2023-09-24T13:45:21Z</time>
      </trkpt>
      <trkpt lat="44.15266" lon="1.75154">
        <ele>125.11</ele>
        <time>2023-09-24T13:45:30Z</time>
      </trkpt>
      <trkpt lat="44.15264" lon="1.7517">
        <ele>125.11</ele>
        <time>2023-09-24T13:45:39Z</time>
      </trkpt>
      <trkpt lat="44.15261" lon="1.75183">
        <ele>124.63</ele>
        <time>2023-09-24T13:45:49Z</time>
      </trkpt>
      <trkpt lat="44.15261" lon="1.75202">
        <ele>124.63</ele>
        <time>2023-09-24T13:45:59Z</time>
      </trkpt>
      <trkpt lat="44.15257" lon="1.75217">
        <ele>124.63</ele>
        <time>2023-09-24T13:46:09Z</time>
      </trkpt>
      <trkpt lat="44.15251" lon="1.75231">
        <ele>124.63</ele>
        <time>2023-09-24T13:46:19Z</time>
      </trkpt>
      <trkpt lat="44.15248" lon="1.75245">
        <ele>124.63</ele>
        <time>2023-09-24T13:46:28Z</time>
      </trkpt>
      <trkpt lat="44.15247" lon="1.75261">
        <ele>124.15</ele>
        <time>2023-09-24T13:46:37Z</time>
      </trkpt>
      <trkpt lat="44.15246" lon="1.75276">
        <ele>124.15</ele>
        <time>2023-09-24T13:46:46Z</time>
      </trkpt>
      <trkpt lat="44.15247" lon="1.75291">
        <ele>124.15</ele>
        <time>2023-09-24T13:46:55Z</time>
      </trkpt>
      <trkpt lat="44.15246" lon="1.75306">
        <ele>124.15</ele>
        <time>2023-09-24T13:47:04Z</time>
      </trkpt>
      <trkpt lat="44.15239" lon="1.75314">
        <ele>124.15</ele>
        <time>2023-09-24T13:47:13Z</time>
      </trkpt>
      <trkpt lat="44.15229" lon="1.75317">
        <ele>124.15</ele>
        <time>2023-09-24T13:47:33Z</time>
      </trkpt>
      <trkpt lat="44.1521" lon="1.75318">
        <ele>124.15</ele>
        <time>2023-09-24T13:47:56Z</time>
      </trkpt>
      <trkpt lat="44.15194" lon="1.75318">
        <ele>124.15</ele>
        <time>2023-09-24T13:48:08Z</time>
      </trkpt>
      <trkpt lat="44.15176" lon="1.75316">
        <ele>124.15</ele>
        <time>2023-09-24T13:48:20Z</time>
      </trkpt>
      <trkpt lat="44.15161" lon="1.75316">
        <ele>124.15</ele>
        <time>2023-09-24T13:48:32Z</time>
      </trkpt>
      <trkpt lat="44.15152" lon="1.75323">
        <ele>124.15</ele>
        <time>2023-09-24T13:48:42Z</time>
      </trkpt>
      <trkpt lat="44.15141" lon="1.75337">
        <ele>125.11</ele>
        <time>2023-09-24T13:48:57Z</time>
      </trkpt>
      <trkpt lat="44.15131" lon="1.75347">
        <ele>125.11</ele>
        <time>2023-09-24T13:49:06Z</time>
      </trkpt>
      <trkpt lat="44.15124" lon="1.75362">
        <ele>125.59</ele>
        <time>2023-09-24T13:49:16Z</time>
      </trkpt>
      <trkpt lat="44.1512" lon="1.75378">
        <ele>126.55</ele>
        <time>2023-09-24T13:49:27Z</time>
      </trkpt>
      <trkpt lat="44.15115" lon="1.75393">
        <ele>126.55</ele>
        <time>2023-09-24T13:49:39Z</time>
      </trkpt>
      <trkpt lat="44.15112" lon="1.75407">
        <ele>126.55</ele>
        <time>2023-09-24T13:49:47Z</time>
      </trkpt>
      <trkpt lat="44.15108" lon="1.75421">
        <ele>126.55</ele>
        <time>2023-09-24T13:49:56Z</time>
      </trkpt>
      <trkpt lat="44.15102" lon="1.7544">
        <ele>127.03</ele>
        <time>2023-09-24T13:50:10Z</time>
      </trkpt>
      <trkpt lat="44.15098" lon="1.75453">
        <ele>127.03</ele>
        <time>2023-09-24T13:50:19Z</time>
      </trkpt>
      <trkpt lat="44.15098" lon="1.75469">
        <ele>127.03</ele>
        <time>2023-09-24T13:50:29Z</time>
      </trkpt>
      <trkpt lat="44.15094" lon="1.75484">
        <ele>127.03</ele>
        <time>2023-09-24T13:50:40Z</time>
      </trkpt>
      <trkpt lat="44.15092" lon="1.75504">
        <ele>126.55</ele>
        <time>2023-09-24T13:50:52Z</time>
      </trkpt>
      <trkpt lat="44.1509" lon="1.75522">
        <ele>126.55</ele>
        <time>2023-09-24T13:51:05Z</time>
      </trkpt>
      <trkpt lat="44.15087" lon="1.75536">
        <ele>127.03</ele>
        <time>2023-09-24T13:51:14Z</time>
      </trkpt>
      <trkpt lat="44.15083" lon="1.75552">
        <ele>127.03</ele>
        <time>2023-09-24T13:51:29Z</time>
      </trkpt>
      <trkpt lat="44.15088" lon="1.75576">
        <ele>127.51</ele>
        <time>2023-09-24T13:51:54Z</time>
      </trkpt>
      <trkpt lat="44.15084" lon="1.75589">
        <ele>127.51</ele>
        <time>2023-09-24T13:52:05Z</time>
      </trkpt>
      <trkpt lat="44.15082" lon="1.75604">
        <ele>127.99</ele>
        <time>2023-09-24T13:52:16Z</time>
      </trkpt>
      <trkpt lat="44.1508" lon="1.75619">
        <ele>128.95</ele>
        <time>2023-09-24T13:52:26Z</time>
      </trkpt>
      <trkpt lat="44.15076" lon="1.75634">
        <ele>128.9</ele>
      </trkpt>
      <trkpt lat="44.15091" lon="1.75647">
        <ele>130.88</ele>
        <time>2023-09-24T13:52:56Z</time>
      </trkpt>
      <trkpt lat="44.15143" lon="1.75681">
        <ele>133.9</ele>
        <time>2023-09-24T13:53:10Z</time>
      </trkpt>
      <trkpt lat="44.15059" lon="1.75623">
        <ele>126.8</ele>
      </trkpt>
      <trkpt lat="44.15016" lon="1.75592">
        <ele>123</ele>
      </trkpt>
      <trkpt lat="44.15033" lon="1.75537">
        <ele>123.6</ele>
      </trkpt>
      <trkpt lat="44.15032" lon="1.7553">
        <ele>123.3</ele>
      </trkpt>
      <trkpt lat="44.15028" lon="1.75526">
        <ele>122.8</ele>
      </trkpt>
      <trkpt lat="44.1494" lon="1.75477">
        <ele>129.1</ele>
      </trkpt>
      <trkpt lat="44.14955" lon="1.75381">
        <ele>126.9</ele>
        <time>2023-09-24T13:53:36Z</time>
      </trkpt>
    </trkseg>
  </trk>
</gpx>